<?xml version="1.0" encoding="UTF-8" standalone="no" ?>
<gpx xmlns="http://www.topografix.com/GPX/1/1" xmlns:xsi="http://www.w3.org/2001/XMLSchema-instance" xsi:schemaLocation="http://www.topografix.com/GPX/1/1 http://www.topografix.com/GPX/1/1/gpx.xsd" version="1.1" creator="VisuGPX - https://www.visugpx.com">
  <metadata>
    <name>sortie samedi 4 juin</name>
  </metadata>
  <trk>
    <name><![CDATA[sortie samedi 4 juin_1]]></name>
    <extensions>
      <line xmlns="http://www.topografix.com/GPX/gpx_style/0/2">
        <color>0000FF</color>
        <width>2</width>
      </line>
    </extensions>
    <trkseg>
      <trkpt lat="46.68458" lon="5.56866">
        <ele>274.18374041957</ele>
        <time>2021-05-12T15:54:06.000Z</time>
      </trkpt>
      <trkpt lat="46.68458" lon="5.56866">
        <ele>274.18374041957</ele>
        <time>2021-05-12T15:54:06.000Z</time>
      </trkpt>
      <trkpt lat="46.68416" lon="5.56821">
        <ele>275.8</ele>
      </trkpt>
      <trkpt lat="46.68411" lon="5.56794">
        <ele>275.6</ele>
      </trkpt>
      <trkpt lat="46.68436" lon="5.56783">
        <ele>273.5</ele>
      </trkpt>
      <trkpt lat="46.68451" lon="5.56741">
        <ele>272</ele>
      </trkpt>
      <trkpt lat="46.6847" lon="5.56694">
        <ele>271.8</ele>
      </trkpt>
      <trkpt lat="46.68498" lon="5.56666">
        <ele>272</ele>
        <time>2021-05-12T17:18:24.094Z</time>
      </trkpt>
      <trkpt lat="46.68498" lon="5.56666">
        <ele>272</ele>
        <time>2021-05-12T17:18:24.094Z</time>
      </trkpt>
      <trkpt lat="46.68533" lon="5.5662">
        <ele>268.83808914406</ele>
        <time>2021-05-12T17:15:57.648Z</time>
      </trkpt>
      <trkpt lat="46.68543" lon="5.56609">
        <ele>268.43733538631</ele>
        <time>2021-05-12T17:15:50.356Z</time>
      </trkpt>
      <trkpt lat="46.68592" lon="5.56564">
        <ele>270.6</ele>
        <time>2021-05-12T17:15:43.066Z</time>
      </trkpt>
      <trkpt lat="46.68618" lon="5.5654">
        <ele>270.1</ele>
      </trkpt>
      <trkpt lat="46.68648" lon="5.56502">
        <ele>269.1</ele>
      </trkpt>
      <trkpt lat="46.68662" lon="5.56488">
        <ele>268.7</ele>
      </trkpt>
      <trkpt lat="46.68691" lon="5.56469">
        <ele>269.3</ele>
      </trkpt>
      <trkpt lat="46.68696" lon="5.56466">
        <ele>269.4</ele>
      </trkpt>
      <trkpt lat="46.68707" lon="5.56462">
        <ele>269.8</ele>
      </trkpt>
      <trkpt lat="46.68726" lon="5.56452">
        <ele>270.3</ele>
      </trkpt>
      <trkpt lat="46.68793" lon="5.56422">
        <ele>270.3</ele>
      </trkpt>
      <trkpt lat="46.68802" lon="5.56414">
        <ele>270</ele>
      </trkpt>
      <trkpt lat="46.68804" lon="5.56412">
        <ele>270</ele>
      </trkpt>
      <trkpt lat="46.68807" lon="5.56401">
        <ele>270</ele>
      </trkpt>
      <trkpt lat="46.6882" lon="5.56348">
        <ele>269.6</ele>
      </trkpt>
      <trkpt lat="46.68825" lon="5.56332">
        <ele>269.4</ele>
      </trkpt>
      <trkpt lat="46.68829" lon="5.56324">
        <ele>270</ele>
      </trkpt>
      <trkpt lat="46.68833" lon="5.56319">
        <ele>270.4</ele>
      </trkpt>
      <trkpt lat="46.68866" lon="5.56289">
        <ele>275.15606974637</ele>
        <time>2021-05-12T17:13:39.826Z</time>
      </trkpt>
      <trkpt lat="46.68937" lon="5.56272">
        <ele>276.7915221294</ele>
        <time>2021-05-12T17:13:32.606Z</time>
      </trkpt>
      <trkpt lat="46.69011" lon="5.56268">
        <ele>278.59737841146</ele>
        <time>2021-05-12T17:13:25.398Z</time>
      </trkpt>
      <trkpt lat="46.69041" lon="5.5627">
        <ele>280.54129333341</ele>
        <time>2021-05-12T17:13:18.201Z</time>
      </trkpt>
      <trkpt lat="46.69098" lon="5.56279">
        <ele>282.72180422051</ele>
        <time>2021-05-12T17:13:11.009Z</time>
      </trkpt>
      <trkpt lat="46.69129" lon="5.56289">
        <ele>285.07980877126</ele>
        <time>2021-05-12T17:13:03.826Z</time>
      </trkpt>
      <trkpt lat="46.69161" lon="5.56301">
        <ele>287.51840478524</ele>
        <time>2021-05-12T17:12:56.648Z</time>
      </trkpt>
      <trkpt lat="46.69161" lon="5.56301">
        <ele>290.02024549289</ele>
        <time>2021-05-12T17:12:49.476Z</time>
      </trkpt>
      <trkpt lat="46.69348" lon="5.56386">
        <ele>293.03168372169</ele>
        <time>2021-05-12T17:12:42.304Z</time>
      </trkpt>
      <trkpt lat="46.69448" lon="5.56431">
        <ele>296.17843143446</ele>
        <time>2021-05-12T17:12:35.163Z</time>
      </trkpt>
      <trkpt lat="46.69456" lon="5.56433">
        <ele>299.1319187217</ele>
        <time>2021-05-12T17:12:28.039Z</time>
      </trkpt>
      <trkpt lat="46.69456" lon="5.56433">
        <ele>302.09390766769</ele>
        <time>2021-05-12T17:12:20.916Z</time>
      </trkpt>
      <trkpt lat="46.69592" lon="5.56484">
        <ele>305.85071635197</ele>
        <time>2021-05-12T17:12:13.793Z</time>
      </trkpt>
      <trkpt lat="46.69633" lon="5.56505">
        <ele>309.31193549896</ele>
        <time>2021-05-12T17:12:06.693Z</time>
      </trkpt>
      <trkpt lat="46.69659" lon="5.5652">
        <ele>312.68671990227</ele>
        <time>2021-05-12T17:11:59.599Z</time>
      </trkpt>
      <trkpt lat="46.69704" lon="5.56552">
        <ele>316.11586958522</ele>
        <time>2021-05-12T17:11:52.510Z</time>
      </trkpt>
      <trkpt lat="46.69739" lon="5.56582">
        <ele>319.45508486206</ele>
        <time>2021-05-12T17:11:45.429Z</time>
      </trkpt>
      <trkpt lat="46.69765" lon="5.56607">
        <ele>322.68092915925</ele>
        <time>2021-05-12T17:11:38.355Z</time>
      </trkpt>
      <trkpt lat="46.6982" lon="5.56666">
        <ele>325.83169960625</ele>
        <time>2021-05-12T17:11:31.285Z</time>
      </trkpt>
      <trkpt lat="46.69856" lon="5.56697">
        <ele>328.7471875738</ele>
        <time>2021-05-12T17:11:24.226Z</time>
      </trkpt>
      <trkpt lat="46.69904" lon="5.5673">
        <ele>331.59579542653</ele>
        <time>2021-05-12T17:11:17.174Z</time>
      </trkpt>
      <trkpt lat="46.69947" lon="5.56754">
        <ele>334.08536503972</ele>
        <time>2021-05-12T17:11:10.131Z</time>
      </trkpt>
      <trkpt lat="46.69994" lon="5.56773">
        <ele>336.12547595704</ele>
        <time>2021-05-12T17:11:03.095Z</time>
      </trkpt>
      <trkpt lat="46.69994" lon="5.56773">
        <ele>338.21173028676</ele>
        <time>2021-05-12T17:10:56.067Z</time>
      </trkpt>
      <trkpt lat="46.7013" lon="5.56806">
        <ele>340.03785581275</ele>
        <time>2021-05-12T17:10:49.039Z</time>
      </trkpt>
      <trkpt lat="46.70167" lon="5.56818">
        <ele>341.7893517313</ele>
        <time>2021-05-12T17:10:42.033Z</time>
      </trkpt>
      <trkpt lat="46.70211" lon="5.56836">
        <ele>343.51779678289</ele>
        <time>2021-05-12T17:10:35.033Z</time>
      </trkpt>
      <trkpt lat="46.70266" lon="5.56865">
        <ele>345.09753631356</ele>
        <time>2021-05-12T17:10:28.040Z</time>
      </trkpt>
      <trkpt lat="46.70292" lon="5.56882">
        <ele>346.50699597994</ele>
        <time>2021-05-12T17:10:21.057Z</time>
      </trkpt>
      <trkpt lat="46.70315" lon="5.56901">
        <ele>347.81847380021</ele>
        <time>2021-05-12T17:10:14.078Z</time>
      </trkpt>
      <trkpt lat="46.70349" lon="5.56932">
        <ele>349.01382212369</ele>
        <time>2021-05-12T17:10:07.103Z</time>
      </trkpt>
      <trkpt lat="46.70374" lon="5.5696">
        <ele>350.05045805852</ele>
        <time>2021-05-12T17:10:00.135Z</time>
      </trkpt>
      <trkpt lat="46.70395" lon="5.56989">
        <ele>351.00415334265</ele>
        <time>2021-05-12T17:09:53.172Z</time>
      </trkpt>
      <trkpt lat="46.70419" lon="5.57027">
        <ele>351.83174304655</ele>
        <time>2021-05-12T17:09:46.214Z</time>
      </trkpt>
      <trkpt lat="46.70439" lon="5.57067">
        <ele>352.42184465186</ele>
        <time>2021-05-12T17:09:39.261Z</time>
      </trkpt>
      <trkpt lat="46.70458" lon="5.57113">
        <ele>352.88930007949</ele>
        <time>2021-05-12T17:09:32.314Z</time>
      </trkpt>
      <trkpt lat="46.70468" lon="5.57146">
        <ele>353.25174045583</ele>
        <time>2021-05-12T17:09:25.373Z</time>
      </trkpt>
      <trkpt lat="46.70487" lon="5.57232">
        <ele>353.40253394106</ele>
        <time>2021-05-12T17:09:18.436Z</time>
      </trkpt>
      <trkpt lat="46.70497" lon="5.57319">
        <ele>353.37143156401</ele>
        <time>2021-05-12T17:09:11.509Z</time>
      </trkpt>
      <trkpt lat="46.70505" lon="5.57367">
        <ele>353.16532669228</ele>
        <time>2021-05-12T17:09:04.591Z</time>
      </trkpt>
      <trkpt lat="46.70513" lon="5.57408">
        <ele>352.80469171158</ele>
        <time>2021-05-12T17:08:57.679Z</time>
      </trkpt>
      <trkpt lat="46.70522" lon="5.57444">
        <ele>352.31364836345</ele>
        <time>2021-05-12T17:08:50.771Z</time>
      </trkpt>
      <trkpt lat="46.70536" lon="5.57483">
        <ele>351.72951341362</ele>
        <time>2021-05-12T17:08:43.868Z</time>
      </trkpt>
      <trkpt lat="46.70553" lon="5.57524">
        <ele>350.95342669147</ele>
        <time>2021-05-12T17:08:36.969Z</time>
      </trkpt>
      <trkpt lat="46.70553" lon="5.57524">
        <ele>349.92268044113</ele>
        <time>2021-05-12T17:08:30.076Z</time>
      </trkpt>
      <trkpt lat="46.70565" lon="5.5755">
        <ele>348.70811047288</ele>
        <time>2021-05-12T17:08:23.183Z</time>
      </trkpt>
      <trkpt lat="46.70565" lon="5.5755">
        <ele>347.3206546597</ele>
        <time>2021-05-12T17:08:16.293Z</time>
      </trkpt>
      <trkpt lat="46.70609" lon="5.57641">
        <ele>345.6265992626</ele>
        <time>2021-05-12T17:08:09.403Z</time>
      </trkpt>
      <trkpt lat="46.70624" lon="5.5768">
        <ele>343.8236138618</ele>
        <time>2021-05-12T17:08:02.525Z</time>
      </trkpt>
      <trkpt lat="46.70658" lon="5.5779">
        <ele>341.86990562775</ele>
        <time>2021-05-12T17:07:55.652Z</time>
      </trkpt>
      <trkpt lat="46.70693" lon="5.57864">
        <ele>339.72331622517</ele>
        <time>2021-05-12T17:07:48.793Z</time>
      </trkpt>
      <trkpt lat="46.70762" lon="5.57956">
        <ele>337.4558505125</ele>
        <time>2021-05-12T17:07:41.943Z</time>
      </trkpt>
      <trkpt lat="46.70796" lon="5.58">
        <ele>334.89238998663</ele>
        <time>2021-05-12T17:07:35.109Z</time>
      </trkpt>
      <trkpt lat="46.70902" lon="5.58102">
        <ele>332.31113559657</ele>
        <time>2021-05-12T17:07:28.282Z</time>
      </trkpt>
      <trkpt lat="46.71323" lon="5.58401">
        <ele>328.96493471122</ele>
        <time>2021-05-12T17:07:21.475Z</time>
      </trkpt>
      <trkpt lat="46.71323" lon="5.58401">
        <ele>326.32342551173</ele>
        <time>2021-05-12T17:07:14.743Z</time>
      </trkpt>
      <trkpt lat="46.71511" lon="5.58528">
        <ele>323.16088269944</ele>
        <time>2021-05-12T17:07:08.011Z</time>
      </trkpt>
      <trkpt lat="46.71511" lon="5.58528">
        <ele>320.4547277813</ele>
        <time>2021-05-12T17:07:01.312Z</time>
      </trkpt>
      <trkpt lat="46.71541" lon="5.58545">
        <ele>317.69954419249</ele>
        <time>2021-05-12T17:06:54.613Z</time>
      </trkpt>
      <trkpt lat="46.71617" lon="5.58572">
        <ele>315.12575789793</ele>
        <time>2021-05-12T17:06:47.920Z</time>
      </trkpt>
      <trkpt lat="46.71632" lon="5.58581">
        <ele>312.51626077832</ele>
        <time>2021-05-12T17:06:41.239Z</time>
      </trkpt>
      <trkpt lat="46.71647" lon="5.58594">
        <ele>309.94189083961</ele>
        <time>2021-05-12T17:06:34.561Z</time>
      </trkpt>
      <trkpt lat="46.7166" lon="5.58604">
        <ele>307.4261300041</ele>
        <time>2021-05-12T17:06:27.885Z</time>
      </trkpt>
      <trkpt lat="46.71686" lon="5.58631">
        <ele>304.91437290367</ele>
        <time>2021-05-12T17:06:21.212Z</time>
      </trkpt>
      <trkpt lat="46.71712" lon="5.58654">
        <ele>302.43630073147</ele>
        <time>2021-05-12T17:06:14.544Z</time>
      </trkpt>
      <trkpt lat="46.71731" lon="5.58664">
        <ele>300.10162269343</ele>
        <time>2021-05-12T17:06:07.881Z</time>
      </trkpt>
      <trkpt lat="46.71745" lon="5.5867">
        <ele>297.93992644556</ele>
        <time>2021-05-12T17:06:01.221Z</time>
      </trkpt>
      <trkpt lat="46.71812" lon="5.58686">
        <ele>295.80619206472</ele>
        <time>2021-05-12T17:05:54.563Z</time>
      </trkpt>
      <trkpt lat="46.71847" lon="5.58698">
        <ele>293.62579353213</ele>
        <time>2021-05-12T17:05:47.916Z</time>
      </trkpt>
      <trkpt lat="46.71919" lon="5.58733">
        <ele>291.45851202174</ele>
        <time>2021-05-12T17:05:41.275Z</time>
      </trkpt>
      <trkpt lat="46.72038" lon="5.58784">
        <ele>289.58543149079</ele>
        <time>2021-05-12T17:05:34.646Z</time>
      </trkpt>
      <trkpt lat="46.72382" lon="5.58919">
        <ele>287.92630387125</ele>
        <time>2021-05-12T17:05:28.037Z</time>
      </trkpt>
      <trkpt lat="46.72673" lon="5.59">
        <ele>285.92382793623</ele>
        <time>2021-05-12T17:05:21.485Z</time>
      </trkpt>
      <trkpt lat="46.72673" lon="5.59">
        <ele>284.66202004961</ele>
        <time>2021-05-12T17:05:14.980Z</time>
      </trkpt>
      <trkpt lat="46.72684" lon="5.59004">
        <ele>283.57189187118</ele>
        <time>2021-05-12T17:05:08.475Z</time>
      </trkpt>
      <trkpt lat="46.72703" lon="5.5901">
        <ele>281.98718511307</ele>
        <time>2021-05-12T17:05:01.972Z</time>
      </trkpt>
      <trkpt lat="46.72771" lon="5.59031">
        <ele>281.43179297177</ele>
        <time>2021-05-12T17:04:55.472Z</time>
      </trkpt>
      <trkpt lat="46.72808" lon="5.59052">
        <ele>281.03155847341</ele>
        <time>2021-05-12T17:04:48.983Z</time>
      </trkpt>
      <trkpt lat="46.72866" lon="5.59091">
        <ele>280.89141313737</ele>
        <time>2021-05-12T17:04:42.501Z</time>
      </trkpt>
      <trkpt lat="46.72921" lon="5.5913">
        <ele>281.28911638747</ele>
        <time>2021-05-12T17:04:36.029Z</time>
      </trkpt>
      <trkpt lat="46.72929" lon="5.59135">
        <ele>281.59259905509</ele>
        <time>2021-05-12T17:04:29.567Z</time>
      </trkpt>
      <trkpt lat="46.72957" lon="5.59153">
        <ele>282.08444853219</ele>
        <time>2021-05-12T17:04:23.106Z</time>
      </trkpt>
      <trkpt lat="46.72965" lon="5.59158">
        <ele>282.68261887283</ele>
        <time>2021-05-12T17:04:16.650Z</time>
      </trkpt>
      <trkpt lat="46.72974" lon="5.59168">
        <ele>283.41490933325</ele>
        <time>2021-05-12T17:04:10.196Z</time>
      </trkpt>
      <trkpt lat="46.73109" lon="5.59269">
        <ele>284.45516457447</ele>
        <time>2021-05-12T17:04:03.743Z</time>
      </trkpt>
      <trkpt lat="46.73131" lon="5.59284">
        <ele>285.39525252651</ele>
        <time>2021-05-12T17:03:57.315Z</time>
      </trkpt>
      <trkpt lat="46.73134" lon="5.59286">
        <ele>286.4272975537</ele>
        <time>2021-05-12T17:03:50.891Z</time>
      </trkpt>
      <trkpt lat="46.73146" lon="5.59289">
        <ele>287.49471424843</ele>
        <time>2021-05-12T17:03:44.467Z</time>
      </trkpt>
      <trkpt lat="46.73171" lon="5.59304">
        <ele>288.62814162567</ele>
        <time>2021-05-12T17:03:38.045Z</time>
      </trkpt>
      <trkpt lat="46.73191" lon="5.5932">
        <ele>289.91914324765</ele>
        <time>2021-05-12T17:03:31.627Z</time>
      </trkpt>
      <trkpt lat="46.73229" lon="5.59343">
        <ele>291.38715414474</ele>
        <time>2021-05-12T17:03:25.213Z</time>
      </trkpt>
      <trkpt lat="46.73314" lon="5.5939">
        <ele>292.79249365206</ele>
        <time>2021-05-12T17:03:18.806Z</time>
      </trkpt>
      <trkpt lat="46.73333" lon="5.594">
        <ele>293.93959215889</ele>
        <time>2021-05-12T17:03:12.413Z</time>
      </trkpt>
      <trkpt lat="46.73367" lon="5.59421">
        <ele>295.02531801542</ele>
        <time>2021-05-12T17:03:06.023Z</time>
      </trkpt>
      <trkpt lat="46.73375" lon="5.59424">
        <ele>296.08133687678</ele>
        <time>2021-05-12T17:02:59.639Z</time>
      </trkpt>
      <trkpt lat="46.73394" lon="5.59432">
        <ele>297.08804783357</ele>
        <time>2021-05-12T17:02:53.257Z</time>
      </trkpt>
      <trkpt lat="46.73407" lon="5.59438">
        <ele>297.95859260529</ele>
        <time>2021-05-12T17:02:46.878Z</time>
      </trkpt>
      <trkpt lat="46.73417" lon="5.59448">
        <ele>298.71806871909</ele>
        <time>2021-05-12T17:02:40.501Z</time>
      </trkpt>
      <trkpt lat="46.73426" lon="5.59453">
        <ele>299.33409302742</ele>
        <time>2021-05-12T17:02:34.126Z</time>
      </trkpt>
      <trkpt lat="46.73465" lon="5.59475">
        <ele>299.89434709619</ele>
        <time>2021-05-12T17:02:27.752Z</time>
      </trkpt>
      <trkpt lat="46.73483" lon="5.59484">
        <ele>300.35335399045</ele>
        <time>2021-05-12T17:02:21.385Z</time>
      </trkpt>
      <trkpt lat="46.73557" lon="5.5953">
        <ele>300.65106202145</ele>
        <time>2021-05-12T17:02:15.021Z</time>
      </trkpt>
      <trkpt lat="46.73627" lon="5.59576">
        <ele>300.67039531731</ele>
        <time>2021-05-12T17:02:08.670Z</time>
      </trkpt>
      <trkpt lat="46.73683" lon="5.59613">
        <ele>300.4495126341</ele>
        <time>2021-05-12T17:02:02.331Z</time>
      </trkpt>
      <trkpt lat="46.73839" lon="5.59718">
        <ele>300.02911711293</ele>
        <time>2021-05-12T17:01:56.002Z</time>
      </trkpt>
      <trkpt lat="46.73947" lon="5.59795">
        <ele>299.4013124273</ele>
        <time>2021-05-12T17:01:49.701Z</time>
      </trkpt>
      <trkpt lat="46.74" lon="5.59836">
        <ele>298.64584241431</ele>
        <time>2021-05-12T17:01:43.419Z</time>
      </trkpt>
      <trkpt lat="46.74125" lon="5.59948">
        <ele>297.65080749059</ele>
        <time>2021-05-12T17:01:37.147Z</time>
      </trkpt>
      <trkpt lat="46.74125" lon="5.59948">
        <ele>296.69089462155</ele>
        <time>2021-05-12T17:01:30.898Z</time>
      </trkpt>
      <trkpt lat="46.74186" lon="5.6">
        <ele>295.4677624595</ele>
        <time>2021-05-12T17:01:24.649Z</time>
      </trkpt>
      <trkpt lat="46.74186" lon="5.6">
        <ele>294.23515564665</ele>
        <time>2021-05-12T17:01:18.411Z</time>
      </trkpt>
      <trkpt lat="46.74213" lon="5.60024">
        <ele>292.85187044262</ele>
        <time>2021-05-12T17:01:12.173Z</time>
      </trkpt>
      <trkpt lat="46.74304" lon="5.60109">
        <ele>291.33499114211</ele>
        <time>2021-05-12T17:01:05.940Z</time>
      </trkpt>
      <trkpt lat="46.74358" lon="5.60165">
        <ele>289.72705335369</ele>
        <time>2021-05-12T17:00:59.725Z</time>
      </trkpt>
      <trkpt lat="46.74444" lon="5.60266">
        <ele>287.97105563938</ele>
        <time>2021-05-12T17:00:53.520Z</time>
      </trkpt>
      <trkpt lat="46.74608" lon="5.60462">
        <ele>285.9846361408</ele>
        <time>2021-05-12T17:00:47.333Z</time>
      </trkpt>
      <trkpt lat="46.74633" lon="5.60487">
        <ele>284.14408834971</ele>
        <time>2021-05-12T17:00:41.180Z</time>
      </trkpt>
      <trkpt lat="46.74633" lon="5.60487">
        <ele>282.2684736765</ele>
        <time>2021-05-12T17:00:35.032Z</time>
      </trkpt>
      <trkpt lat="46.74672" lon="5.60518">
        <ele>280.28512197777</ele>
        <time>2021-05-12T17:00:28.884Z</time>
      </trkpt>
      <trkpt lat="46.74733" lon="5.60563">
        <ele>278.24745097634</ele>
        <time>2021-05-12T17:00:22.743Z</time>
      </trkpt>
      <trkpt lat="46.74932" lon="5.60712">
        <ele>275.72842822346</ele>
        <time>2021-05-12T17:00:16.613Z</time>
      </trkpt>
      <trkpt lat="46.75081" lon="5.60821">
        <ele>273.71455209827</ele>
        <time>2021-05-12T17:00:10.519Z</time>
      </trkpt>
      <trkpt lat="46.75081" lon="5.60821">
        <ele>271.75291894717</ele>
        <time>2021-05-12T17:00:04.451Z</time>
      </trkpt>
      <trkpt lat="46.75126" lon="5.60856">
        <ele>269.77781768016</ele>
        <time>2021-05-12T16:59:58.383Z</time>
      </trkpt>
      <trkpt lat="46.75268" lon="5.60965">
        <ele>267.80623964783</ele>
        <time>2021-05-12T16:59:52.324Z</time>
      </trkpt>
      <trkpt lat="46.75278" lon="5.60969">
        <ele>265.92060641959</ele>
        <time>2021-05-12T16:59:46.290Z</time>
      </trkpt>
      <trkpt lat="46.75278" lon="5.60969">
        <ele>264.11358876992</ele>
        <time>2021-05-12T16:59:40.258Z</time>
      </trkpt>
      <trkpt lat="46.75286" lon="5.60969">
        <ele>262.36207499273</ele>
        <time>2021-05-12T16:59:34.226Z</time>
      </trkpt>
      <trkpt lat="46.753" lon="5.60965">
        <ele>260.64330497832</ele>
        <time>2021-05-12T16:59:28.195Z</time>
      </trkpt>
      <trkpt lat="46.75329" lon="5.60949">
        <ele>259.06017422429</ele>
        <time>2021-05-12T16:59:22.167Z</time>
      </trkpt>
      <trkpt lat="46.75346" lon="5.60943">
        <ele>257.44330845877</ele>
        <time>2021-05-12T16:59:16.143Z</time>
      </trkpt>
      <trkpt lat="46.75359" lon="5.60945">
        <ele>255.91929193149</ele>
        <time>2021-05-12T16:59:10.122Z</time>
      </trkpt>
      <trkpt lat="46.75359" lon="5.60945">
        <ele>254.56542835589</ele>
        <time>2021-05-12T16:59:04.103Z</time>
      </trkpt>
      <trkpt lat="46.75471" lon="5.61086">
        <ele>252.94966909485</ele>
        <time>2021-05-12T16:58:58.084Z</time>
      </trkpt>
      <trkpt lat="46.75471" lon="5.61086">
        <ele>251.80223617622</ele>
        <time>2021-05-12T16:58:52.089Z</time>
      </trkpt>
      <trkpt lat="46.75522" lon="5.6115">
        <ele>250.82140116694</ele>
        <time>2021-05-12T16:58:46.094Z</time>
      </trkpt>
      <trkpt lat="46.75536" lon="5.61166">
        <ele>249.90824065816</ele>
        <time>2021-05-12T16:58:40.110Z</time>
      </trkpt>
      <trkpt lat="46.75566" lon="5.61203">
        <ele>249.11514606809</ele>
        <time>2021-05-12T16:58:34.129Z</time>
      </trkpt>
      <trkpt lat="46.75643" lon="5.61301">
        <ele>248.47103243832</ele>
        <time>2021-05-12T16:58:28.154Z</time>
      </trkpt>
      <trkpt lat="46.75657" lon="5.61325">
        <ele>247.96784154054</ele>
        <time>2021-05-12T16:58:22.195Z</time>
      </trkpt>
      <trkpt lat="46.75768" lon="5.61518">
        <ele>247.49154595916</ele>
        <time>2021-05-12T16:58:16.240Z</time>
      </trkpt>
      <trkpt lat="46.75783" lon="5.61545">
        <ele>247.25183871618</ele>
        <time>2021-05-12T16:58:10.313Z</time>
      </trkpt>
      <trkpt lat="46.7579" lon="5.61554">
        <ele>247.15423944254</ele>
        <time>2021-05-12T16:58:04.389Z</time>
      </trkpt>
      <trkpt lat="46.75804" lon="5.61571">
        <ele>248.36140826016</ele>
        <time>2021-05-12T16:57:58.467Z</time>
      </trkpt>
      <trkpt lat="46.75813" lon="5.61581">
        <ele>249.05934669902</ele>
        <time>2021-05-12T16:57:52.548Z</time>
      </trkpt>
      <trkpt lat="46.75832" lon="5.61601">
        <ele>249.95332379582</ele>
        <time>2021-05-12T16:57:46.631Z</time>
      </trkpt>
      <trkpt lat="46.75841" lon="5.61618">
        <ele>250.99716841999</ele>
        <time>2021-05-12T16:57:40.717Z</time>
      </trkpt>
      <trkpt lat="46.75869" lon="5.6168">
        <ele>252.23044323444</ele>
        <time>2021-05-12T16:57:34.806Z</time>
      </trkpt>
      <trkpt lat="46.75885" lon="5.61721">
        <ele>253.67406785519</ele>
        <time>2021-05-12T16:57:28.903Z</time>
      </trkpt>
      <trkpt lat="46.75892" lon="5.61719">
        <ele>255.12873509423</ele>
        <time>2021-05-12T16:57:23.005Z</time>
      </trkpt>
      <trkpt lat="46.75901" lon="5.61744">
        <ele>256.89005817378</ele>
        <time>2021-05-12T16:57:17.108Z</time>
      </trkpt>
      <trkpt lat="46.75905" lon="5.61761">
        <ele>258.74438352738</ele>
        <time>2021-05-12T16:57:11.214Z</time>
      </trkpt>
      <trkpt lat="46.75904" lon="5.61789">
        <ele>260.7709966308</ele>
        <time>2021-05-12T16:57:05.322Z</time>
      </trkpt>
      <trkpt lat="46.75914" lon="5.61847">
        <ele>262.99008007437</ele>
        <time>2021-05-12T16:56:59.433Z</time>
      </trkpt>
      <trkpt lat="46.75914" lon="5.6186">
        <ele>265.12503145049</ele>
        <time>2021-05-12T16:56:53.551Z</time>
      </trkpt>
      <trkpt lat="46.75912" lon="5.61872">
        <ele>267.37281828965</ele>
        <time>2021-05-12T16:56:47.670Z</time>
      </trkpt>
      <trkpt lat="46.75907" lon="5.61882">
        <ele>269.68305840386</ele>
        <time>2021-05-12T16:56:41.791Z</time>
      </trkpt>
      <trkpt lat="46.75891" lon="5.61898">
        <ele>272.077760437</ele>
        <time>2021-05-12T16:56:35.913Z</time>
      </trkpt>
      <trkpt lat="46.75891" lon="5.61898">
        <ele>274.53969984553</ele>
        <time>2021-05-12T16:56:30.038Z</time>
      </trkpt>
      <trkpt lat="46.75879" lon="5.6191">
        <ele>277.13910910823</ele>
        <time>2021-05-12T16:56:24.163Z</time>
      </trkpt>
      <trkpt lat="46.75871" lon="5.61924">
        <ele>279.80210219644</ele>
        <time>2021-05-12T16:56:18.291Z</time>
      </trkpt>
      <trkpt lat="46.75867" lon="5.61939">
        <ele>282.5823802965</ele>
        <time>2021-05-12T16:56:12.421Z</time>
      </trkpt>
      <trkpt lat="46.75855" lon="5.62047">
        <ele>285.82465095101</ele>
        <time>2021-05-12T16:56:06.552Z</time>
      </trkpt>
      <trkpt lat="46.75854" lon="5.62071">
        <ele>288.59421512109</ele>
        <time>2021-05-12T16:56:00.695Z</time>
      </trkpt>
      <trkpt lat="46.75854" lon="5.62105">
        <ele>291.41965114618</ele>
        <time>2021-05-12T16:55:54.841Z</time>
      </trkpt>
      <trkpt lat="46.75865" lon="5.62201">
        <ele>294.48598796543</ele>
        <time>2021-05-12T16:55:48.991Z</time>
      </trkpt>
      <trkpt lat="46.75866" lon="5.62217">
        <ele>297.20046669181</ele>
        <time>2021-05-12T16:55:43.151Z</time>
      </trkpt>
      <trkpt lat="46.75864" lon="5.62232">
        <ele>299.89665313951</ele>
        <time>2021-05-12T16:55:37.313Z</time>
      </trkpt>
      <trkpt lat="46.75875" lon="5.6228">
        <ele>302.52957609831</ele>
        <time>2021-05-12T16:55:31.477Z</time>
      </trkpt>
      <trkpt lat="46.75882" lon="5.62326">
        <ele>305.11653858205</ele>
        <time>2021-05-12T16:55:25.646Z</time>
      </trkpt>
      <trkpt lat="46.75882" lon="5.62326">
        <ele>307.55080177808</ele>
        <time>2021-05-12T16:55:19.821Z</time>
      </trkpt>
      <trkpt lat="46.75898" lon="5.6245">
        <ele>310.24706683545</ele>
        <time>2021-05-12T16:55:13.996Z</time>
      </trkpt>
      <trkpt lat="46.75901" lon="5.62493">
        <ele>312.68962629554</ele>
        <time>2021-05-12T16:55:08.184Z</time>
      </trkpt>
      <trkpt lat="46.75912" lon="5.62612">
        <ele>315.15166187117</ele>
        <time>2021-05-12T16:55:02.377Z</time>
      </trkpt>
      <trkpt lat="46.75926" lon="5.62714">
        <ele>317.42417843665</ele>
        <time>2021-05-12T16:54:56.583Z</time>
      </trkpt>
      <trkpt lat="46.75935" lon="5.62768">
        <ele>319.41874705405</ele>
        <time>2021-05-12T16:54:50.801Z</time>
      </trkpt>
      <trkpt lat="46.75942" lon="5.62793">
        <ele>321.2215426522</ele>
        <time>2021-05-12T16:54:45.025Z</time>
      </trkpt>
      <trkpt lat="46.75951" lon="5.62814">
        <ele>322.91342313838</ele>
        <time>2021-05-12T16:54:39.252Z</time>
      </trkpt>
      <trkpt lat="46.75951" lon="5.62814">
        <ele>324.53609859383</ele>
        <time>2021-05-12T16:54:33.482Z</time>
      </trkpt>
      <trkpt lat="46.75964" lon="5.62835">
        <ele>326.00913510543</ele>
        <time>2021-05-12T16:54:27.712Z</time>
      </trkpt>
      <trkpt lat="46.75975" lon="5.62858">
        <ele>327.45279220569</ele>
        <time>2021-05-12T16:54:21.945Z</time>
      </trkpt>
      <trkpt lat="46.75982" lon="5.62876">
        <ele>328.82983107083</ele>
        <time>2021-05-12T16:54:16.181Z</time>
      </trkpt>
      <trkpt lat="46.75987" lon="5.62896">
        <ele>330.15733565875</ele>
        <time>2021-05-12T16:54:10.419Z</time>
      </trkpt>
      <trkpt lat="46.75991" lon="5.62918">
        <ele>331.43543240201</ele>
        <time>2021-05-12T16:54:04.660Z</time>
      </trkpt>
      <trkpt lat="46.75991" lon="5.62918">
        <ele>332.53748294557</ele>
        <time>2021-05-12T16:53:58.903Z</time>
      </trkpt>
      <trkpt lat="46.75993" lon="5.62941">
        <ele>333.65988951604</ele>
        <time>2021-05-12T16:53:53.146Z</time>
      </trkpt>
      <trkpt lat="46.76" lon="5.62985">
        <ele>334.7742560629</ele>
        <time>2021-05-12T16:53:47.392Z</time>
      </trkpt>
      <trkpt lat="46.76004" lon="5.63004">
        <ele>335.74216127279</ele>
        <time>2021-05-12T16:53:41.643Z</time>
      </trkpt>
      <trkpt lat="46.76012" lon="5.63032">
        <ele>336.65297011073</ele>
        <time>2021-05-12T16:53:35.896Z</time>
      </trkpt>
      <trkpt lat="46.76022" lon="5.63057">
        <ele>337.55036432446</ele>
        <time>2021-05-12T16:53:30.152Z</time>
      </trkpt>
      <trkpt lat="46.76036" lon="5.63084">
        <ele>338.37832312412</ele>
        <time>2021-05-12T16:53:24.411Z</time>
      </trkpt>
      <trkpt lat="46.76058" lon="5.6312">
        <ele>339.09763624766</ele>
        <time>2021-05-12T16:53:18.674Z</time>
      </trkpt>
      <trkpt lat="46.76075" lon="5.63149">
        <ele>339.86849555399</ele>
        <time>2021-05-12T16:53:12.942Z</time>
      </trkpt>
      <trkpt lat="46.76082" lon="5.63166">
        <ele>340.62416709486</ele>
        <time>2021-05-12T16:53:07.215Z</time>
      </trkpt>
      <trkpt lat="46.76086" lon="5.63185">
        <ele>341.37405751287</ele>
        <time>2021-05-12T16:53:01.490Z</time>
      </trkpt>
      <trkpt lat="46.76087" lon="5.63208">
        <ele>342.20702820007</ele>
        <time>2021-05-12T16:52:55.767Z</time>
      </trkpt>
      <trkpt lat="46.76091" lon="5.63223">
        <ele>342.95181732506</ele>
        <time>2021-05-12T16:52:50.046Z</time>
      </trkpt>
      <trkpt lat="46.761" lon="5.6324">
        <ele>343.67336971746</ele>
        <time>2021-05-12T16:52:44.327Z</time>
      </trkpt>
      <trkpt lat="46.76111" lon="5.63255">
        <ele>344.33354854644</ele>
        <time>2021-05-12T16:52:38.611Z</time>
      </trkpt>
      <trkpt lat="46.76126" lon="5.63271">
        <ele>344.94203626952</ele>
        <time>2021-05-12T16:52:32.897Z</time>
      </trkpt>
      <trkpt lat="46.76143" lon="5.63284">
        <ele>345.5331937698</ele>
        <time>2021-05-12T16:52:27.186Z</time>
      </trkpt>
      <trkpt lat="46.7616" lon="5.63293">
        <ele>346.1099290048</ele>
        <time>2021-05-12T16:52:21.478Z</time>
      </trkpt>
      <trkpt lat="46.76183" lon="5.633">
        <ele>346.63981666504</ele>
        <time>2021-05-12T16:52:15.773Z</time>
      </trkpt>
      <trkpt lat="46.76195" lon="5.63308">
        <ele>347.33401402935</ele>
        <time>2021-05-12T16:52:10.072Z</time>
      </trkpt>
      <trkpt lat="46.7621" lon="5.63322">
        <ele>348.09279589068</ele>
        <time>2021-05-12T16:52:04.373Z</time>
      </trkpt>
      <trkpt lat="46.7625" lon="5.63373">
        <ele>349.08724988211</ele>
        <time>2021-05-12T16:51:58.677Z</time>
      </trkpt>
      <trkpt lat="46.76276" lon="5.63401">
        <ele>349.82376930471</ele>
        <time>2021-05-12T16:51:52.989Z</time>
      </trkpt>
      <trkpt lat="46.76287" lon="5.63417">
        <ele>350.59272571534</ele>
        <time>2021-05-12T16:51:47.306Z</time>
      </trkpt>
      <trkpt lat="46.76295" lon="5.63435">
        <ele>351.44928467831</ele>
        <time>2021-05-12T16:51:41.626Z</time>
      </trkpt>
      <trkpt lat="46.76311" lon="5.63486">
        <ele>352.66207855032</ele>
        <time>2021-05-12T16:51:35.948Z</time>
      </trkpt>
      <trkpt lat="46.76332" lon="5.63517">
        <ele>353.53014028233</ele>
        <time>2021-05-12T16:51:30.276Z</time>
      </trkpt>
      <trkpt lat="46.7634" lon="5.63539">
        <ele>354.54933973819</ele>
        <time>2021-05-12T16:51:24.609Z</time>
      </trkpt>
      <trkpt lat="46.76352" lon="5.63571">
        <ele>355.67439693641</ele>
        <time>2021-05-12T16:51:18.945Z</time>
      </trkpt>
      <trkpt lat="46.76356" lon="5.63587">
        <ele>356.59073798528</ele>
        <time>2021-05-12T16:51:13.285Z</time>
      </trkpt>
      <trkpt lat="46.7636" lon="5.63594">
        <ele>357.39581028177</ele>
        <time>2021-05-12T16:51:07.627Z</time>
      </trkpt>
      <trkpt lat="46.76369" lon="5.63605">
        <ele>358.09122459475</ele>
        <time>2021-05-12T16:51:01.970Z</time>
      </trkpt>
      <trkpt lat="46.76393" lon="5.63618">
        <ele>358.49217768339</ele>
        <time>2021-05-12T16:50:56.315Z</time>
      </trkpt>
      <trkpt lat="46.76405" lon="5.63619">
        <ele>359.08100762966</ele>
        <time>2021-05-12T16:50:50.664Z</time>
      </trkpt>
      <trkpt lat="46.76415" lon="5.63618">
        <ele>359.7438923468</ele>
        <time>2021-05-12T16:50:45.015Z</time>
      </trkpt>
      <trkpt lat="46.7643" lon="5.63615">
        <ele>360.40464207843</ele>
        <time>2021-05-12T16:50:39.367Z</time>
      </trkpt>
      <trkpt lat="46.76449" lon="5.63617">
        <ele>361.15926916537</ele>
        <time>2021-05-12T16:50:33.722Z</time>
      </trkpt>
      <trkpt lat="46.76497" lon="5.63627">
        <ele>361.94979077679</ele>
        <time>2021-05-12T16:50:28.080Z</time>
      </trkpt>
      <trkpt lat="46.7651" lon="5.63633">
        <ele>362.80381297205</ele>
        <time>2021-05-12T16:50:22.445Z</time>
      </trkpt>
      <trkpt lat="46.76516" lon="5.63641">
        <ele>363.71595706116</ele>
        <time>2021-05-12T16:50:16.813Z</time>
      </trkpt>
      <trkpt lat="46.76521" lon="5.6365">
        <ele>364.67446282956</ele>
        <time>2021-05-12T16:50:11.182Z</time>
      </trkpt>
      <trkpt lat="46.76521" lon="5.6366">
        <ele>365.65787230782</ele>
        <time>2021-05-12T16:50:05.552Z</time>
      </trkpt>
      <trkpt lat="46.76519" lon="5.63668">
        <ele>366.67255191957</ele>
        <time>2021-05-12T16:49:59.923Z</time>
      </trkpt>
      <trkpt lat="46.76515" lon="5.63675">
        <ele>367.72086156097</ele>
        <time>2021-05-12T16:49:54.295Z</time>
      </trkpt>
      <trkpt lat="46.76509" lon="5.6368">
        <ele>368.80407105293</ele>
        <time>2021-05-12T16:49:48.668Z</time>
      </trkpt>
      <trkpt lat="46.76493" lon="5.63687">
        <ele>369.95133137792</ele>
        <time>2021-05-12T16:49:43.042Z</time>
      </trkpt>
      <trkpt lat="46.76445" lon="5.63698">
        <ele>371.43985255467</ele>
        <time>2021-05-12T16:49:37.419Z</time>
      </trkpt>
      <trkpt lat="46.76428" lon="5.637">
        <ele>372.74536500424</ele>
        <time>2021-05-12T16:49:31.804Z</time>
      </trkpt>
      <trkpt lat="46.76409" lon="5.63692">
        <ele>374.16169765845</ele>
        <time>2021-05-12T16:49:26.192Z</time>
      </trkpt>
      <trkpt lat="46.76394" lon="5.63682">
        <ele>375.55977508057</ele>
        <time>2021-05-12T16:49:20.583Z</time>
      </trkpt>
      <trkpt lat="46.76368" lon="5.63658">
        <ele>376.9722773263</ele>
        <time>2021-05-12T16:49:14.976Z</time>
      </trkpt>
      <trkpt lat="46.7635" lon="5.63636">
        <ele>378.31657815681</ele>
        <time>2021-05-12T16:49:09.374Z</time>
      </trkpt>
      <trkpt lat="46.76316" lon="5.63607">
        <ele>379.81541637608</ele>
        <time>2021-05-12T16:49:03.776Z</time>
      </trkpt>
      <trkpt lat="46.76296" lon="5.63597">
        <ele>381.26874883316</ele>
        <time>2021-05-12T16:48:58.184Z</time>
      </trkpt>
      <trkpt lat="46.76276" lon="5.6359">
        <ele>382.88495639373</ele>
        <time>2021-05-12T16:48:52.596Z</time>
      </trkpt>
      <trkpt lat="46.76254" lon="5.6358">
        <ele>384.58435779539</ele>
        <time>2021-05-12T16:48:47.011Z</time>
      </trkpt>
      <trkpt lat="46.76237" lon="5.63566">
        <ele>386.24939693504</ele>
        <time>2021-05-12T16:48:41.430Z</time>
      </trkpt>
      <trkpt lat="46.76224" lon="5.6355">
        <ele>387.90325330941</ele>
        <time>2021-05-12T16:48:35.852Z</time>
      </trkpt>
      <trkpt lat="46.76208" lon="5.63516">
        <ele>389.45382229688</ele>
        <time>2021-05-12T16:48:30.277Z</time>
      </trkpt>
      <trkpt lat="46.76197" lon="5.63495">
        <ele>391.26106029994</ele>
        <time>2021-05-12T16:48:24.706Z</time>
      </trkpt>
      <trkpt lat="46.76178" lon="5.63474">
        <ele>393.24806069397</ele>
        <time>2021-05-12T16:48:19.138Z</time>
      </trkpt>
      <trkpt lat="46.7611" lon="5.63439">
        <ele>395.47310054843</ele>
        <time>2021-05-12T16:48:13.574Z</time>
      </trkpt>
      <trkpt lat="46.76083" lon="5.63427">
        <ele>397.78357923655</ele>
        <time>2021-05-12T16:48:08.021Z</time>
      </trkpt>
      <trkpt lat="46.76068" lon="5.63423">
        <ele>400.08922861649</ele>
        <time>2021-05-12T16:48:02.473Z</time>
      </trkpt>
      <trkpt lat="46.76015" lon="5.63421">
        <ele>402.68846120376</ele>
        <time>2021-05-12T16:47:56.927Z</time>
      </trkpt>
      <trkpt lat="46.75995" lon="5.63417">
        <ele>405.2947206023</ele>
        <time>2021-05-12T16:47:51.390Z</time>
      </trkpt>
      <trkpt lat="46.75977" lon="5.63411">
        <ele>407.88554481987</ele>
        <time>2021-05-12T16:47:45.856Z</time>
      </trkpt>
      <trkpt lat="46.75949" lon="5.63391">
        <ele>410.18466123155</ele>
        <time>2021-05-12T16:47:40.325Z</time>
      </trkpt>
      <trkpt lat="46.75921" lon="5.63366">
        <ele>412.70863149571</ele>
        <time>2021-05-12T16:47:34.799Z</time>
      </trkpt>
      <trkpt lat="46.7586" lon="5.63301">
        <ele>415.22460372143</ele>
        <time>2021-05-12T16:47:29.278Z</time>
      </trkpt>
      <trkpt lat="46.75818" lon="5.63264">
        <ele>417.80182251475</ele>
        <time>2021-05-12T16:47:23.769Z</time>
      </trkpt>
      <trkpt lat="46.75781" lon="5.63241">
        <ele>420.53245085213</ele>
        <time>2021-05-12T16:47:18.268Z</time>
      </trkpt>
      <trkpt lat="46.75761" lon="5.63227">
        <ele>423.24299298295</ele>
        <time>2021-05-12T16:47:12.774Z</time>
      </trkpt>
      <trkpt lat="46.75749" lon="5.63217">
        <ele>425.74804325513</ele>
        <time>2021-05-12T16:47:07.283Z</time>
      </trkpt>
      <trkpt lat="46.75719" lon="5.63177">
        <ele>428.25035646758</ele>
        <time>2021-05-12T16:47:01.794Z</time>
      </trkpt>
      <trkpt lat="46.75703" lon="5.63149">
        <ele>430.35425696502</ele>
        <time>2021-05-12T16:46:56.312Z</time>
      </trkpt>
      <trkpt lat="46.75685" lon="5.63113">
        <ele>432.37929392542</ele>
        <time>2021-05-12T16:46:50.834Z</time>
      </trkpt>
      <trkpt lat="46.75685" lon="5.63113">
        <ele>434.13394956475</ele>
        <time>2021-05-12T16:46:45.361Z</time>
      </trkpt>
      <trkpt lat="46.75677" lon="5.63098">
        <ele>435.78345121884</ele>
        <time>2021-05-12T16:46:39.888Z</time>
      </trkpt>
      <trkpt lat="46.75673" lon="5.63082">
        <ele>437.16664328076</ele>
        <time>2021-05-12T16:46:34.417Z</time>
      </trkpt>
      <trkpt lat="46.75669" lon="5.63058">
        <ele>438.37334188023</ele>
        <time>2021-05-12T16:46:28.948Z</time>
      </trkpt>
      <trkpt lat="46.75661" lon="5.6303">
        <ele>439.5072981251</ele>
        <time>2021-05-12T16:46:23.482Z</time>
      </trkpt>
      <trkpt lat="46.75643" lon="5.6299">
        <ele>440.42661417747</ele>
        <time>2021-05-12T16:46:18.019Z</time>
      </trkpt>
      <trkpt lat="46.75599" lon="5.62924">
        <ele>441.41372648409</ele>
        <time>2021-05-12T16:46:12.561Z</time>
      </trkpt>
      <trkpt lat="46.75594" lon="5.62913">
        <ele>442.16046666848</ele>
        <time>2021-05-12T16:46:07.113Z</time>
      </trkpt>
      <trkpt lat="46.75589" lon="5.629">
        <ele>442.75471549424</ele>
        <time>2021-05-12T16:46:01.667Z</time>
      </trkpt>
      <trkpt lat="46.75582" lon="5.62866">
        <ele>443.29767263075</ele>
        <time>2021-05-12T16:45:56.222Z</time>
      </trkpt>
      <trkpt lat="46.75577" lon="5.6283">
        <ele>443.76317160636</ele>
        <time>2021-05-12T16:45:50.781Z</time>
      </trkpt>
      <trkpt lat="46.75576" lon="5.62805">
        <ele>444.02527474395</ele>
        <time>2021-05-12T16:45:45.344Z</time>
      </trkpt>
      <trkpt lat="46.75581" lon="5.62756">
        <ele>444.0776271603</ele>
        <time>2021-05-12T16:45:39.910Z</time>
      </trkpt>
      <trkpt lat="46.75581" lon="5.62756">
        <ele>444.0448650955</ele>
        <time>2021-05-12T16:45:34.481Z</time>
      </trkpt>
      <trkpt lat="46.75585" lon="5.62737">
        <ele>443.83089213389</ele>
        <time>2021-05-12T16:45:29.052Z</time>
      </trkpt>
      <trkpt lat="46.75589" lon="5.62724">
        <ele>443.5757594857</ele>
        <time>2021-05-12T16:45:23.626Z</time>
      </trkpt>
      <trkpt lat="46.75595" lon="5.62714">
        <ele>443.27711728221</ele>
        <time>2021-05-12T16:45:18.201Z</time>
      </trkpt>
      <trkpt lat="46.75602" lon="5.62706">
        <ele>442.90415351775</ele>
        <time>2021-05-12T16:45:12.778Z</time>
      </trkpt>
      <trkpt lat="46.75611" lon="5.62703">
        <ele>442.51844291154</ele>
        <time>2021-05-12T16:45:07.356Z</time>
      </trkpt>
      <trkpt lat="46.75619" lon="5.62701">
        <ele>442.11855120952</ele>
        <time>2021-05-12T16:45:01.936Z</time>
      </trkpt>
      <trkpt lat="46.75633" lon="5.62702">
        <ele>441.74845832126</ele>
        <time>2021-05-12T16:44:56.517Z</time>
      </trkpt>
      <trkpt lat="46.75675" lon="5.62709">
        <ele>441.26201270857</ele>
        <time>2021-05-12T16:44:51.100Z</time>
      </trkpt>
      <trkpt lat="46.75695" lon="5.62709">
        <ele>441.00854652624</ele>
        <time>2021-05-12T16:44:45.690Z</time>
      </trkpt>
      <trkpt lat="46.75714" lon="5.62705">
        <ele>440.70752917006</ele>
        <time>2021-05-12T16:44:40.283Z</time>
      </trkpt>
      <trkpt lat="46.7572" lon="5.62702">
        <ele>440.51517557179</ele>
        <time>2021-05-12T16:44:34.879Z</time>
      </trkpt>
      <trkpt lat="46.75723" lon="5.62696">
        <ele>440.47446469972</ele>
        <time>2021-05-12T16:44:29.476Z</time>
      </trkpt>
      <trkpt lat="46.75724" lon="5.62691">
        <ele>440.51679324259</ele>
        <time>2021-05-12T16:44:24.074Z</time>
      </trkpt>
      <trkpt lat="46.75723" lon="5.62686">
        <ele>440.67298200921</ele>
        <time>2021-05-12T16:44:18.673Z</time>
      </trkpt>
      <trkpt lat="46.7572" lon="5.62681">
        <ele>440.94374945647</ele>
        <time>2021-05-12T16:44:13.272Z</time>
      </trkpt>
      <trkpt lat="46.75715" lon="5.62675">
        <ele>441.35128485084</ele>
        <time>2021-05-12T16:44:07.872Z</time>
      </trkpt>
      <trkpt lat="46.75703" lon="5.62674">
        <ele>441.91092998964</ele>
        <time>2021-05-12T16:44:02.473Z</time>
      </trkpt>
      <trkpt lat="46.75691" lon="5.62666">
        <ele>442.39918521987</ele>
        <time>2021-05-12T16:43:57.076Z</time>
      </trkpt>
      <trkpt lat="46.75644" lon="5.62616">
        <ele>443.03742412152</ele>
        <time>2021-05-12T16:43:51.681Z</time>
      </trkpt>
      <trkpt lat="46.7564" lon="5.62611">
        <ele>443.55099003306</ele>
        <time>2021-05-12T16:43:46.295Z</time>
      </trkpt>
      <trkpt lat="46.75603" lon="5.62574">
        <ele>444.05529998292</ele>
        <time>2021-05-12T16:43:40.910Z</time>
      </trkpt>
      <trkpt lat="46.75589" lon="5.62565">
        <ele>444.65272325839</ele>
        <time>2021-05-12T16:43:35.532Z</time>
      </trkpt>
      <trkpt lat="46.75579" lon="5.62565">
        <ele>445.30570392799</ele>
        <time>2021-05-12T16:43:30.157Z</time>
      </trkpt>
      <trkpt lat="46.75537" lon="5.62577">
        <ele>446.09432322607</ele>
        <time>2021-05-12T16:43:24.784Z</time>
      </trkpt>
      <trkpt lat="46.75522" lon="5.62585">
        <ele>446.91253781715</ele>
        <time>2021-05-12T16:43:19.417Z</time>
      </trkpt>
      <trkpt lat="46.75502" lon="5.62593">
        <ele>447.77935320175</ele>
        <time>2021-05-12T16:43:14.053Z</time>
      </trkpt>
      <trkpt lat="46.75488" lon="5.62603">
        <ele>448.59547236229</ele>
        <time>2021-05-12T16:43:08.692Z</time>
      </trkpt>
      <trkpt lat="46.75488" lon="5.62603">
        <ele>449.33960266842</ele>
        <time>2021-05-12T16:43:03.334Z</time>
      </trkpt>
      <trkpt lat="46.75469" lon="5.62625">
        <ele>450.04330244109</ele>
        <time>2021-05-12T16:42:57.976Z</time>
      </trkpt>
      <trkpt lat="46.75453" lon="5.62638">
        <ele>450.73963292524</ele>
        <time>2021-05-12T16:42:52.621Z</time>
      </trkpt>
      <trkpt lat="46.75408" lon="5.62675">
        <ele>451.49011011653</ele>
        <time>2021-05-12T16:42:47.269Z</time>
      </trkpt>
      <trkpt lat="46.75408" lon="5.62675">
        <ele>452.20669862452</ele>
        <time>2021-05-12T16:42:41.926Z</time>
      </trkpt>
      <trkpt lat="46.75394" lon="5.62685">
        <ele>452.99692682663</ele>
        <time>2021-05-12T16:42:36.583Z</time>
      </trkpt>
      <trkpt lat="46.75373" lon="5.62712">
        <ele>453.81720869139</ele>
        <time>2021-05-12T16:42:31.242Z</time>
      </trkpt>
      <trkpt lat="46.75369" lon="5.62721">
        <ele>454.48762109106</ele>
        <time>2021-05-12T16:42:25.906Z</time>
      </trkpt>
      <trkpt lat="46.75367" lon="5.62731">
        <ele>455.1169095415</ele>
        <time>2021-05-12T16:42:20.571Z</time>
      </trkpt>
      <trkpt lat="46.75365" lon="5.62761">
        <ele>455.70127377074</ele>
        <time>2021-05-12T16:42:15.237Z</time>
      </trkpt>
      <trkpt lat="46.7537" lon="5.6278">
        <ele>456.36823898871</ele>
        <time>2021-05-12T16:42:09.906Z</time>
      </trkpt>
      <trkpt lat="46.75388" lon="5.62837">
        <ele>456.93698907354</ele>
        <time>2021-05-12T16:42:04.578Z</time>
      </trkpt>
      <trkpt lat="46.75398" lon="5.62858">
        <ele>457.45647466939</ele>
        <time>2021-05-12T16:41:59.256Z</time>
      </trkpt>
      <trkpt lat="46.75404" lon="5.62874">
        <ele>457.95571928119</ele>
        <time>2021-05-12T16:41:53.937Z</time>
      </trkpt>
      <trkpt lat="46.75407" lon="5.62888">
        <ele>458.41787311004</ele>
        <time>2021-05-12T16:41:48.620Z</time>
      </trkpt>
      <trkpt lat="46.75411" lon="5.62921">
        <ele>458.83436999758</ele>
        <time>2021-05-12T16:41:43.305Z</time>
      </trkpt>
      <trkpt lat="46.75411" lon="5.62921">
        <ele>459.23499479596</ele>
        <time>2021-05-12T16:41:37.994Z</time>
      </trkpt>
      <trkpt lat="46.75412" lon="5.62933">
        <ele>459.55709223654</ele>
        <time>2021-05-12T16:41:32.683Z</time>
      </trkpt>
      <trkpt lat="46.75414" lon="5.62944">
        <ele>459.89967172148</ele>
        <time>2021-05-12T16:41:27.373Z</time>
      </trkpt>
      <trkpt lat="46.7542" lon="5.62972">
        <ele>460.21093385148</ele>
        <time>2021-05-12T16:41:22.064Z</time>
      </trkpt>
      <trkpt lat="46.75433" lon="5.63012">
        <ele>460.52548478244</ele>
        <time>2021-05-12T16:41:16.758Z</time>
      </trkpt>
      <trkpt lat="46.75443" lon="5.63036">
        <ele>460.91691388266</ele>
        <time>2021-05-12T16:41:11.457Z</time>
      </trkpt>
      <trkpt lat="46.75479" lon="5.63103">
        <ele>461.36800327546</ele>
        <time>2021-05-12T16:41:06.159Z</time>
      </trkpt>
      <trkpt lat="46.75479" lon="5.63103">
        <ele>461.67696343929</ele>
        <time>2021-05-12T16:41:00.871Z</time>
      </trkpt>
      <trkpt lat="46.75486" lon="5.63123">
        <ele>461.96445473708</ele>
        <time>2021-05-12T16:40:55.583Z</time>
      </trkpt>
      <trkpt lat="46.75493" lon="5.63145">
        <ele>462.26216492807</ele>
        <time>2021-05-12T16:40:50.297Z</time>
      </trkpt>
      <trkpt lat="46.75493" lon="5.63145">
        <ele>462.55605728717</ele>
        <time>2021-05-12T16:40:45.014Z</time>
      </trkpt>
      <trkpt lat="46.75515" lon="5.63246">
        <ele>463.06401961836</ele>
        <time>2021-05-12T16:40:39.731Z</time>
      </trkpt>
      <trkpt lat="46.75518" lon="5.6327">
        <ele>463.36271732795</ele>
        <time>2021-05-12T16:40:34.459Z</time>
      </trkpt>
      <trkpt lat="46.7552" lon="5.63319">
        <ele>463.70185979577</ele>
        <time>2021-05-12T16:40:29.190Z</time>
      </trkpt>
      <trkpt lat="46.75521" lon="5.63426">
        <ele>464.09009493168</ele>
        <time>2021-05-12T16:40:23.927Z</time>
      </trkpt>
      <trkpt lat="46.75535" lon="5.63555">
        <ele>464.42803659598</ele>
        <time>2021-05-12T16:40:18.675Z</time>
      </trkpt>
      <trkpt lat="46.7554" lon="5.63602">
        <ele>464.65281656206</ele>
        <time>2021-05-12T16:40:13.438Z</time>
      </trkpt>
      <trkpt lat="46.75548" lon="5.63681">
        <ele>464.84699139839</ele>
        <time>2021-05-12T16:40:08.206Z</time>
      </trkpt>
      <trkpt lat="46.75562" lon="5.63751">
        <ele>465.10546772402</ele>
        <time>2021-05-12T16:40:02.983Z</time>
      </trkpt>
      <trkpt lat="46.75582" lon="5.63867">
        <ele>465.54041643515</ele>
        <time>2021-05-12T16:39:57.768Z</time>
      </trkpt>
      <trkpt lat="46.7559" lon="5.63898">
        <ele>465.91442989785</ele>
        <time>2021-05-12T16:39:52.566Z</time>
      </trkpt>
      <trkpt lat="46.75599" lon="5.63918">
        <ele>466.25658758309</ele>
        <time>2021-05-12T16:39:47.368Z</time>
      </trkpt>
      <trkpt lat="46.75614" lon="5.63942">
        <ele>466.67277695292</ele>
        <time>2021-05-12T16:39:42.172Z</time>
      </trkpt>
      <trkpt lat="46.75638" lon="5.63969">
        <ele>467.13899732434</ele>
        <time>2021-05-12T16:39:36.980Z</time>
      </trkpt>
      <trkpt lat="46.75678" lon="5.64009">
        <ele>467.6799196222</ele>
        <time>2021-05-12T16:39:31.793Z</time>
      </trkpt>
      <trkpt lat="46.75706" lon="5.64032">
        <ele>468.11159271963</ele>
        <time>2021-05-12T16:39:26.613Z</time>
      </trkpt>
      <trkpt lat="46.75736" lon="5.64061">
        <ele>468.61780322941</ele>
        <time>2021-05-12T16:39:21.439Z</time>
      </trkpt>
      <trkpt lat="46.75759" lon="5.64087">
        <ele>469.23937856852</ele>
        <time>2021-05-12T16:39:16.270Z</time>
      </trkpt>
      <trkpt lat="46.75795" lon="5.64137">
        <ele>469.86580687633</ele>
        <time>2021-05-12T16:39:11.106Z</time>
      </trkpt>
      <trkpt lat="46.75795" lon="5.64137">
        <ele>470.52678207976</ele>
        <time>2021-05-12T16:39:05.950Z</time>
      </trkpt>
      <trkpt lat="46.75811" lon="5.64168">
        <ele>471.28454676352</ele>
        <time>2021-05-12T16:39:00.794Z</time>
      </trkpt>
      <trkpt lat="46.75838" lon="5.64234">
        <ele>472.06360759523</ele>
        <time>2021-05-12T16:38:55.642Z</time>
      </trkpt>
      <trkpt lat="46.75894" lon="5.64335">
        <ele>472.99623961999</ele>
        <time>2021-05-12T16:38:50.499Z</time>
      </trkpt>
      <trkpt lat="46.75924" lon="5.64394">
        <ele>473.93535314794</ele>
        <time>2021-05-12T16:38:45.370Z</time>
      </trkpt>
      <trkpt lat="46.75956" lon="5.6447">
        <ele>475.07359033175</ele>
        <time>2021-05-12T16:38:40.249Z</time>
      </trkpt>
      <trkpt lat="46.75977" lon="5.64535">
        <ele>476.36512299539</ele>
        <time>2021-05-12T16:38:35.138Z</time>
      </trkpt>
      <trkpt lat="46.76004" lon="5.64688">
        <ele>477.88727962974</ele>
        <time>2021-05-12T16:38:30.035Z</time>
      </trkpt>
      <trkpt lat="46.76043" lon="5.64866">
        <ele>479.75272895035</ele>
        <time>2021-05-12T16:38:24.949Z</time>
      </trkpt>
      <trkpt lat="46.76067" lon="5.64957">
        <ele>481.6090781389</ele>
        <time>2021-05-12T16:38:19.884Z</time>
      </trkpt>
      <trkpt lat="46.76069" lon="5.64975">
        <ele>483.55743215365</ele>
        <time>2021-05-12T16:38:14.829Z</time>
      </trkpt>
      <trkpt lat="46.7607" lon="5.64992">
        <ele>485.6256339749</ele>
        <time>2021-05-12T16:38:09.776Z</time>
      </trkpt>
      <trkpt lat="46.76068" lon="5.65018">
        <ele>487.83596729505</ele>
        <time>2021-05-12T16:38:04.725Z</time>
      </trkpt>
      <trkpt lat="46.76053" lon="5.65151">
        <ele>490.27315550205</ele>
        <time>2021-05-12T16:37:59.677Z</time>
      </trkpt>
      <trkpt lat="46.7605" lon="5.652">
        <ele>492.8828712425</ele>
        <time>2021-05-12T16:37:54.644Z</time>
      </trkpt>
      <trkpt lat="46.76041" lon="5.65416">
        <ele>495.97607278036</ele>
        <time>2021-05-12T16:37:49.616Z</time>
      </trkpt>
      <trkpt lat="46.76041" lon="5.65525">
        <ele>498.86277628152</ele>
        <time>2021-05-12T16:37:44.612Z</time>
      </trkpt>
      <trkpt lat="46.76039" lon="5.65615">
        <ele>502.1477617452</ele>
        <time>2021-05-12T16:37:39.620Z</time>
      </trkpt>
      <trkpt lat="46.76039" lon="5.65628">
        <ele>505.27010135864</ele>
        <time>2021-05-12T16:37:34.638Z</time>
      </trkpt>
      <trkpt lat="46.76042" lon="5.65641">
        <ele>508.49575852172</ele>
        <time>2021-05-12T16:37:29.657Z</time>
      </trkpt>
      <trkpt lat="46.76046" lon="5.65658">
        <ele>511.81057204991</ele>
        <time>2021-05-12T16:37:24.678Z</time>
      </trkpt>
      <trkpt lat="46.76053" lon="5.65674">
        <ele>515.17070296534</ele>
        <time>2021-05-12T16:37:19.701Z</time>
      </trkpt>
      <trkpt lat="46.76063" lon="5.65693">
        <ele>518.57517044507</ele>
        <time>2021-05-12T16:37:14.726Z</time>
      </trkpt>
      <trkpt lat="46.76077" lon="5.65712">
        <ele>522.00834095121</ele>
        <time>2021-05-12T16:37:09.754Z</time>
      </trkpt>
      <trkpt lat="46.7614" lon="5.65777">
        <ele>525.49972913276</ele>
        <time>2021-05-12T16:37:04.785Z</time>
      </trkpt>
      <trkpt lat="46.76227" lon="5.65842">
        <ele>528.96829037989</ele>
        <time>2021-05-12T16:36:59.828Z</time>
      </trkpt>
      <trkpt lat="46.7624" lon="5.65858">
        <ele>532.39894918655</ele>
        <time>2021-05-12T16:36:54.887Z</time>
      </trkpt>
      <trkpt lat="46.76286" lon="5.65935">
        <ele>536.06396300799</ele>
        <time>2021-05-12T16:36:49.949Z</time>
      </trkpt>
      <trkpt lat="46.76304" lon="5.65962">
        <ele>539.37409066254</ele>
        <time>2021-05-12T16:36:45.022Z</time>
      </trkpt>
      <trkpt lat="46.76366" lon="5.66044">
        <ele>542.73147589341</ele>
        <time>2021-05-12T16:36:40.099Z</time>
      </trkpt>
      <trkpt lat="46.76497" lon="5.66237">
        <ele>546.0999094303</ele>
        <time>2021-05-12T16:36:35.189Z</time>
      </trkpt>
      <trkpt lat="46.7658" lon="5.66395">
        <ele>549.03271938557</ele>
        <time>2021-05-12T16:36:30.309Z</time>
      </trkpt>
      <trkpt lat="46.76596" lon="5.6642">
        <ele>551.74422217655</ele>
        <time>2021-05-12T16:36:25.451Z</time>
      </trkpt>
      <trkpt lat="46.76629" lon="5.66463">
        <ele>554.26217395677</ele>
        <time>2021-05-12T16:36:20.597Z</time>
      </trkpt>
      <trkpt lat="46.76635" lon="5.66475">
        <ele>556.52539373288</ele>
        <time>2021-05-12T16:36:15.750Z</time>
      </trkpt>
      <trkpt lat="46.76639" lon="5.66489">
        <ele>558.58049416308</ele>
        <time>2021-05-12T16:36:10.905Z</time>
      </trkpt>
      <trkpt lat="46.7664" lon="5.66504">
        <ele>560.43134543913</ele>
        <time>2021-05-12T16:36:06.061Z</time>
      </trkpt>
      <trkpt lat="46.7664" lon="5.66522">
        <ele>562.06545102424</ele>
        <time>2021-05-12T16:36:01.219Z</time>
      </trkpt>
      <trkpt lat="46.76636" lon="5.66538">
        <ele>563.48143617245</ele>
        <time>2021-05-12T16:35:56.379Z</time>
      </trkpt>
      <trkpt lat="46.76631" lon="5.66556">
        <ele>564.68097722946</ele>
        <time>2021-05-12T16:35:51.541Z</time>
      </trkpt>
      <trkpt lat="46.76624" lon="5.66575">
        <ele>565.6343434086</ele>
        <time>2021-05-12T16:35:46.705Z</time>
      </trkpt>
      <trkpt lat="46.76617" lon="5.66585">
        <ele>566.28444371424</ele>
        <time>2021-05-12T16:35:41.871Z</time>
      </trkpt>
      <trkpt lat="46.76608" lon="5.66594">
        <ele>566.69094683324</ele>
        <time>2021-05-12T16:35:37.039Z</time>
      </trkpt>
      <trkpt lat="46.76514" lon="5.66669">
        <ele>566.76046904065</ele>
        <time>2021-05-12T16:35:32.208Z</time>
      </trkpt>
      <trkpt lat="46.76502" lon="5.6668">
        <ele>566.66759320148</ele>
        <time>2021-05-12T16:35:27.395Z</time>
      </trkpt>
      <trkpt lat="46.76489" lon="5.66694">
        <ele>566.34160757282</ele>
        <time>2021-05-12T16:35:22.584Z</time>
      </trkpt>
      <trkpt lat="46.76471" lon="5.66723">
        <ele>565.7366499289</ele>
        <time>2021-05-12T16:35:17.775Z</time>
      </trkpt>
      <trkpt lat="46.76471" lon="5.66723">
        <ele>565.08501340017</ele>
        <time>2021-05-12T16:35:12.971Z</time>
      </trkpt>
      <trkpt lat="46.76466" lon="5.6675">
        <ele>564.17304650652</ele>
        <time>2021-05-12T16:35:08.167Z</time>
      </trkpt>
      <trkpt lat="46.76463" lon="5.66768">
        <ele>563.14708361842</ele>
        <time>2021-05-12T16:35:03.366Z</time>
      </trkpt>
      <trkpt lat="46.76462" lon="5.66791">
        <ele>561.97849479953</ele>
        <time>2021-05-12T16:34:58.567Z</time>
      </trkpt>
      <trkpt lat="46.76465" lon="5.66933">
        <ele>560.80600636683</ele>
        <time>2021-05-12T16:34:53.770Z</time>
      </trkpt>
      <trkpt lat="46.76469" lon="5.66979">
        <ele>559.48783892405</ele>
        <time>2021-05-12T16:34:48.989Z</time>
      </trkpt>
      <trkpt lat="46.7649" lon="5.67108">
        <ele>557.96962735938</ele>
        <time>2021-05-12T16:34:44.213Z</time>
      </trkpt>
      <trkpt lat="46.76546" lon="5.6749">
        <ele>555.88851017294</ele>
        <time>2021-05-12T16:34:39.452Z</time>
      </trkpt>
      <trkpt lat="46.76546" lon="5.6749">
        <ele>554.39525840322</ele>
        <time>2021-05-12T16:34:34.734Z</time>
      </trkpt>
      <trkpt lat="46.76557" lon="5.67561">
        <ele>553.02936675666</ele>
        <time>2021-05-12T16:34:30.016Z</time>
      </trkpt>
      <trkpt lat="46.7658" lon="5.67651">
        <ele>551.41530932597</ele>
        <time>2021-05-12T16:34:25.306Z</time>
      </trkpt>
      <trkpt lat="46.76589" lon="5.67695">
        <ele>549.7833908885</ele>
        <time>2021-05-12T16:34:20.606Z</time>
      </trkpt>
      <trkpt lat="46.76595" lon="5.67739">
        <ele>548.18333669451</ele>
        <time>2021-05-12T16:34:15.911Z</time>
      </trkpt>
      <trkpt lat="46.76605" lon="5.67839">
        <ele>546.51038665872</ele>
        <time>2021-05-12T16:34:11.221Z</time>
      </trkpt>
      <trkpt lat="46.76614" lon="5.6794">
        <ele>545.12745860643</ele>
        <time>2021-05-12T16:34:06.542Z</time>
      </trkpt>
      <trkpt lat="46.76618" lon="5.68006">
        <ele>543.63587944899</ele>
        <time>2021-05-12T16:34:01.874Z</time>
      </trkpt>
      <trkpt lat="46.76619" lon="5.68064">
        <ele>542.23778561461</ele>
        <time>2021-05-12T16:33:57.214Z</time>
      </trkpt>
      <trkpt lat="46.76619" lon="5.68193">
        <ele>540.99566863153</ele>
        <time>2021-05-12T16:33:52.560Z</time>
      </trkpt>
      <trkpt lat="46.76621" lon="5.68221">
        <ele>539.63994988881</ele>
        <time>2021-05-12T16:33:47.920Z</time>
      </trkpt>
      <trkpt lat="46.76636" lon="5.68312">
        <ele>538.17271043107</ele>
        <time>2021-05-12T16:33:43.283Z</time>
      </trkpt>
      <trkpt lat="46.76641" lon="5.68345">
        <ele>536.95653977916</ele>
        <time>2021-05-12T16:33:38.657Z</time>
      </trkpt>
      <trkpt lat="46.76643" lon="5.68376">
        <ele>535.873073524</ele>
        <time>2021-05-12T16:33:34.035Z</time>
      </trkpt>
      <trkpt lat="46.76642" lon="5.68425">
        <ele>534.79331029692</ele>
        <time>2021-05-12T16:33:29.416Z</time>
      </trkpt>
      <trkpt lat="46.76642" lon="5.68539">
        <ele>533.80757834959</ele>
        <time>2021-05-12T16:33:24.802Z</time>
      </trkpt>
      <trkpt lat="46.76642" lon="5.68553">
        <ele>532.79370550677</ele>
        <time>2021-05-12T16:33:20.201Z</time>
      </trkpt>
      <trkpt lat="46.76633" lon="5.68552">
        <ele>531.75498565013</ele>
        <time>2021-05-12T16:33:15.601Z</time>
      </trkpt>
      <trkpt lat="46.76633" lon="5.68552">
        <ele>530.70930219838</ele>
        <time>2021-05-12T16:33:11.003Z</time>
      </trkpt>
      <trkpt lat="46.76621" lon="5.68551">
        <ele>529.64041586002</ele>
        <time>2021-05-12T16:33:06.405Z</time>
      </trkpt>
      <trkpt lat="46.76613" lon="5.68548">
        <ele>528.51296057804</ele>
        <time>2021-05-12T16:33:01.809Z</time>
      </trkpt>
      <trkpt lat="46.76592" lon="5.68531">
        <ele>527.25968965828</ele>
        <time>2021-05-12T16:32:57.214Z</time>
      </trkpt>
      <trkpt lat="46.76581" lon="5.68532">
        <ele>526.02088853969</ele>
        <time>2021-05-12T16:32:52.623Z</time>
      </trkpt>
      <trkpt lat="46.76567" lon="5.68539">
        <ele>524.72409605932</ele>
        <time>2021-05-12T16:32:48.034Z</time>
      </trkpt>
      <trkpt lat="46.76551" lon="5.68552">
        <ele>523.31295401887</ele>
        <time>2021-05-12T16:32:43.447Z</time>
      </trkpt>
      <trkpt lat="46.76551" lon="5.68552">
        <ele>521.89365136726</ele>
        <time>2021-05-12T16:32:38.863Z</time>
      </trkpt>
      <trkpt lat="46.76538" lon="5.68565">
        <ele>520.30197529747</ele>
        <time>2021-05-12T16:32:34.279Z</time>
      </trkpt>
      <trkpt lat="46.76525" lon="5.68574">
        <ele>518.71623478874</ele>
        <time>2021-05-12T16:32:29.698Z</time>
      </trkpt>
      <trkpt lat="46.7651" lon="5.68577">
        <ele>516.97372252613</ele>
        <time>2021-05-12T16:32:25.119Z</time>
      </trkpt>
      <trkpt lat="46.76466" lon="5.68579">
        <ele>514.64429686675</ele>
        <time>2021-05-12T16:32:20.542Z</time>
      </trkpt>
      <trkpt lat="46.7645" lon="5.68582">
        <ele>512.65321500665</ele>
        <time>2021-05-12T16:32:15.972Z</time>
      </trkpt>
      <trkpt lat="46.7641" lon="5.68583">
        <ele>510.37248877515</ele>
        <time>2021-05-12T16:32:11.405Z</time>
      </trkpt>
      <trkpt lat="46.7639" lon="5.68576">
        <ele>507.72780609289</ele>
        <time>2021-05-12T16:32:06.844Z</time>
      </trkpt>
      <trkpt lat="46.76371" lon="5.68575">
        <ele>505.12529388472</ele>
        <time>2021-05-12T16:32:02.287Z</time>
      </trkpt>
      <trkpt lat="46.76365" lon="5.68577">
        <ele>502.74586045701</ele>
        <time>2021-05-12T16:31:57.733Z</time>
      </trkpt>
      <trkpt lat="46.76357" lon="5.68584">
        <ele>500.2887744989</ele>
        <time>2021-05-12T16:31:53.180Z</time>
      </trkpt>
      <trkpt lat="46.76352" lon="5.68594">
        <ele>497.77490605465</ele>
        <time>2021-05-12T16:31:48.628Z</time>
      </trkpt>
      <trkpt lat="46.76342" lon="5.68621">
        <ele>495.45549111894</ele>
        <time>2021-05-12T16:31:44.077Z</time>
      </trkpt>
      <trkpt lat="46.76324" lon="5.68684">
        <ele>492.53922492207</ele>
        <time>2021-05-12T16:31:39.530Z</time>
      </trkpt>
      <trkpt lat="46.76326" lon="5.68709">
        <ele>489.88672343148</ele>
        <time>2021-05-12T16:31:34.990Z</time>
      </trkpt>
      <trkpt lat="46.7636" lon="5.688">
        <ele>487.35860447559</ele>
        <time>2021-05-12T16:31:30.453Z</time>
      </trkpt>
      <trkpt lat="46.76381" lon="5.68835">
        <ele>484.32371812866</ele>
        <time>2021-05-12T16:31:25.927Z</time>
      </trkpt>
      <trkpt lat="46.76411" lon="5.68877">
        <ele>480.84840836205</ele>
        <time>2021-05-12T16:31:21.407Z</time>
      </trkpt>
      <trkpt lat="46.76436" lon="5.68919">
        <ele>477.32166467841</ele>
        <time>2021-05-12T16:31:16.893Z</time>
      </trkpt>
      <trkpt lat="46.76478" lon="5.69007">
        <ele>473.3562814869</ele>
        <time>2021-05-12T16:31:12.385Z</time>
      </trkpt>
      <trkpt lat="46.76518" lon="5.69071">
        <ele>469.92080943702</ele>
        <time>2021-05-12T16:31:07.889Z</time>
      </trkpt>
      <trkpt lat="46.76555" lon="5.69139">
        <ele>466.03102525668</ele>
        <time>2021-05-12T16:31:03.403Z</time>
      </trkpt>
      <trkpt lat="46.76573" lon="5.69185">
        <ele>461.67414862487</ele>
        <time>2021-05-12T16:30:58.926Z</time>
      </trkpt>
      <trkpt lat="46.76575" lon="5.69208">
        <ele>457.29678555507</ele>
        <time>2021-05-12T16:30:54.455Z</time>
      </trkpt>
      <trkpt lat="46.76576" lon="5.69236">
        <ele>452.84711894109</ele>
        <time>2021-05-12T16:30:49.987Z</time>
      </trkpt>
      <trkpt lat="46.76574" lon="5.69254">
        <ele>448.34023591885</ele>
        <time>2021-05-12T16:30:45.522Z</time>
      </trkpt>
      <trkpt lat="46.7657" lon="5.69269">
        <ele>444.04875405229</ele>
        <time>2021-05-12T16:30:41.059Z</time>
      </trkpt>
      <trkpt lat="46.76548" lon="5.69327">
        <ele>440.96194670656</ele>
        <time>2021-05-12T16:30:36.597Z</time>
      </trkpt>
      <trkpt lat="46.76543" lon="5.69332">
        <ele>436.74022401798</ele>
        <time>2021-05-12T16:30:32.143Z</time>
      </trkpt>
      <trkpt lat="46.76538" lon="5.69332">
        <ele>432.23220805956</ele>
        <time>2021-05-12T16:30:27.690Z</time>
      </trkpt>
      <trkpt lat="46.76503" lon="5.69314">
        <ele>426.89746405197</ele>
        <time>2021-05-12T16:30:23.238Z</time>
      </trkpt>
      <trkpt lat="46.76492" lon="5.69306">
        <ele>422.28567529375</ele>
        <time>2021-05-12T16:30:18.791Z</time>
      </trkpt>
      <trkpt lat="46.76392" lon="5.69215">
        <ele>416.73381414339</ele>
        <time>2021-05-12T16:30:14.347Z</time>
      </trkpt>
      <trkpt lat="46.7632" lon="5.69134">
        <ele>411.80286017627</ele>
        <time>2021-05-12T16:30:09.921Z</time>
      </trkpt>
      <trkpt lat="46.76293" lon="5.69098">
        <ele>406.98597704658</ele>
        <time>2021-05-12T16:30:05.510Z</time>
      </trkpt>
      <trkpt lat="46.76272" lon="5.69074">
        <ele>402.36624990663</ele>
        <time>2021-05-12T16:30:01.105Z</time>
      </trkpt>
      <trkpt lat="46.76163" lon="5.68983">
        <ele>397.54181135776</ele>
        <time>2021-05-12T16:29:56.704Z</time>
      </trkpt>
      <trkpt lat="46.76158" lon="5.68974">
        <ele>393.23491911492</ele>
        <time>2021-05-12T16:29:52.323Z</time>
      </trkpt>
      <trkpt lat="46.76155" lon="5.68957">
        <ele>389.06841119738</ele>
        <time>2021-05-12T16:29:47.943Z</time>
      </trkpt>
      <trkpt lat="46.76155" lon="5.68914">
        <ele>385.12705247573</ele>
        <time>2021-05-12T16:29:43.565Z</time>
      </trkpt>
      <trkpt lat="46.76148" lon="5.68886">
        <ele>381.56342529067</ele>
        <time>2021-05-12T16:29:39.192Z</time>
      </trkpt>
      <trkpt lat="46.76144" lon="5.68861">
        <ele>378.20233775533</ele>
        <time>2021-05-12T16:29:34.822Z</time>
      </trkpt>
      <trkpt lat="46.76143" lon="5.68828">
        <ele>375.07315713963</ele>
        <time>2021-05-12T16:29:30.455Z</time>
      </trkpt>
      <trkpt lat="46.76144" lon="5.68809">
        <ele>372.2119058386</ele>
        <time>2021-05-12T16:29:26.092Z</time>
      </trkpt>
      <trkpt lat="46.7615" lon="5.68776">
        <ele>369.53454369716</ele>
        <time>2021-05-12T16:29:21.731Z</time>
      </trkpt>
      <trkpt lat="46.76156" lon="5.68738">
        <ele>367.04129343322</ele>
        <time>2021-05-12T16:29:17.374Z</time>
      </trkpt>
      <trkpt lat="46.7616" lon="5.68714">
        <ele>364.88375230494</ele>
        <time>2021-05-12T16:29:13.021Z</time>
      </trkpt>
      <trkpt lat="46.7616" lon="5.68686">
        <ele>363.02397287817</ele>
        <time>2021-05-12T16:29:08.671Z</time>
      </trkpt>
      <trkpt lat="46.76166" lon="5.68609">
        <ele>361.57906805757</ele>
        <time>2021-05-12T16:29:04.324Z</time>
      </trkpt>
      <trkpt lat="46.76165" lon="5.68593">
        <ele>360.14274208977</ele>
        <time>2021-05-12T16:28:59.985Z</time>
      </trkpt>
      <trkpt lat="46.76162" lon="5.68575">
        <ele>358.91403999727</ele>
        <time>2021-05-12T16:28:55.648Z</time>
      </trkpt>
      <trkpt lat="46.76147" lon="5.6852">
        <ele>357.73390934716</ele>
        <time>2021-05-12T16:28:51.313Z</time>
      </trkpt>
      <trkpt lat="46.76141" lon="5.68487">
        <ele>356.85023870404</ele>
        <time>2021-05-12T16:28:46.985Z</time>
      </trkpt>
      <trkpt lat="46.76141" lon="5.68487">
        <ele>356.31495767547</ele>
        <time>2021-05-12T16:28:42.660Z</time>
      </trkpt>
      <trkpt lat="46.76141" lon="5.68469">
        <ele>355.91398072143</ele>
        <time>2021-05-12T16:28:38.335Z</time>
      </trkpt>
      <trkpt lat="46.76143" lon="5.68448">
        <ele>355.71293798143</ele>
        <time>2021-05-12T16:28:34.012Z</time>
      </trkpt>
      <trkpt lat="46.76146" lon="5.68435">
        <ele>355.69566827975</ele>
        <time>2021-05-12T16:28:29.692Z</time>
      </trkpt>
      <trkpt lat="46.76151" lon="5.68427">
        <ele>355.89997221418</ele>
        <time>2021-05-12T16:28:25.373Z</time>
      </trkpt>
      <trkpt lat="46.76184" lon="5.68392">
        <ele>356.37823745957</ele>
        <time>2021-05-12T16:28:21.056Z</time>
      </trkpt>
      <trkpt lat="46.76192" lon="5.68375">
        <ele>356.93084070208</ele>
        <time>2021-05-12T16:28:16.745Z</time>
      </trkpt>
      <trkpt lat="46.76201" lon="5.68347">
        <ele>357.51868171522</ele>
        <time>2021-05-12T16:28:12.436Z</time>
      </trkpt>
      <trkpt lat="46.76202" lon="5.68339">
        <ele>358.18413315641</ele>
        <time>2021-05-12T16:28:08.131Z</time>
      </trkpt>
      <trkpt lat="46.762" lon="5.6833">
        <ele>358.8900523191</ele>
        <time>2021-05-12T16:28:03.827Z</time>
      </trkpt>
      <trkpt lat="46.7619" lon="5.68295">
        <ele>359.58996845454</ele>
        <time>2021-05-12T16:27:59.524Z</time>
      </trkpt>
      <trkpt lat="46.76185" lon="5.68257">
        <ele>360.40173356823</ele>
        <time>2021-05-12T16:27:55.225Z</time>
      </trkpt>
      <trkpt lat="46.76184" lon="5.68244">
        <ele>361.30781437901</ele>
        <time>2021-05-12T16:27:50.930Z</time>
      </trkpt>
      <trkpt lat="46.76179" lon="5.68224">
        <ele>362.2575326932</ele>
        <time>2021-05-12T16:27:46.636Z</time>
      </trkpt>
      <trkpt lat="46.76171" lon="5.68199">
        <ele>363.26432362827</ele>
        <time>2021-05-12T16:27:42.345Z</time>
      </trkpt>
      <trkpt lat="46.76145" lon="5.68117">
        <ele>364.40742658634</ele>
        <time>2021-05-12T16:27:38.057Z</time>
      </trkpt>
      <trkpt lat="46.76139" lon="5.6809">
        <ele>365.35385153976</ele>
        <time>2021-05-12T16:27:33.779Z</time>
      </trkpt>
      <trkpt lat="46.76139" lon="5.68072">
        <ele>366.31190265411</ele>
        <time>2021-05-12T16:27:29.504Z</time>
      </trkpt>
      <trkpt lat="46.76139" lon="5.68051">
        <ele>367.2398699258</ele>
        <time>2021-05-12T16:27:25.231Z</time>
      </trkpt>
      <trkpt lat="46.76166" lon="5.6789">
        <ele>368.35973413092</ele>
        <time>2021-05-12T16:27:20.960Z</time>
      </trkpt>
      <trkpt lat="46.76166" lon="5.6789">
        <ele>369.18967524309</ele>
        <time>2021-05-12T16:27:16.707Z</time>
      </trkpt>
      <trkpt lat="46.76165" lon="5.67875">
        <ele>369.95898207093</ele>
        <time>2021-05-12T16:27:12.454Z</time>
      </trkpt>
      <trkpt lat="46.76163" lon="5.67859">
        <ele>370.65585900298</ele>
        <time>2021-05-12T16:27:08.203Z</time>
      </trkpt>
      <trkpt lat="46.76139" lon="5.67776">
        <ele>371.28963597105</ele>
        <time>2021-05-12T16:27:03.954Z</time>
      </trkpt>
      <trkpt lat="46.76129" lon="5.67711">
        <ele>371.65693737342</ele>
        <time>2021-05-12T16:26:59.715Z</time>
      </trkpt>
      <trkpt lat="46.76121" lon="5.67678">
        <ele>372.04238180159</ele>
        <time>2021-05-12T16:26:55.483Z</time>
      </trkpt>
      <trkpt lat="46.76113" lon="5.67648">
        <ele>372.36330509918</ele>
        <time>2021-05-12T16:26:51.255Z</time>
      </trkpt>
      <trkpt lat="46.76103" lon="5.67623">
        <ele>372.551033101</ele>
        <time>2021-05-12T16:26:47.031Z</time>
      </trkpt>
      <trkpt lat="46.76063" lon="5.67547">
        <ele>372.68751754559</ele>
        <time>2021-05-12T16:26:42.810Z</time>
      </trkpt>
      <trkpt lat="46.76051" lon="5.67521">
        <ele>372.64938699989</ele>
        <time>2021-05-12T16:26:38.599Z</time>
      </trkpt>
      <trkpt lat="46.76035" lon="5.67477">
        <ele>372.61011252719</ele>
        <time>2021-05-12T16:26:34.392Z</time>
      </trkpt>
      <trkpt lat="46.76026" lon="5.67464">
        <ele>372.37658506287</ele>
        <time>2021-05-12T16:26:30.190Z</time>
      </trkpt>
      <trkpt lat="46.76016" lon="5.67451">
        <ele>372.00623719216</ele>
        <time>2021-05-12T16:26:25.990Z</time>
      </trkpt>
      <trkpt lat="46.75947" lon="5.6739">
        <ele>371.36009891204</ele>
        <time>2021-05-12T16:26:21.792Z</time>
      </trkpt>
      <trkpt lat="46.75905" lon="5.67363">
        <ele>370.73060767728</ele>
        <time>2021-05-12T16:26:17.607Z</time>
      </trkpt>
      <trkpt lat="46.75776" lon="5.67294">
        <ele>369.78183455355</ele>
        <time>2021-05-12T16:26:13.430Z</time>
      </trkpt>
      <trkpt lat="46.75712" lon="5.6728">
        <ele>368.65952737893</ele>
        <time>2021-05-12T16:26:09.275Z</time>
      </trkpt>
      <trkpt lat="46.75685" lon="5.67272">
        <ele>367.56107406801</ele>
        <time>2021-05-12T16:26:05.130Z</time>
      </trkpt>
      <trkpt lat="46.75664" lon="5.67264">
        <ele>366.3578218396</ele>
        <time>2021-05-12T16:26:00.989Z</time>
      </trkpt>
      <trkpt lat="46.75606" lon="5.67219">
        <ele>365.03196926145</ele>
        <time>2021-05-12T16:25:56.852Z</time>
      </trkpt>
      <trkpt lat="46.75598" lon="5.67214">
        <ele>363.69640931738</ele>
        <time>2021-05-12T16:25:52.725Z</time>
      </trkpt>
      <trkpt lat="46.75513" lon="5.6721">
        <ele>361.81590411048</ele>
        <time>2021-05-12T16:25:48.600Z</time>
      </trkpt>
      <trkpt lat="46.75499" lon="5.67206">
        <ele>360.31882212072</ele>
        <time>2021-05-12T16:25:44.488Z</time>
      </trkpt>
      <trkpt lat="46.75485" lon="5.67199">
        <ele>358.80112455866</ele>
        <time>2021-05-12T16:25:40.379Z</time>
      </trkpt>
      <trkpt lat="46.75467" lon="5.67185">
        <ele>357.33762413336</ele>
        <time>2021-05-12T16:25:36.272Z</time>
      </trkpt>
      <trkpt lat="46.75333" lon="5.67062">
        <ele>355.48882077832</ele>
        <time>2021-05-12T16:25:32.168Z</time>
      </trkpt>
      <trkpt lat="46.75308" lon="5.67044">
        <ele>354.03038426744</ele>
        <time>2021-05-12T16:25:28.090Z</time>
      </trkpt>
      <trkpt lat="46.75281" lon="5.6703">
        <ele>352.50395328227</ele>
        <time>2021-05-12T16:25:24.016Z</time>
      </trkpt>
      <trkpt lat="46.75233" lon="5.67018">
        <ele>350.85439134122</ele>
        <time>2021-05-12T16:25:19.947Z</time>
      </trkpt>
      <trkpt lat="46.75217" lon="5.67017">
        <ele>349.13323857339</ele>
        <time>2021-05-12T16:25:15.886Z</time>
      </trkpt>
      <trkpt lat="46.75153" lon="5.67032">
        <ele>347.0344726525</ele>
        <time>2021-05-12T16:25:11.827Z</time>
      </trkpt>
      <trkpt lat="46.75134" lon="5.67032">
        <ele>340.13468094667</ele>
        <time>2021-05-12T16:25:07.779Z</time>
      </trkpt>
      <trkpt lat="46.75128" lon="5.6703">
        <ele>343.49404576868</ele>
        <time>2021-05-12T16:25:03.733Z</time>
      </trkpt>
      <trkpt lat="46.75128" lon="5.6703">
        <ele>341.79302791496</ele>
        <time>2021-05-12T16:24:59.688Z</time>
      </trkpt>
      <trkpt lat="46.75134" lon="5.67032">
        <ele>340.13468094667</ele>
        <time>2021-05-12T16:24:55.643Z</time>
      </trkpt>
      <trkpt lat="46.75139" lon="5.67064">
        <ele>338.35760273199</ele>
        <time>2021-05-12T16:24:51.600Z</time>
      </trkpt>
      <trkpt lat="46.75136" lon="5.67072">
        <ele>336.65045314367</ele>
        <time>2021-05-12T16:24:47.560Z</time>
      </trkpt>
      <trkpt lat="46.75132" lon="5.67075">
        <ele>334.98194115041</ele>
        <time>2021-05-12T16:24:43.521Z</time>
      </trkpt>
      <trkpt lat="46.75119" lon="5.67074">
        <ele>333.30075770368</ele>
        <time>2021-05-12T16:24:39.483Z</time>
      </trkpt>
      <trkpt lat="46.75112" lon="5.67071">
        <ele>331.70392515985</ele>
        <time>2021-05-12T16:24:35.447Z</time>
      </trkpt>
      <trkpt lat="46.75076" lon="5.67048">
        <ele>330.0628033742</ele>
        <time>2021-05-12T16:24:31.412Z</time>
      </trkpt>
      <trkpt lat="46.75051" lon="5.67038">
        <ele>328.51880743067</ele>
        <time>2021-05-12T16:24:27.383Z</time>
      </trkpt>
      <trkpt lat="46.7503" lon="5.67025">
        <ele>327.06718597641</ele>
        <time>2021-05-12T16:24:23.359Z</time>
      </trkpt>
      <trkpt lat="46.75023" lon="5.67023">
        <ele>325.69438026686</ele>
        <time>2021-05-12T16:24:19.338Z</time>
      </trkpt>
      <trkpt lat="46.75017" lon="5.67024">
        <ele>324.41149065604</ele>
        <time>2021-05-12T16:24:15.318Z</time>
      </trkpt>
      <trkpt lat="46.75012" lon="5.6703">
        <ele>323.20090052483</ele>
        <time>2021-05-12T16:24:11.299Z</time>
      </trkpt>
      <trkpt lat="46.74995" lon="5.67064">
        <ele>322.00102809846</ele>
        <time>2021-05-12T16:24:07.281Z</time>
      </trkpt>
      <trkpt lat="46.7499" lon="5.67072">
        <ele>320.95474541343</ele>
        <time>2021-05-12T16:24:03.268Z</time>
      </trkpt>
      <trkpt lat="46.74985" lon="5.67092">
        <ele>320.00362527473</ele>
        <time>2021-05-12T16:23:59.256Z</time>
      </trkpt>
      <trkpt lat="46.74979" lon="5.67111">
        <ele>319.16716518845</ele>
        <time>2021-05-12T16:23:55.246Z</time>
      </trkpt>
      <trkpt lat="46.74963" lon="5.67149">
        <ele>318.39537447607</ele>
        <time>2021-05-12T16:23:51.239Z</time>
      </trkpt>
      <trkpt lat="46.74942" lon="5.67192">
        <ele>317.82935777003</ele>
        <time>2021-05-12T16:23:47.237Z</time>
      </trkpt>
      <trkpt lat="46.74942" lon="5.67192">
        <ele>317.39545723435</ele>
        <time>2021-05-12T16:23:43.240Z</time>
      </trkpt>
      <trkpt lat="46.74932" lon="5.67216">
        <ele>317.10224516619</ele>
        <time>2021-05-12T16:23:39.243Z</time>
      </trkpt>
      <trkpt lat="46.74933" lon="5.67234">
        <ele>317.13722849644</ele>
        <time>2021-05-12T16:23:35.250Z</time>
      </trkpt>
      <trkpt lat="46.74934" lon="5.67246">
        <ele>317.45651109245</ele>
        <time>2021-05-12T16:23:31.259Z</time>
      </trkpt>
      <trkpt lat="46.74934" lon="5.67257">
        <ele>317.90805228457</ele>
        <time>2021-05-12T16:23:27.269Z</time>
      </trkpt>
      <trkpt lat="46.74934" lon="5.67257">
        <ele>318.47924977711</ele>
        <time>2021-05-12T16:23:23.280Z</time>
      </trkpt>
      <trkpt lat="46.74933" lon="5.6743">
        <ele>319.4787080097</ele>
        <time>2021-05-12T16:23:19.291Z</time>
      </trkpt>
      <trkpt lat="46.74934" lon="5.67439">
        <ele>320.32505082123</ele>
        <time>2021-05-12T16:23:15.321Z</time>
      </trkpt>
      <trkpt lat="46.74937" lon="5.67443">
        <ele>321.27889083934</ele>
        <time>2021-05-12T16:23:11.352Z</time>
      </trkpt>
      <trkpt lat="46.7494" lon="5.67445">
        <ele>322.3329212022</ele>
        <time>2021-05-12T16:23:07.384Z</time>
      </trkpt>
      <trkpt lat="46.74946" lon="5.67444">
        <ele>323.49218231984</ele>
        <time>2021-05-12T16:23:03.416Z</time>
      </trkpt>
      <trkpt lat="46.74949" lon="5.6744">
        <ele>324.72942219268</ele>
        <time>2021-05-12T16:22:59.449Z</time>
      </trkpt>
      <trkpt lat="46.74966" lon="5.67402">
        <ele>326.12662265928</ele>
        <time>2021-05-12T16:22:55.483Z</time>
      </trkpt>
      <trkpt lat="46.7498" lon="5.67385">
        <ele>327.64067968518</ele>
        <time>2021-05-12T16:22:51.522Z</time>
      </trkpt>
      <trkpt lat="46.75012" lon="5.6736">
        <ele>329.26347878531</ele>
        <time>2021-05-12T16:22:47.564Z</time>
      </trkpt>
      <trkpt lat="46.75029" lon="5.67358">
        <ele>330.94972982689</ele>
        <time>2021-05-12T16:22:43.612Z</time>
      </trkpt>
      <trkpt lat="46.75062" lon="5.67363">
        <ele>332.81864900505</ele>
        <time>2021-05-12T16:22:39.662Z</time>
      </trkpt>
      <trkpt lat="46.75072" lon="5.67368">
        <ele>334.61562525377</ele>
        <time>2021-05-12T16:22:35.718Z</time>
      </trkpt>
      <trkpt lat="46.75089" lon="5.67381">
        <ele>336.57431472855</ele>
        <time>2021-05-12T16:22:31.775Z</time>
      </trkpt>
      <trkpt lat="46.75127" lon="5.67392">
        <ele>338.62154940949</ele>
        <time>2021-05-12T16:22:27.835Z</time>
      </trkpt>
      <trkpt lat="46.75139" lon="5.67399">
        <ele>340.66663641137</ele>
        <time>2021-05-12T16:22:23.902Z</time>
      </trkpt>
      <trkpt lat="46.75139" lon="5.67399">
        <ele>342.71138712527</ele>
        <time>2021-05-12T16:22:19.971Z</time>
      </trkpt>
      <trkpt lat="46.75175" lon="5.67415">
        <ele>345.00298056227</ele>
        <time>2021-05-12T16:22:16.040Z</time>
      </trkpt>
      <trkpt lat="46.7519" lon="5.67418">
        <ele>347.14432581672</ele>
        <time>2021-05-12T16:22:12.115Z</time>
      </trkpt>
      <trkpt lat="46.75211" lon="5.67417">
        <ele>349.32204627972</ele>
        <time>2021-05-12T16:22:08.192Z</time>
      </trkpt>
      <trkpt lat="46.75242" lon="5.67414">
        <ele>351.62683064607</ele>
        <time>2021-05-12T16:22:04.272Z</time>
      </trkpt>
      <trkpt lat="46.75251" lon="5.67415">
        <ele>353.98746616198</ele>
        <time>2021-05-12T16:22:00.357Z</time>
      </trkpt>
      <trkpt lat="46.75282" lon="5.67425">
        <ele>356.72066469458</ele>
        <time>2021-05-12T16:21:56.444Z</time>
      </trkpt>
      <trkpt lat="46.75338" lon="5.67437">
        <ele>359.32085712713</ele>
        <time>2021-05-12T16:21:52.536Z</time>
      </trkpt>
      <trkpt lat="46.75363" lon="5.67452">
        <ele>361.75813480964</ele>
        <time>2021-05-12T16:21:48.637Z</time>
      </trkpt>
      <trkpt lat="46.75389" lon="5.67475">
        <ele>364.4240903127</ele>
        <time>2021-05-12T16:21:44.742Z</time>
      </trkpt>
      <trkpt lat="46.75417" lon="5.67491">
        <ele>367.11190690848</ele>
        <time>2021-05-12T16:21:40.852Z</time>
      </trkpt>
      <trkpt lat="46.75449" lon="5.67511">
        <ele>369.73203429911</ele>
        <time>2021-05-12T16:21:36.967Z</time>
      </trkpt>
      <trkpt lat="46.75518" lon="5.67576">
        <ele>372.59226927424</ele>
        <time>2021-05-12T16:21:33.088Z</time>
      </trkpt>
      <trkpt lat="46.75529" lon="5.67582">
        <ele>375.03870284893</ele>
        <time>2021-05-12T16:21:29.222Z</time>
      </trkpt>
      <trkpt lat="46.75558" lon="5.67595">
        <ele>377.33078959246</ele>
        <time>2021-05-12T16:21:25.358Z</time>
      </trkpt>
      <trkpt lat="46.75623" lon="5.67617">
        <ele>379.84419669827</ele>
        <time>2021-05-12T16:21:21.499Z</time>
      </trkpt>
      <trkpt lat="46.75629" lon="5.67623">
        <ele>382.3483477738</ele>
        <time>2021-05-12T16:21:17.650Z</time>
      </trkpt>
      <trkpt lat="46.75631" lon="5.67628">
        <ele>384.78466190155</ele>
        <time>2021-05-12T16:21:13.802Z</time>
      </trkpt>
      <trkpt lat="46.7563" lon="5.67635">
        <ele>387.19697446674</ele>
        <time>2021-05-12T16:21:09.955Z</time>
      </trkpt>
      <trkpt lat="46.75627" lon="5.6764">
        <ele>389.55702569952</ele>
        <time>2021-05-12T16:21:06.109Z</time>
      </trkpt>
      <trkpt lat="46.75621" lon="5.67641">
        <ele>391.82031416802</ele>
        <time>2021-05-12T16:21:02.264Z</time>
      </trkpt>
      <trkpt lat="46.75583" lon="5.67638">
        <ele>394.1355718737</ele>
        <time>2021-05-12T16:20:58.419Z</time>
      </trkpt>
      <trkpt lat="46.75484" lon="5.67634">
        <ele>397.53083517497</ele>
        <time>2021-05-12T16:20:54.581Z</time>
      </trkpt>
      <trkpt lat="46.75346" lon="5.67601">
        <ele>400.01773522012</ele>
        <time>2021-05-12T16:20:50.758Z</time>
      </trkpt>
      <trkpt lat="46.75334" lon="5.67601">
        <ele>402.12618024507</ele>
        <time>2021-05-12T16:20:46.958Z</time>
      </trkpt>
      <trkpt lat="46.75302" lon="5.67611">
        <ele>404.46583866226</ele>
        <time>2021-05-12T16:20:43.160Z</time>
      </trkpt>
      <trkpt lat="46.7528" lon="5.67612">
        <ele>406.44726735194</ele>
        <time>2021-05-12T16:20:39.367Z</time>
      </trkpt>
      <trkpt lat="46.75253" lon="5.67603">
        <ele>408.2040552873</ele>
        <time>2021-05-12T16:20:35.578Z</time>
      </trkpt>
      <trkpt lat="46.75246" lon="5.67603">
        <ele>410.19206093841</ele>
        <time>2021-05-12T16:20:31.793Z</time>
      </trkpt>
      <trkpt lat="46.75242" lon="5.67605">
        <ele>412.2345130606</ele>
        <time>2021-05-12T16:20:28.009Z</time>
      </trkpt>
      <trkpt lat="46.75224" lon="5.67618">
        <ele>414.50031960671</ele>
        <time>2021-05-12T16:20:24.226Z</time>
      </trkpt>
      <trkpt lat="46.75171" lon="5.67638">
        <ele>416.27064484295</ele>
        <time>2021-05-12T16:20:20.446Z</time>
      </trkpt>
      <trkpt lat="46.75089" lon="5.6769">
        <ele>418.35267563663</ele>
        <time>2021-05-12T16:20:16.675Z</time>
      </trkpt>
      <trkpt lat="46.75079" lon="5.677">
        <ele>420.31114217753</ele>
        <time>2021-05-12T16:20:12.918Z</time>
      </trkpt>
      <trkpt lat="46.75079" lon="5.677">
        <ele>422.50886749489</ele>
        <time>2021-05-12T16:20:09.163Z</time>
      </trkpt>
      <trkpt lat="46.75057" lon="5.67726">
        <ele>424.53966377951</ele>
        <time>2021-05-12T16:20:05.408Z</time>
      </trkpt>
      <trkpt lat="46.75031" lon="5.67781">
        <ele>427.27780721146</ele>
        <time>2021-05-12T16:20:01.658Z</time>
      </trkpt>
      <trkpt lat="46.7501" lon="5.67817">
        <ele>429.94701734952</ele>
        <time>2021-05-12T16:19:57.915Z</time>
      </trkpt>
      <trkpt lat="46.74984" lon="5.67879">
        <ele>433.39509949534</ele>
        <time>2021-05-12T16:19:54.177Z</time>
      </trkpt>
      <trkpt lat="46.74961" lon="5.67918">
        <ele>435.74319693349</ele>
        <time>2021-05-12T16:19:50.447Z</time>
      </trkpt>
      <trkpt lat="46.74957" lon="5.67927">
        <ele>438.57184113292</ele>
        <time>2021-05-12T16:19:46.723Z</time>
      </trkpt>
      <trkpt lat="46.74953" lon="5.67951">
        <ele>441.57835793879</ele>
        <time>2021-05-12T16:19:43.000Z</time>
      </trkpt>
      <trkpt lat="46.74943" lon="5.67984">
        <ele>444.90176088502</ele>
        <time>2021-05-12T16:19:39.280Z</time>
      </trkpt>
      <trkpt lat="46.74904" lon="5.68107">
        <ele>448.2062684628</ele>
        <time>2021-05-12T16:19:35.564Z</time>
      </trkpt>
      <trkpt lat="46.7489" lon="5.68158">
        <ele>451.41815095572</ele>
        <time>2021-05-12T16:19:31.863Z</time>
      </trkpt>
      <trkpt lat="46.74868" lon="5.68249">
        <ele>455.1915877008</ele>
        <time>2021-05-12T16:19:28.168Z</time>
      </trkpt>
      <trkpt lat="46.74858" lon="5.68274">
        <ele>458.73253129237</ele>
        <time>2021-05-12T16:19:24.483Z</time>
      </trkpt>
      <trkpt lat="46.7485" lon="5.68285">
        <ele>462.11480292216</ele>
        <time>2021-05-12T16:19:20.801Z</time>
      </trkpt>
      <trkpt lat="46.7484" lon="5.68291">
        <ele>465.27690815956</ele>
        <time>2021-05-12T16:19:17.121Z</time>
      </trkpt>
      <trkpt lat="46.74821" lon="5.68297">
        <ele>468.35470117883</ele>
        <time>2021-05-12T16:19:13.443Z</time>
      </trkpt>
      <trkpt lat="46.74759" lon="5.68294">
        <ele>471.26694146898</ele>
        <time>2021-05-12T16:19:09.768Z</time>
      </trkpt>
      <trkpt lat="46.7475" lon="5.68295">
        <ele>474.63660087835</ele>
        <time>2021-05-12T16:19:06.103Z</time>
      </trkpt>
      <trkpt lat="46.74721" lon="5.6831">
        <ele>478.87684283095</ele>
        <time>2021-05-12T16:19:02.439Z</time>
      </trkpt>
      <trkpt lat="46.74708" lon="5.68315">
        <ele>482.68863289396</ele>
        <time>2021-05-12T16:18:58.780Z</time>
      </trkpt>
      <trkpt lat="46.74696" lon="5.68318">
        <ele>485.91912623184</ele>
        <time>2021-05-12T16:18:55.123Z</time>
      </trkpt>
      <trkpt lat="46.74685" lon="5.68317">
        <ele>488.56665559461</ele>
        <time>2021-05-12T16:18:51.469Z</time>
      </trkpt>
      <trkpt lat="46.7467" lon="5.68313">
        <ele>490.92928459308</ele>
        <time>2021-05-12T16:18:47.816Z</time>
      </trkpt>
      <trkpt lat="46.74662" lon="5.68314">
        <ele>493.5660520846</ele>
        <time>2021-05-12T16:18:44.166Z</time>
      </trkpt>
      <trkpt lat="46.74639" lon="5.68323">
        <ele>496.54449871274</ele>
        <time>2021-05-12T16:18:40.517Z</time>
      </trkpt>
      <trkpt lat="46.74627" lon="5.68324">
        <ele>498.85767308271</ele>
        <time>2021-05-12T16:18:36.872Z</time>
      </trkpt>
      <trkpt lat="46.74618" lon="5.6832">
        <ele>500.66699560824</ele>
        <time>2021-05-12T16:18:33.229Z</time>
      </trkpt>
      <trkpt lat="46.74608" lon="5.68311">
        <ele>502.6776048496</ele>
        <time>2021-05-12T16:18:29.587Z</time>
      </trkpt>
      <trkpt lat="46.74597" lon="5.68296">
        <ele>504.19701163639</ele>
        <time>2021-05-12T16:18:25.947Z</time>
      </trkpt>
      <trkpt lat="46.74589" lon="5.68276">
        <ele>505.32375264799</ele>
        <time>2021-05-12T16:18:22.310Z</time>
      </trkpt>
      <trkpt lat="46.74586" lon="5.68261">
        <ele>506.09198830386</ele>
        <time>2021-05-12T16:18:18.675Z</time>
      </trkpt>
      <trkpt lat="46.74585" lon="5.68244">
        <ele>506.45144478306</ele>
        <time>2021-05-12T16:18:15.042Z</time>
      </trkpt>
      <trkpt lat="46.74595" lon="5.68193">
        <ele>505.1158624138</ele>
        <time>2021-05-12T16:18:11.411Z</time>
      </trkpt>
      <trkpt lat="46.74595" lon="5.68181">
        <ele>505.20386942173</ele>
        <time>2021-05-12T16:18:07.785Z</time>
      </trkpt>
      <trkpt lat="46.74586" lon="5.68139">
        <ele>505.34101102509</ele>
        <time>2021-05-12T16:18:04.161Z</time>
      </trkpt>
      <trkpt lat="46.74567" lon="5.68083">
        <ele>505.376476477</ele>
        <time>2021-05-12T16:18:00.542Z</time>
      </trkpt>
      <trkpt lat="46.74567" lon="5.68083">
        <ele>505.21128451387</ele>
        <time>2021-05-12T16:17:56.929Z</time>
      </trkpt>
      <trkpt lat="46.74563" lon="5.68068">
        <ele>505.10324040119</ele>
        <time>2021-05-12T16:17:53.316Z</time>
      </trkpt>
      <trkpt lat="46.74558" lon="5.68043">
        <ele>504.88373370038</ele>
        <time>2021-05-12T16:17:49.705Z</time>
      </trkpt>
      <trkpt lat="46.74558" lon="5.68043">
        <ele>504.55651964514</ele>
        <time>2021-05-12T16:17:46.097Z</time>
      </trkpt>
      <trkpt lat="46.74556" lon="5.68026">
        <ele>504.19171389858</ele>
        <time>2021-05-12T16:17:42.489Z</time>
      </trkpt>
      <trkpt lat="46.7455" lon="5.67902">
        <ele>503.83870242639</ele>
        <time>2021-05-12T16:17:38.883Z</time>
      </trkpt>
      <trkpt lat="46.74549" lon="5.67829">
        <ele>503.73298530036</ele>
        <time>2021-05-12T16:17:35.291Z</time>
      </trkpt>
      <trkpt lat="46.74553" lon="5.67784">
        <ele>503.60340099703</ele>
        <time>2021-05-12T16:17:31.707Z</time>
      </trkpt>
      <trkpt lat="46.74593" lon="5.67604">
        <ele>503.64906148432</ele>
        <time>2021-05-12T16:17:28.128Z</time>
      </trkpt>
      <trkpt lat="46.74623" lon="5.67508">
        <ele>502.69874980959</ele>
        <time>2021-05-12T16:17:24.570Z</time>
      </trkpt>
      <trkpt lat="46.74626" lon="5.67488">
        <ele>502.35076257415</ele>
        <time>2021-05-12T16:17:21.023Z</time>
      </trkpt>
      <trkpt lat="46.74626" lon="5.67459">
        <ele>502.19475072271</ele>
        <time>2021-05-12T16:17:17.478Z</time>
      </trkpt>
      <trkpt lat="46.74624" lon="5.67445">
        <ele>502.18114026478</ele>
        <time>2021-05-12T16:17:13.937Z</time>
      </trkpt>
      <trkpt lat="46.74622" lon="5.67435">
        <ele>502.16295818359</ele>
        <time>2021-05-12T16:17:10.397Z</time>
      </trkpt>
      <trkpt lat="46.74615" lon="5.67427">
        <ele>502.33430605817</ele>
        <time>2021-05-12T16:17:06.858Z</time>
      </trkpt>
      <trkpt lat="46.74584" lon="5.6741">
        <ele>502.77795414462</ele>
        <time>2021-05-12T16:17:03.321Z</time>
      </trkpt>
      <trkpt lat="46.74549" lon="5.67393">
        <ele>503.54083060262</ele>
        <time>2021-05-12T16:16:59.789Z</time>
      </trkpt>
      <trkpt lat="46.74536" lon="5.67381">
        <ele>504.17495983329</ele>
        <time>2021-05-12T16:16:56.263Z</time>
      </trkpt>
      <trkpt lat="46.74461" lon="5.6725">
        <ele>504.54257516459</ele>
        <time>2021-05-12T16:16:52.739Z</time>
      </trkpt>
      <trkpt lat="46.74455" lon="5.67243">
        <ele>505.20865339485</ele>
        <time>2021-05-12T16:16:49.234Z</time>
      </trkpt>
      <trkpt lat="46.74448" lon="5.67239">
        <ele>505.92971608527</ele>
        <time>2021-05-12T16:16:45.730Z</time>
      </trkpt>
      <trkpt lat="46.74441" lon="5.67238">
        <ele>506.65966210714</ele>
        <time>2021-05-12T16:16:42.228Z</time>
      </trkpt>
      <trkpt lat="46.74435" lon="5.67242">
        <ele>507.40883462392</ele>
        <time>2021-05-12T16:16:38.727Z</time>
      </trkpt>
      <trkpt lat="46.74422" lon="5.67281">
        <ele>508.19517384533</ele>
        <time>2021-05-12T16:16:35.227Z</time>
      </trkpt>
      <trkpt lat="46.74388" lon="5.67334">
        <ele>509.37388915971</ele>
        <time>2021-05-12T16:16:31.731Z</time>
      </trkpt>
      <trkpt lat="46.74375" lon="5.67341">
        <ele>510.27553156711</ele>
        <time>2021-05-12T16:16:28.244Z</time>
      </trkpt>
      <trkpt lat="46.74367" lon="5.67339">
        <ele>511.09267620347</ele>
        <time>2021-05-12T16:16:24.759Z</time>
      </trkpt>
      <trkpt lat="46.74351" lon="5.67318">
        <ele>511.86445151732</ele>
        <time>2021-05-12T16:16:21.275Z</time>
      </trkpt>
      <trkpt lat="46.74323" lon="5.67343">
        <ele>512.68895295294</ele>
        <time>2021-05-12T16:16:17.794Z</time>
      </trkpt>
      <trkpt lat="46.74277" lon="5.67354">
        <ele>513.31279281319</ele>
        <time>2021-05-12T16:16:14.319Z</time>
      </trkpt>
      <trkpt lat="46.74254" lon="5.67353">
        <ele>513.97256101228</ele>
        <time>2021-05-12T16:16:10.851Z</time>
      </trkpt>
      <trkpt lat="46.74223" lon="5.67344">
        <ele>514.62941507348</ele>
        <time>2021-05-12T16:16:07.387Z</time>
      </trkpt>
      <trkpt lat="46.74213" lon="5.67344">
        <ele>515.21631412556</ele>
        <time>2021-05-12T16:16:03.928Z</time>
      </trkpt>
      <trkpt lat="46.74202" lon="5.67346">
        <ele>515.75299298357</ele>
        <time>2021-05-12T16:16:00.470Z</time>
      </trkpt>
      <trkpt lat="46.74202" lon="5.67346">
        <ele>516.25926665645</ele>
        <time>2021-05-12T16:15:57.014Z</time>
      </trkpt>
      <trkpt lat="46.74192" lon="5.67351">
        <ele>516.69207034623</ele>
        <time>2021-05-12T16:15:53.558Z</time>
      </trkpt>
      <trkpt lat="46.74175" lon="5.67365">
        <ele>517.10541320384</ele>
        <time>2021-05-12T16:15:50.104Z</time>
      </trkpt>
      <trkpt lat="46.74157" lon="5.67381">
        <ele>517.44807519555</ele>
        <time>2021-05-12T16:15:46.653Z</time>
      </trkpt>
      <trkpt lat="46.74123" lon="5.67419">
        <ele>517.82662208261</ele>
        <time>2021-05-12T16:15:43.205Z</time>
      </trkpt>
      <trkpt lat="46.74113" lon="5.67426">
        <ele>518.15676833278</ele>
        <time>2021-05-12T16:15:39.764Z</time>
      </trkpt>
      <trkpt lat="46.74093" lon="5.67432">
        <ele>518.41647842074</ele>
        <time>2021-05-12T16:15:36.325Z</time>
      </trkpt>
      <trkpt lat="46.74071" lon="5.67433">
        <ele>518.676063085</ele>
        <time>2021-05-12T16:15:32.889Z</time>
      </trkpt>
      <trkpt lat="46.74046" lon="5.67431">
        <ele>518.90855059243</ele>
        <time>2021-05-12T16:15:29.457Z</time>
      </trkpt>
      <trkpt lat="46.74046" lon="5.67431">
        <ele>519.19555091213</ele>
        <time>2021-05-12T16:15:26.029Z</time>
      </trkpt>
      <trkpt lat="46.74037" lon="5.67431">
        <ele>519.45793292846</ele>
        <time>2021-05-12T16:15:22.601Z</time>
      </trkpt>
      <trkpt lat="46.74022" lon="5.6744">
        <ele>519.71091509914</ele>
        <time>2021-05-12T16:15:19.174Z</time>
      </trkpt>
      <trkpt lat="46.73978" lon="5.67487">
        <ele>520.17580899127</ele>
        <time>2021-05-12T16:15:15.750Z</time>
      </trkpt>
      <trkpt lat="46.73968" lon="5.67501">
        <ele>520.46576011656</ele>
        <time>2021-05-12T16:15:12.335Z</time>
      </trkpt>
      <trkpt lat="46.73962" lon="5.67514">
        <ele>520.76082892944</ele>
        <time>2021-05-12T16:15:08.922Z</time>
      </trkpt>
      <trkpt lat="46.73951" lon="5.67543">
        <ele>521.11268431834</ele>
        <time>2021-05-12T16:15:05.511Z</time>
      </trkpt>
      <trkpt lat="46.73937" lon="5.67589">
        <ele>521.51481439638</ele>
        <time>2021-05-12T16:15:02.103Z</time>
      </trkpt>
      <trkpt lat="46.73927" lon="5.67634">
        <ele>521.89890241421</ele>
        <time>2021-05-12T16:14:58.701Z</time>
      </trkpt>
      <trkpt lat="46.73914" lon="5.67723">
        <ele>521.99981557397</ele>
        <time>2021-05-12T16:14:55.304Z</time>
      </trkpt>
      <trkpt lat="46.7391" lon="5.6774">
        <ele>522.14370599461</ele>
        <time>2021-05-12T16:14:51.917Z</time>
      </trkpt>
      <trkpt lat="46.73899" lon="5.67773">
        <ele>522.21498101928</ele>
        <time>2021-05-12T16:14:48.532Z</time>
      </trkpt>
      <trkpt lat="46.73884" lon="5.67837">
        <ele>522.24113501203</ele>
        <time>2021-05-12T16:14:45.151Z</time>
      </trkpt>
      <trkpt lat="46.73857" lon="5.67956">
        <ele>522.3869890958</ele>
        <time>2021-05-12T16:14:41.777Z</time>
      </trkpt>
      <trkpt lat="46.73851" lon="5.67985">
        <ele>522.48182696096</ele>
        <time>2021-05-12T16:14:38.417Z</time>
      </trkpt>
      <trkpt lat="46.73847" lon="5.68038">
        <ele>522.49705518688</ele>
        <time>2021-05-12T16:14:35.061Z</time>
      </trkpt>
      <trkpt lat="46.73847" lon="5.68092">
        <ele>522.52164986663</ele>
        <time>2021-05-12T16:14:31.710Z</time>
      </trkpt>
      <trkpt lat="46.73848" lon="5.68106">
        <ele>522.54402883832</ele>
        <time>2021-05-12T16:14:28.365Z</time>
      </trkpt>
      <trkpt lat="46.7385" lon="5.68116">
        <ele>522.55297628721</ele>
        <time>2021-05-12T16:14:25.022Z</time>
      </trkpt>
      <trkpt lat="46.73858" lon="5.68131">
        <ele>522.55030588832</ele>
        <time>2021-05-12T16:14:21.680Z</time>
      </trkpt>
      <trkpt lat="46.73858" lon="5.68131">
        <ele>522.53786393228</ele>
        <time>2021-05-12T16:14:18.340Z</time>
      </trkpt>
      <trkpt lat="46.73867" lon="5.68143">
        <ele>522.51751004511</ele>
        <time>2021-05-12T16:14:15.000Z</time>
      </trkpt>
      <trkpt lat="46.73867" lon="5.68143">
        <ele>522.49109938227</ele>
        <time>2021-05-12T16:14:11.662Z</time>
      </trkpt>
      <trkpt lat="46.73867" lon="5.68143">
        <ele>522.46046617933</ele>
        <time>2021-05-12T16:14:08.324Z</time>
      </trkpt>
      <trkpt lat="46.73871" lon="5.68151">
        <ele>522.42740852819</ele>
        <time>2021-05-12T16:14:04.986Z</time>
      </trkpt>
      <trkpt lat="46.73873" lon="5.6816">
        <ele>522.393674238</ele>
        <time>2021-05-12T16:14:01.649Z</time>
      </trkpt>
      <trkpt lat="46.73872" lon="5.68169">
        <ele>522.36094763427</ele>
        <time>2021-05-12T16:13:58.313Z</time>
      </trkpt>
      <trkpt lat="46.73854" lon="5.6827">
        <ele>522.43744117668</ele>
        <time>2021-05-12T16:13:54.978Z</time>
      </trkpt>
      <trkpt lat="46.73852" lon="5.68293">
        <ele>522.40209397637</ele>
        <time>2021-05-12T16:13:51.655Z</time>
      </trkpt>
      <trkpt lat="46.73857" lon="5.68383">
        <ele>522.38596611952</ele>
        <time>2021-05-12T16:13:48.334Z</time>
      </trkpt>
      <trkpt lat="46.73843" lon="5.68493">
        <ele>522.26991133044</ele>
        <time>2021-05-12T16:13:45.023Z</time>
      </trkpt>
      <trkpt lat="46.73842" lon="5.68538">
        <ele>522.26182643184</ele>
        <time>2021-05-12T16:13:41.724Z</time>
      </trkpt>
      <trkpt lat="46.73829" lon="5.68599">
        <ele>522.33765192519</ele>
        <time>2021-05-12T16:13:38.430Z</time>
      </trkpt>
      <trkpt lat="46.73819" lon="5.68681">
        <ele>522.33184116396</ele>
        <time>2021-05-12T16:13:35.143Z</time>
      </trkpt>
      <trkpt lat="46.73815" lon="5.68705">
        <ele>522.31775935994</ele>
        <time>2021-05-12T16:13:31.866Z</time>
      </trkpt>
      <trkpt lat="46.7381" lon="5.68722">
        <ele>522.36593885495</ele>
        <time>2021-05-12T16:13:28.591Z</time>
      </trkpt>
      <trkpt lat="46.73806" lon="5.68734">
        <ele>522.40579453487</ele>
        <time>2021-05-12T16:13:25.318Z</time>
      </trkpt>
      <trkpt lat="46.73806" lon="5.68734">
        <ele>522.49738239444</ele>
        <time>2021-05-12T16:13:22.047Z</time>
      </trkpt>
      <trkpt lat="46.73793" lon="5.6876">
        <ele>522.55700113839</ele>
        <time>2021-05-12T16:13:18.776Z</time>
      </trkpt>
      <trkpt lat="46.73788" lon="5.68777">
        <ele>522.64777868633</ele>
        <time>2021-05-12T16:13:15.508Z</time>
      </trkpt>
      <trkpt lat="46.73784" lon="5.68802">
        <ele>522.81835303277</ele>
        <time>2021-05-12T16:13:12.242Z</time>
      </trkpt>
      <trkpt lat="46.73767" lon="5.68862">
        <ele>523.0957159563</ele>
        <time>2021-05-12T16:13:08.979Z</time>
      </trkpt>
      <trkpt lat="46.73762" lon="5.68876">
        <ele>523.3293614197</ele>
        <time>2021-05-12T16:13:05.723Z</time>
      </trkpt>
      <trkpt lat="46.73733" lon="5.68929">
        <ele>523.57946580972</ele>
        <time>2021-05-12T16:13:02.469Z</time>
      </trkpt>
      <trkpt lat="46.73722" lon="5.68961">
        <ele>523.84487064812</ele>
        <time>2021-05-12T16:12:59.222Z</time>
      </trkpt>
      <trkpt lat="46.73711" lon="5.69015">
        <ele>524.12333494357</ele>
        <time>2021-05-12T16:12:55.979Z</time>
      </trkpt>
      <trkpt lat="46.73685" lon="5.6908">
        <ele>524.37804918401</ele>
        <time>2021-05-12T16:12:52.743Z</time>
      </trkpt>
      <trkpt lat="46.73681" lon="5.69096">
        <ele>524.65442436606</ele>
        <time>2021-05-12T16:12:49.515Z</time>
      </trkpt>
      <trkpt lat="46.73677" lon="5.69111">
        <ele>524.89739205254</ele>
        <time>2021-05-12T16:12:46.289Z</time>
      </trkpt>
      <trkpt lat="46.73676" lon="5.69143">
        <ele>525.19666854175</ele>
        <time>2021-05-12T16:12:43.065Z</time>
      </trkpt>
      <trkpt lat="46.73678" lon="5.69164">
        <ele>525.48956025996</ele>
        <time>2021-05-12T16:12:39.844Z</time>
      </trkpt>
      <trkpt lat="46.73686" lon="5.69209">
        <ele>525.76982374368</ele>
        <time>2021-05-12T16:12:36.625Z</time>
      </trkpt>
      <trkpt lat="46.73687" lon="5.69242">
        <ele>526.02297332674</ele>
        <time>2021-05-12T16:12:33.411Z</time>
      </trkpt>
      <trkpt lat="46.73684" lon="5.69315">
        <ele>526.28279671749</ele>
        <time>2021-05-12T16:12:30.201Z</time>
      </trkpt>
      <trkpt lat="46.73675" lon="5.69394">
        <ele>526.59850048694</ele>
        <time>2021-05-12T16:12:26.999Z</time>
      </trkpt>
      <trkpt lat="46.73668" lon="5.69437">
        <ele>526.76194615407</ele>
        <time>2021-05-12T16:12:23.806Z</time>
      </trkpt>
      <trkpt lat="46.7366" lon="5.69464">
        <ele>526.87475185658</ele>
        <time>2021-05-12T16:12:20.618Z</time>
      </trkpt>
      <trkpt lat="46.73653" lon="5.69485">
        <ele>526.96575903961</ele>
        <time>2021-05-12T16:12:17.433Z</time>
      </trkpt>
      <trkpt lat="46.7364" lon="5.69509">
        <ele>526.99749227312</ele>
        <time>2021-05-12T16:12:14.251Z</time>
      </trkpt>
      <trkpt lat="46.73632" lon="5.6952">
        <ele>527.05896398055</ele>
        <time>2021-05-12T16:12:11.072Z</time>
      </trkpt>
      <trkpt lat="46.73619" lon="5.69531">
        <ele>527.04944792266</ele>
        <time>2021-05-12T16:12:07.895Z</time>
      </trkpt>
      <trkpt lat="46.73604" lon="5.69579">
        <ele>526.97270430577</ele>
        <time>2021-05-12T16:12:04.720Z</time>
      </trkpt>
      <trkpt lat="46.73597" lon="5.69597">
        <ele>526.97696591007</ele>
        <time>2021-05-12T16:12:01.551Z</time>
      </trkpt>
      <trkpt lat="46.73565" lon="5.69653">
        <ele>526.95894273347</ele>
        <time>2021-05-12T16:11:58.384Z</time>
      </trkpt>
      <trkpt lat="46.73555" lon="5.69682">
        <ele>527.01027167507</ele>
        <time>2021-05-12T16:11:55.225Z</time>
      </trkpt>
      <trkpt lat="46.73555" lon="5.69682">
        <ele>527.03724492377</ele>
        <time>2021-05-12T16:11:52.070Z</time>
      </trkpt>
      <trkpt lat="46.7354" lon="5.69727">
        <ele>527.08797548657</ele>
        <time>2021-05-12T16:11:48.915Z</time>
      </trkpt>
      <trkpt lat="46.73526" lon="5.69785">
        <ele>527.15631246664</ele>
        <time>2021-05-12T16:11:45.765Z</time>
      </trkpt>
      <trkpt lat="46.73526" lon="5.69789">
        <ele>527.18265135385</ele>
        <time>2021-05-12T16:11:42.622Z</time>
      </trkpt>
      <trkpt lat="46.73507" lon="5.69805">
        <ele>527.27482675453</ele>
        <time>2021-05-12T16:11:39.480Z</time>
      </trkpt>
      <trkpt lat="46.73499" lon="5.69785">
        <ele>527.28909954019</ele>
        <time>2021-05-12T16:11:36.341Z</time>
      </trkpt>
      <trkpt lat="46.73491" lon="5.69774">
        <ele>527.2793068872</ele>
        <time>2021-05-12T16:11:33.205Z</time>
      </trkpt>
      <trkpt lat="46.73448" lon="5.69746">
        <ele>527.24870342225</ele>
        <time>2021-05-12T16:11:30.071Z</time>
      </trkpt>
      <trkpt lat="46.73407" lon="5.69715">
        <ele>527.34337849643</ele>
        <time>2021-05-12T16:11:26.944Z</time>
      </trkpt>
      <trkpt lat="46.73308" lon="5.69639">
        <ele>527.26438518551</ele>
        <time>2021-05-12T16:11:23.824Z</time>
      </trkpt>
      <trkpt lat="46.73301" lon="5.6963">
        <ele>527.23470179256</ele>
        <time>2021-05-12T16:11:20.722Z</time>
      </trkpt>
      <trkpt lat="46.73295" lon="5.69616">
        <ele>527.19398209082</ele>
        <time>2021-05-12T16:11:17.622Z</time>
      </trkpt>
      <trkpt lat="46.73294" lon="5.69601">
        <ele>527.13060056061</ele>
        <time>2021-05-12T16:11:14.524Z</time>
      </trkpt>
      <trkpt lat="46.73301" lon="5.69522">
        <ele>527.10818132613</ele>
        <time>2021-05-12T16:11:11.427Z</time>
      </trkpt>
      <trkpt lat="46.73304" lon="5.69443">
        <ele>526.94994586369</ele>
        <time>2021-05-12T16:11:08.339Z</time>
      </trkpt>
      <trkpt lat="46.73306" lon="5.694">
        <ele>526.75913721189</ele>
        <time>2021-05-12T16:11:05.260Z</time>
      </trkpt>
      <trkpt lat="46.73314" lon="5.69217">
        <ele>526.64886342655</ele>
        <time>2021-05-12T16:11:02.186Z</time>
      </trkpt>
      <trkpt lat="46.73313" lon="5.69184">
        <ele>526.41991110448</ele>
        <time>2021-05-12T16:10:59.132Z</time>
      </trkpt>
      <trkpt lat="46.7331" lon="5.69162">
        <ele>526.09266120105</ele>
        <time>2021-05-12T16:10:56.081Z</time>
      </trkpt>
      <trkpt lat="46.73295" lon="5.69098">
        <ele>525.64289123102</ele>
        <time>2021-05-12T16:10:53.033Z</time>
      </trkpt>
      <trkpt lat="46.73254" lon="5.68933">
        <ele>525.23841339106</ele>
        <time>2021-05-12T16:10:49.992Z</time>
      </trkpt>
      <trkpt lat="46.73251" lon="5.68918">
        <ele>524.82844785906</ele>
        <time>2021-05-12T16:10:46.971Z</time>
      </trkpt>
      <trkpt lat="46.7325" lon="5.68906">
        <ele>524.38586186554</ele>
        <time>2021-05-12T16:10:43.951Z</time>
      </trkpt>
      <trkpt lat="46.73251" lon="5.68887">
        <ele>523.88406773485</ele>
        <time>2021-05-12T16:10:40.933Z</time>
      </trkpt>
      <trkpt lat="46.73259" lon="5.6883">
        <ele>523.29099901506</ele>
        <time>2021-05-12T16:10:37.917Z</time>
      </trkpt>
      <trkpt lat="46.73265" lon="5.68749">
        <ele>522.56113823135</ele>
        <time>2021-05-12T16:10:34.907Z</time>
      </trkpt>
      <trkpt lat="46.73266" lon="5.6873">
        <ele>522.02541001136</ele>
        <time>2021-05-12T16:10:31.906Z</time>
      </trkpt>
      <trkpt lat="46.73264" lon="5.68711">
        <ele>521.53488031572</ele>
        <time>2021-05-12T16:10:28.907Z</time>
      </trkpt>
      <trkpt lat="46.73262" lon="5.68699">
        <ele>521.08596688284</ele>
        <time>2021-05-12T16:10:25.910Z</time>
      </trkpt>
      <trkpt lat="46.7325" lon="5.68671">
        <ele>520.60623595817</ele>
        <time>2021-05-12T16:10:22.915Z</time>
      </trkpt>
      <trkpt lat="46.73225" lon="5.68625">
        <ele>520.0907110326</ele>
        <time>2021-05-12T16:10:19.923Z</time>
      </trkpt>
      <trkpt lat="46.73191" lon="5.68582">
        <ele>519.74005151589</ele>
        <time>2021-05-12T16:10:16.938Z</time>
      </trkpt>
      <trkpt lat="46.73131" lon="5.68512">
        <ele>519.47461163181</ele>
        <time>2021-05-12T16:10:13.960Z</time>
      </trkpt>
      <trkpt lat="46.73117" lon="5.68493">
        <ele>519.14880718101</ele>
        <time>2021-05-12T16:10:10.994Z</time>
      </trkpt>
      <trkpt lat="46.73096" lon="5.68458">
        <ele>518.86725618369</ele>
        <time>2021-05-12T16:10:08.031Z</time>
      </trkpt>
      <trkpt lat="46.73035" lon="5.68324">
        <ele>518.47342181873</ele>
        <time>2021-05-12T16:10:05.073Z</time>
      </trkpt>
      <trkpt lat="46.73021" lon="5.68297">
        <ele>518.1797942293</ele>
        <time>2021-05-12T16:10:02.133Z</time>
      </trkpt>
      <trkpt lat="46.72999" lon="5.68263">
        <ele>517.90360144389</ele>
        <time>2021-05-12T16:09:59.197Z</time>
      </trkpt>
      <trkpt lat="46.72982" lon="5.68246">
        <ele>517.66831247734</ele>
        <time>2021-05-12T16:09:56.266Z</time>
      </trkpt>
      <trkpt lat="46.72968" lon="5.68239">
        <ele>517.49235543423</ele>
        <time>2021-05-12T16:09:53.338Z</time>
      </trkpt>
      <trkpt lat="46.72911" lon="5.6822">
        <ele>517.34196085736</ele>
        <time>2021-05-12T16:09:50.413Z</time>
      </trkpt>
      <trkpt lat="46.72889" lon="5.68206">
        <ele>517.20086172676</ele>
        <time>2021-05-12T16:09:47.497Z</time>
      </trkpt>
      <trkpt lat="46.7285" lon="5.68163">
        <ele>517.04403719422</ele>
        <time>2021-05-12T16:09:44.585Z</time>
      </trkpt>
      <trkpt lat="46.72803" lon="5.68124">
        <ele>517.04170135127</ele>
        <time>2021-05-12T16:09:41.681Z</time>
      </trkpt>
      <trkpt lat="46.72785" lon="5.68113">
        <ele>517.03880703983</ele>
        <time>2021-05-12T16:09:38.785Z</time>
      </trkpt>
      <trkpt lat="46.72769" lon="5.68107">
        <ele>517.09838940954</ele>
        <time>2021-05-12T16:09:35.892Z</time>
      </trkpt>
      <trkpt lat="46.72731" lon="5.68095">
        <ele>517.14464835781</ele>
        <time>2021-05-12T16:09:33.002Z</time>
      </trkpt>
      <trkpt lat="46.7272" lon="5.6809">
        <ele>517.18797905014</ele>
        <time>2021-05-12T16:09:30.118Z</time>
      </trkpt>
      <trkpt lat="46.7271" lon="5.68081">
        <ele>517.22702729801</ele>
        <time>2021-05-12T16:09:27.236Z</time>
      </trkpt>
      <trkpt lat="46.72695" lon="5.68063">
        <ele>517.24686408391</ele>
        <time>2021-05-12T16:09:24.356Z</time>
      </trkpt>
      <trkpt lat="46.7268" lon="5.68039">
        <ele>517.34177083818</ele>
        <time>2021-05-12T16:09:21.479Z</time>
      </trkpt>
      <trkpt lat="46.72666" lon="5.68011">
        <ele>517.47023219192</ele>
        <time>2021-05-12T16:09:18.606Z</time>
      </trkpt>
      <trkpt lat="46.72647" lon="5.67964">
        <ele>517.70474850315</ele>
        <time>2021-05-12T16:09:15.737Z</time>
      </trkpt>
      <trkpt lat="46.7263" lon="5.67902">
        <ele>517.89267952981</ele>
        <time>2021-05-12T16:09:12.874Z</time>
      </trkpt>
      <trkpt lat="46.72626" lon="5.67882">
        <ele>517.9400413947</ele>
        <time>2021-05-12T16:09:10.018Z</time>
      </trkpt>
      <trkpt lat="46.72616" lon="5.67803">
        <ele>517.91865819281</ele>
        <time>2021-05-12T16:09:07.164Z</time>
      </trkpt>
      <trkpt lat="46.72608" lon="5.67771">
        <ele>517.82792870279</ele>
        <time>2021-05-12T16:09:04.319Z</time>
      </trkpt>
      <trkpt lat="46.72591" lon="5.67722">
        <ele>517.72864652539</ele>
        <time>2021-05-12T16:09:01.478Z</time>
      </trkpt>
      <trkpt lat="46.72566" lon="5.67658">
        <ele>517.72988585629</ele>
        <time>2021-05-12T16:08:58.643Z</time>
      </trkpt>
      <trkpt lat="46.72566" lon="5.67658">
        <ele>517.57212603202</ele>
        <time>2021-05-12T16:08:55.816Z</time>
      </trkpt>
      <trkpt lat="46.725" lon="5.67498">
        <ele>517.49389500145</ele>
        <time>2021-05-12T16:08:52.989Z</time>
      </trkpt>
      <trkpt lat="46.72476" lon="5.67459">
        <ele>517.10488460465</ele>
        <time>2021-05-12T16:08:50.182Z</time>
      </trkpt>
      <trkpt lat="46.72466" lon="5.67448">
        <ele>516.73213610333</ele>
        <time>2021-05-12T16:08:47.381Z</time>
      </trkpt>
      <trkpt lat="46.72336" lon="5.6734">
        <ele>516.26459814158</ele>
        <time>2021-05-12T16:08:44.582Z</time>
      </trkpt>
      <trkpt lat="46.72317" lon="5.67322">
        <ele>515.81778050575</ele>
        <time>2021-05-12T16:08:41.807Z</time>
      </trkpt>
      <trkpt lat="46.72282" lon="5.67275">
        <ele>515.28657355851</ele>
        <time>2021-05-12T16:08:39.036Z</time>
      </trkpt>
      <trkpt lat="46.72271" lon="5.67267">
        <ele>514.74367157966</ele>
        <time>2021-05-12T16:08:36.272Z</time>
      </trkpt>
      <trkpt lat="46.72272" lon="5.67264">
        <ele>514.22007955552</ele>
        <time>2021-05-12T16:08:33.510Z</time>
      </trkpt>
      <trkpt lat="46.72272" lon="5.67257">
        <ele>513.66284452307</ele>
        <time>2021-05-12T16:08:30.749Z</time>
      </trkpt>
      <trkpt lat="46.72265" lon="5.67239">
        <ele>513.03176410358</ele>
        <time>2021-05-12T16:08:27.989Z</time>
      </trkpt>
      <trkpt lat="46.7226" lon="5.67211">
        <ele>512.37737288496</ele>
        <time>2021-05-12T16:08:25.231Z</time>
      </trkpt>
      <trkpt lat="46.72259" lon="5.67194">
        <ele>511.70235353298</ele>
        <time>2021-05-12T16:08:22.476Z</time>
      </trkpt>
      <trkpt lat="46.72259" lon="5.67194">
        <ele>511.04489866684</ele>
        <time>2021-05-12T16:08:19.723Z</time>
      </trkpt>
      <trkpt lat="46.72255" lon="5.67118">
        <ele>510.0805917316</ele>
        <time>2021-05-12T16:08:16.970Z</time>
      </trkpt>
      <trkpt lat="46.72255" lon="5.671">
        <ele>509.44644793273</ele>
        <time>2021-05-12T16:08:14.225Z</time>
      </trkpt>
      <trkpt lat="46.72263" lon="5.6706">
        <ele>508.79097977756</ele>
        <time>2021-05-12T16:08:11.482Z</time>
      </trkpt>
      <trkpt lat="46.72291" lon="5.66978">
        <ele>508.06696417824</ele>
        <time>2021-05-12T16:08:08.744Z</time>
      </trkpt>
      <trkpt lat="46.72296" lon="5.66946">
        <ele>507.46797422774</ele>
        <time>2021-05-12T16:08:06.016Z</time>
      </trkpt>
      <trkpt lat="46.72293" lon="5.66891">
        <ele>506.79607623242</ele>
        <time>2021-05-12T16:08:03.292Z</time>
      </trkpt>
      <trkpt lat="46.72291" lon="5.66781">
        <ele>506.09625061563</ele>
        <time>2021-05-12T16:08:00.574Z</time>
      </trkpt>
      <trkpt lat="46.72288" lon="5.66721">
        <ele>505.64983397255</ele>
        <time>2021-05-12T16:07:57.868Z</time>
      </trkpt>
      <trkpt lat="46.72289" lon="5.66636">
        <ele>504.98024679441</ele>
        <time>2021-05-12T16:07:55.168Z</time>
      </trkpt>
      <trkpt lat="46.72286" lon="5.66596">
        <ele>504.44854240309</ele>
        <time>2021-05-12T16:07:52.478Z</time>
      </trkpt>
      <trkpt lat="46.72273" lon="5.66541">
        <ele>503.93131544535</ele>
        <time>2021-05-12T16:07:49.792Z</time>
      </trkpt>
      <trkpt lat="46.72261" lon="5.66483">
        <ele>503.62049277625</ele>
        <time>2021-05-12T16:07:47.113Z</time>
      </trkpt>
      <trkpt lat="46.72257" lon="5.66468">
        <ele>503.2795357307</ele>
        <time>2021-05-12T16:07:44.440Z</time>
      </trkpt>
      <trkpt lat="46.72232" lon="5.66425">
        <ele>503.05079892852</ele>
        <time>2021-05-12T16:07:41.769Z</time>
      </trkpt>
      <trkpt lat="46.72225" lon="5.6641">
        <ele>502.74754161719</ele>
        <time>2021-05-12T16:07:39.104Z</time>
      </trkpt>
      <trkpt lat="46.7222" lon="5.66396">
        <ele>502.45825900223</ele>
        <time>2021-05-12T16:07:36.441Z</time>
      </trkpt>
      <trkpt lat="46.72215" lon="5.66362">
        <ele>502.21991688242</ele>
        <time>2021-05-12T16:07:33.780Z</time>
      </trkpt>
      <trkpt lat="46.72212" lon="5.66307">
        <ele>501.98678711876</ele>
        <time>2021-05-12T16:07:31.123Z</time>
      </trkpt>
      <trkpt lat="46.72209" lon="5.66282">
        <ele>501.80483237788</ele>
        <time>2021-05-12T16:07:28.472Z</time>
      </trkpt>
      <trkpt lat="46.72205" lon="5.66273">
        <ele>501.64572901088</ele>
        <time>2021-05-12T16:07:25.824Z</time>
      </trkpt>
      <trkpt lat="46.72183" lon="5.66239">
        <ele>501.50048167469</ele>
        <time>2021-05-12T16:07:23.177Z</time>
      </trkpt>
      <trkpt lat="46.72165" lon="5.66201">
        <ele>501.46777054885</ele>
        <time>2021-05-12T16:07:20.535Z</time>
      </trkpt>
      <trkpt lat="46.72155" lon="5.66179">
        <ele>501.44218101653</ele>
        <time>2021-05-12T16:07:17.898Z</time>
      </trkpt>
      <trkpt lat="46.7212" lon="5.66062">
        <ele>501.40734006213</ele>
        <time>2021-05-12T16:07:15.264Z</time>
      </trkpt>
      <trkpt lat="46.7212" lon="5.66062">
        <ele>501.31490376784</ele>
        <time>2021-05-12T16:07:12.644Z</time>
      </trkpt>
      <trkpt lat="46.72097" lon="5.6599">
        <ele>501.16526590351</ele>
        <time>2021-05-12T16:07:10.024Z</time>
      </trkpt>
      <trkpt lat="46.72091" lon="5.65975">
        <ele>501.06979537854</ele>
        <time>2021-05-12T16:07:07.413Z</time>
      </trkpt>
      <trkpt lat="46.72051" lon="5.65917">
        <ele>500.99949870786</ele>
        <time>2021-05-12T16:07:04.804Z</time>
      </trkpt>
      <trkpt lat="46.72033" lon="5.65881">
        <ele>500.83361818424</ele>
        <time>2021-05-12T16:07:02.204Z</time>
      </trkpt>
      <trkpt lat="46.72028" lon="5.65867">
        <ele>500.68511924024</ele>
        <time>2021-05-12T16:06:59.609Z</time>
      </trkpt>
      <trkpt lat="46.72024" lon="5.6584">
        <ele>500.55445928514</ele>
        <time>2021-05-12T16:06:57.015Z</time>
      </trkpt>
      <trkpt lat="46.72023" lon="5.65696">
        <ele>500.28483338886</ele>
        <time>2021-05-12T16:06:54.424Z</time>
      </trkpt>
      <trkpt lat="46.72026" lon="5.65646">
        <ele>500.09804264023</ele>
        <time>2021-05-12T16:06:51.849Z</time>
      </trkpt>
      <trkpt lat="46.72025" lon="5.65615">
        <ele>499.95975022032</ele>
        <time>2021-05-12T16:06:49.280Z</time>
      </trkpt>
      <trkpt lat="46.72019" lon="5.65585">
        <ele>499.79669538223</ele>
        <time>2021-05-12T16:06:46.714Z</time>
      </trkpt>
      <trkpt lat="46.72011" lon="5.6557">
        <ele>499.69086937838</ele>
        <time>2021-05-12T16:06:44.152Z</time>
      </trkpt>
      <trkpt lat="46.71976" lon="5.65511">
        <ele>499.47571786172</ele>
        <time>2021-05-12T16:06:41.592Z</time>
      </trkpt>
      <trkpt lat="46.71976" lon="5.65511">
        <ele>499.33980194224</ele>
        <time>2021-05-12T16:06:39.040Z</time>
      </trkpt>
      <trkpt lat="46.71899" lon="5.65399">
        <ele>499.24171321177</ele>
        <time>2021-05-12T16:06:36.488Z</time>
      </trkpt>
      <trkpt lat="46.71866" lon="5.65347">
        <ele>499.1933865967</ele>
        <time>2021-05-12T16:06:33.954Z</time>
      </trkpt>
      <trkpt lat="46.71859" lon="5.65338">
        <ele>499.05332998659</ele>
        <time>2021-05-12T16:06:31.427Z</time>
      </trkpt>
      <trkpt lat="46.71846" lon="5.6533">
        <ele>498.87962036625</ele>
        <time>2021-05-12T16:06:28.902Z</time>
      </trkpt>
      <trkpt lat="46.71805" lon="5.65314">
        <ele>498.65895986941</ele>
        <time>2021-05-12T16:06:26.379Z</time>
      </trkpt>
      <trkpt lat="46.71793" lon="5.65307">
        <ele>498.4967723084</ele>
        <time>2021-05-12T16:06:23.863Z</time>
      </trkpt>
      <trkpt lat="46.71785" lon="5.65297">
        <ele>498.32768836773</ele>
        <time>2021-05-12T16:06:21.349Z</time>
      </trkpt>
      <trkpt lat="46.71778" lon="5.65278">
        <ele>498.14280519926</ele>
        <time>2021-05-12T16:06:18.837Z</time>
      </trkpt>
      <trkpt lat="46.71775" lon="5.65254">
        <ele>497.94924095378</ele>
        <time>2021-05-12T16:06:16.327Z</time>
      </trkpt>
      <trkpt lat="46.71773" lon="5.6522">
        <ele>497.69925644557</ele>
        <time>2021-05-12T16:06:13.820Z</time>
      </trkpt>
      <trkpt lat="46.71778" lon="5.65167">
        <ele>497.50327165102</ele>
        <time>2021-05-12T16:06:11.317Z</time>
      </trkpt>
      <trkpt lat="46.71778" lon="5.65147">
        <ele>497.2944059435</ele>
        <time>2021-05-12T16:06:08.819Z</time>
      </trkpt>
      <trkpt lat="46.71771" lon="5.65091">
        <ele>497.05756880258</ele>
        <time>2021-05-12T16:06:06.324Z</time>
      </trkpt>
      <trkpt lat="46.71767" lon="5.6508">
        <ele>496.80221356247</ele>
        <time>2021-05-12T16:06:03.835Z</time>
      </trkpt>
      <trkpt lat="46.71742" lon="5.65051">
        <ele>496.48289237326</ele>
        <time>2021-05-12T16:06:01.347Z</time>
      </trkpt>
      <trkpt lat="46.71733" lon="5.65036">
        <ele>496.19844378766</ele>
        <time>2021-05-12T16:05:58.864Z</time>
      </trkpt>
      <trkpt lat="46.71723" lon="5.65013">
        <ele>495.92245000834</ele>
        <time>2021-05-12T16:05:56.383Z</time>
      </trkpt>
      <trkpt lat="46.71718" lon="5.64997">
        <ele>495.64201439205</ele>
        <time>2021-05-12T16:05:53.906Z</time>
      </trkpt>
      <trkpt lat="46.71703" lon="5.64925">
        <ele>495.4450423075</ele>
        <time>2021-05-12T16:05:51.430Z</time>
      </trkpt>
      <trkpt lat="46.71701" lon="5.64909">
        <ele>495.14052121933</ele>
        <time>2021-05-12T16:05:48.963Z</time>
      </trkpt>
      <trkpt lat="46.71702" lon="5.64894">
        <ele>494.81011849181</ele>
        <time>2021-05-12T16:05:46.498Z</time>
      </trkpt>
      <trkpt lat="46.71716" lon="5.64832">
        <ele>494.35234666463</ele>
        <time>2021-05-12T16:05:44.034Z</time>
      </trkpt>
      <trkpt lat="46.71717" lon="5.64821">
        <ele>493.97659341126</ele>
        <time>2021-05-12T16:05:41.577Z</time>
      </trkpt>
      <trkpt lat="46.71715" lon="5.6481">
        <ele>493.59058854797</ele>
        <time>2021-05-12T16:05:39.122Z</time>
      </trkpt>
      <trkpt lat="46.71715" lon="5.6481">
        <ele>493.19082213477</ele>
        <time>2021-05-12T16:05:36.668Z</time>
      </trkpt>
      <trkpt lat="46.71712" lon="5.64801">
        <ele>492.75142446958</ele>
        <time>2021-05-12T16:05:34.214Z</time>
      </trkpt>
      <trkpt lat="46.71708" lon="5.64795">
        <ele>492.29625204132</ele>
        <time>2021-05-12T16:05:31.761Z</time>
      </trkpt>
      <trkpt lat="46.71629" lon="5.64734">
        <ele>491.88883546512</ele>
        <time>2021-05-12T16:05:29.309Z</time>
      </trkpt>
      <trkpt lat="46.71624" lon="5.64725">
        <ele>491.42876318812</ele>
        <time>2021-05-12T16:05:26.871Z</time>
      </trkpt>
      <trkpt lat="46.71612" lon="5.64714">
        <ele>490.94742062363</ele>
        <time>2021-05-12T16:05:24.434Z</time>
      </trkpt>
      <trkpt lat="46.71595" lon="5.64708">
        <ele>490.46319221399</ele>
        <time>2021-05-12T16:05:22.000Z</time>
      </trkpt>
      <trkpt lat="46.71514" lon="5.64686">
        <ele>489.98242505645</ele>
        <time>2021-05-12T16:05:19.569Z</time>
      </trkpt>
      <trkpt lat="46.71498" lon="5.6467">
        <ele>489.43683395751</ele>
        <time>2021-05-12T16:05:17.151Z</time>
      </trkpt>
      <trkpt lat="46.71467" lon="5.64631">
        <ele>488.88161846799</ele>
        <time>2021-05-12T16:05:14.736Z</time>
      </trkpt>
      <trkpt lat="46.71455" lon="5.64621">
        <ele>488.38660963908</ele>
        <time>2021-05-12T16:05:12.327Z</time>
      </trkpt>
      <trkpt lat="46.71411" lon="5.646">
        <ele>487.95396806163</ele>
        <time>2021-05-12T16:05:09.920Z</time>
      </trkpt>
      <trkpt lat="46.71387" lon="5.64584">
        <ele>487.31910939174</ele>
        <time>2021-05-12T16:05:07.521Z</time>
      </trkpt>
      <trkpt lat="46.71379" lon="5.64586">
        <ele>486.73510560593</ele>
        <time>2021-05-12T16:05:05.126Z</time>
      </trkpt>
      <trkpt lat="46.71363" lon="5.64602">
        <ele>486.11140056022</ele>
        <time>2021-05-12T16:05:02.732Z</time>
      </trkpt>
      <trkpt lat="46.7134" lon="5.6465">
        <ele>485.23755432072</ele>
        <time>2021-05-12T16:05:00.342Z</time>
      </trkpt>
      <trkpt lat="46.71319" lon="5.64707">
        <ele>484.80380722606</ele>
        <time>2021-05-12T16:04:57.958Z</time>
      </trkpt>
      <trkpt lat="46.71306" lon="5.64737">
        <ele>484.15309608657</ele>
        <time>2021-05-12T16:04:55.581Z</time>
      </trkpt>
      <trkpt lat="46.71306" lon="5.64737">
        <ele>484.45784796431</ele>
        <time>2021-05-12T16:04:53.208Z</time>
      </trkpt>
      <trkpt lat="46.71314" lon="5.64741">
        <ele>484.50759019564</ele>
        <time>2021-05-12T16:04:50.835Z</time>
      </trkpt>
      <trkpt lat="46.71314" lon="5.64741">
        <ele>484.40521806274</ele>
        <time>2021-05-12T16:04:48.463Z</time>
      </trkpt>
      <trkpt lat="46.71306" lon="5.64737">
        <ele>484.15309608657</ele>
        <time>2021-05-12T16:04:46.091Z</time>
      </trkpt>
      <trkpt lat="46.71256" lon="5.64821">
        <ele>484.18986424667</ele>
        <time>2021-05-12T16:04:43.721Z</time>
      </trkpt>
      <trkpt lat="46.71199" lon="5.64922">
        <ele>484.58506631485</ele>
        <time>2021-05-12T16:04:41.363Z</time>
      </trkpt>
      <trkpt lat="46.71186" lon="5.64939">
        <ele>484.76124262595</ele>
        <time>2021-05-12T16:04:39.019Z</time>
      </trkpt>
      <trkpt lat="46.71164" lon="5.64959">
        <ele>484.93065336967</ele>
        <time>2021-05-12T16:04:36.678Z</time>
      </trkpt>
      <trkpt lat="46.71148" lon="5.64977">
        <ele>485.28738501255</ele>
        <time>2021-05-12T16:04:34.341Z</time>
      </trkpt>
      <trkpt lat="46.71115" lon="5.65018">
        <ele>485.67226839535</ele>
        <time>2021-05-12T16:04:32.007Z</time>
      </trkpt>
      <trkpt lat="46.71069" lon="5.65087">
        <ele>486.33961251498</ele>
        <time>2021-05-12T16:04:29.680Z</time>
      </trkpt>
      <trkpt lat="46.71055" lon="5.65108">
        <ele>486.94547667758</ele>
        <time>2021-05-12T16:04:27.364Z</time>
      </trkpt>
      <trkpt lat="46.71043" lon="5.65136">
        <ele>487.64492568499</ele>
        <time>2021-05-12T16:04:25.051Z</time>
      </trkpt>
      <trkpt lat="46.71031" lon="5.65182">
        <ele>488.35129764715</ele>
        <time>2021-05-12T16:04:22.742Z</time>
      </trkpt>
      <trkpt lat="46.71031" lon="5.65182">
        <ele>488.9832669551</ele>
        <time>2021-05-12T16:04:20.438Z</time>
      </trkpt>
      <trkpt lat="46.70992" lon="5.65409">
        <ele>489.51519519239</ele>
        <time>2021-05-12T16:04:18.134Z</time>
      </trkpt>
      <trkpt lat="46.70983" lon="5.65473">
        <ele>489.91746747883</ele>
        <time>2021-05-12T16:04:15.856Z</time>
      </trkpt>
      <trkpt lat="46.7098" lon="5.65525">
        <ele>490.68436658042</ele>
        <time>2021-05-12T16:04:13.585Z</time>
      </trkpt>
      <trkpt lat="46.7098" lon="5.65525">
        <ele>491.47602311948</ele>
        <time>2021-05-12T16:04:11.320Z</time>
      </trkpt>
      <trkpt lat="46.70977" lon="5.65607">
        <ele>492.09855499665</ele>
        <time>2021-05-12T16:04:09.055Z</time>
      </trkpt>
      <trkpt lat="46.70973" lon="5.65643">
        <ele>492.8689620916</ele>
        <time>2021-05-12T16:04:06.799Z</time>
      </trkpt>
      <trkpt lat="46.70965" lon="5.6568">
        <ele>493.92612313522</ele>
        <time>2021-05-12T16:04:04.547Z</time>
      </trkpt>
      <trkpt lat="46.70951" lon="5.65733">
        <ele>495.08831800468</ele>
        <time>2021-05-12T16:04:02.299Z</time>
      </trkpt>
      <trkpt lat="46.70938" lon="5.65763">
        <ele>496.1039374818</ele>
        <time>2021-05-12T16:04:00.057Z</time>
      </trkpt>
      <trkpt lat="46.70917" lon="5.65806">
        <ele>497.05605157789</ele>
        <time>2021-05-12T16:03:57.819Z</time>
      </trkpt>
      <trkpt lat="46.70896" lon="5.65837">
        <ele>497.94945282598</ele>
        <time>2021-05-12T16:03:55.587Z</time>
      </trkpt>
      <trkpt lat="46.70896" lon="5.65837">
        <ele>498.89122323694</ele>
        <time>2021-05-12T16:03:53.360Z</time>
      </trkpt>
      <trkpt lat="46.70863" lon="5.65883">
        <ele>499.72097172534</ele>
        <time>2021-05-12T16:03:51.133Z</time>
      </trkpt>
      <trkpt lat="46.70851" lon="5.65896">
        <ele>500.76777851175</ele>
        <time>2021-05-12T16:03:48.913Z</time>
      </trkpt>
      <trkpt lat="46.70825" lon="5.65913">
        <ele>501.69792331763</ele>
        <time>2021-05-12T16:03:46.696Z</time>
      </trkpt>
      <trkpt lat="46.70717" lon="5.65973">
        <ele>502.94784486866</ele>
        <time>2021-05-12T16:03:44.483Z</time>
      </trkpt>
      <trkpt lat="46.70693" lon="5.65986">
        <ele>504.88056825144</ele>
        <time>2021-05-12T16:03:42.289Z</time>
      </trkpt>
      <trkpt lat="46.70693" lon="5.65986">
        <ele>504.56401988489</ele>
        <time>2021-05-12T16:03:40.099Z</time>
      </trkpt>
      <trkpt lat="46.70693" lon="5.65986">
        <ele>504.88056825144</ele>
        <time>2021-05-12T16:03:37.909Z</time>
      </trkpt>
      <trkpt lat="46.70666" lon="5.66002">
        <ele>505.00777883808</ele>
        <time>2021-05-12T16:03:35.719Z</time>
      </trkpt>
      <trkpt lat="46.70653" lon="5.66006">
        <ele>505.03776217321</ele>
        <time>2021-05-12T16:03:33.534Z</time>
      </trkpt>
      <trkpt lat="46.70643" lon="5.66006">
        <ele>504.88524879611</ele>
        <time>2021-05-12T16:03:31.351Z</time>
      </trkpt>
      <trkpt lat="46.70635" lon="5.66004">
        <ele>504.56570700272</ele>
        <time>2021-05-12T16:03:29.169Z</time>
      </trkpt>
      <trkpt lat="46.70616" lon="5.65994">
        <ele>504.06640281831</ele>
        <time>2021-05-12T16:03:26.989Z</time>
      </trkpt>
      <trkpt lat="46.7063" lon="5.6595">
        <ele>503.32772464623</ele>
        <time>2021-05-12T16:03:24.812Z</time>
      </trkpt>
      <trkpt lat="46.70641" lon="5.65929">
        <ele>502.36547581941</ele>
        <time>2021-05-12T16:03:22.640Z</time>
      </trkpt>
      <trkpt lat="46.70649" lon="5.65916">
        <ele>501.27589651176</ele>
        <time>2021-05-12T16:03:20.471Z</time>
      </trkpt>
      <trkpt lat="46.70661" lon="5.65899">
        <ele>500.0300882658</ele>
        <time>2021-05-12T16:03:18.304Z</time>
      </trkpt>
      <trkpt lat="46.7067" lon="5.65893">
        <ele>498.56501591107</ele>
        <time>2021-05-12T16:03:16.140Z</time>
      </trkpt>
      <trkpt lat="46.70682" lon="5.65888">
        <ele>496.87515102711</ele>
        <time>2021-05-12T16:03:13.977Z</time>
      </trkpt>
      <trkpt lat="46.70693" lon="5.65888">
        <ele>494.99578576644</ele>
        <time>2021-05-12T16:03:11.816Z</time>
      </trkpt>
      <trkpt lat="46.70759" lon="5.65908">
        <ele>492.64287175726</ele>
        <time>2021-05-12T16:03:09.657Z</time>
      </trkpt>
      <trkpt lat="46.70771" lon="5.65905">
        <ele>490.32867260292</ele>
        <time>2021-05-12T16:03:07.509Z</time>
      </trkpt>
      <trkpt lat="46.70784" lon="5.659">
        <ele>487.80536715689</ele>
        <time>2021-05-12T16:03:05.363Z</time>
      </trkpt>
      <trkpt lat="46.70812" lon="5.65882">
        <ele>484.97039451155</ele>
        <time>2021-05-12T16:03:03.219Z</time>
      </trkpt>
      <trkpt lat="46.70825" lon="5.65871">
        <ele>482.1884985091</ele>
        <time>2021-05-12T16:03:01.080Z</time>
      </trkpt>
      <trkpt lat="46.70852" lon="5.6584">
        <ele>478.96939196637</ele>
        <time>2021-05-12T16:02:58.943Z</time>
      </trkpt>
      <trkpt lat="46.70866" lon="5.65821">
        <ele>475.89204911743</ele>
        <time>2021-05-12T16:02:56.812Z</time>
      </trkpt>
      <trkpt lat="46.7088" lon="5.65793">
        <ele>473.00773696383</ele>
        <time>2021-05-12T16:02:54.684Z</time>
      </trkpt>
      <trkpt lat="46.70907" lon="5.65726">
        <ele>469.77857951452</ele>
        <time>2021-05-12T16:02:52.560Z</time>
      </trkpt>
      <trkpt lat="46.70914" lon="5.65705">
        <ele>466.71164739596</ele>
        <time>2021-05-12T16:02:50.444Z</time>
      </trkpt>
      <trkpt lat="46.70919" lon="5.65674">
        <ele>463.46254049194</ele>
        <time>2021-05-12T16:02:48.331Z</time>
      </trkpt>
      <trkpt lat="46.70924" lon="5.65634">
        <ele>460.24249946969</ele>
        <time>2021-05-12T16:02:46.221Z</time>
      </trkpt>
      <trkpt lat="46.70927" lon="5.6561">
        <ele>457.14705038244</ele>
        <time>2021-05-12T16:02:44.116Z</time>
      </trkpt>
      <trkpt lat="46.70924" lon="5.65584">
        <ele>454.00814207754</ele>
        <time>2021-05-12T16:02:42.013Z</time>
      </trkpt>
      <trkpt lat="46.70917" lon="5.65536">
        <ele>450.62662807926</ele>
        <time>2021-05-12T16:02:39.913Z</time>
      </trkpt>
      <trkpt lat="46.70895" lon="5.65441">
        <ele>446.9333685941</ele>
        <time>2021-05-12T16:02:37.819Z</time>
      </trkpt>
      <trkpt lat="46.70894" lon="5.65393">
        <ele>444.01751609677</ele>
        <time>2021-05-12T16:02:35.736Z</time>
      </trkpt>
      <trkpt lat="46.70891" lon="5.65357">
        <ele>441.15448045429</ele>
        <time>2021-05-12T16:02:33.658Z</time>
      </trkpt>
      <trkpt lat="46.70886" lon="5.65321">
        <ele>438.32249839004</ele>
        <time>2021-05-12T16:02:31.584Z</time>
      </trkpt>
      <trkpt lat="46.70874" lon="5.65281">
        <ele>435.07222868139</ele>
        <time>2021-05-12T16:02:29.514Z</time>
      </trkpt>
      <trkpt lat="46.70867" lon="5.65235">
        <ele>432.20761941207</ele>
        <time>2021-05-12T16:02:27.449Z</time>
      </trkpt>
      <trkpt lat="46.70867" lon="5.65217">
        <ele>429.79957979018</ele>
        <time>2021-05-12T16:02:25.389Z</time>
      </trkpt>
      <trkpt lat="46.70875" lon="5.65164">
        <ele>427.18880237815</ele>
        <time>2021-05-12T16:02:23.331Z</time>
      </trkpt>
      <trkpt lat="46.70874" lon="5.6514">
        <ele>424.52946453622</ele>
        <time>2021-05-12T16:02:21.279Z</time>
      </trkpt>
      <trkpt lat="46.70874" lon="5.6514">
        <ele>422.50216211012</ele>
        <time>2021-05-12T16:02:19.229Z</time>
      </trkpt>
      <trkpt lat="46.70874" lon="5.65137">
        <ele>420.57764435501</ele>
        <time>2021-05-12T16:02:17.179Z</time>
      </trkpt>
      <trkpt lat="46.70876" lon="5.65124">
        <ele>418.71878730109</ele>
        <time>2021-05-12T16:02:15.130Z</time>
      </trkpt>
      <trkpt lat="46.7088" lon="5.65114">
        <ele>417.07617482778</ele>
        <time>2021-05-12T16:02:13.082Z</time>
      </trkpt>
      <trkpt lat="46.70886" lon="5.65105">
        <ele>415.65970424769</ele>
        <time>2021-05-12T16:02:11.036Z</time>
      </trkpt>
      <trkpt lat="46.70901" lon="5.65088">
        <ele>414.61507057131</ele>
        <time>2021-05-12T16:02:08.991Z</time>
      </trkpt>
      <trkpt lat="46.70947" lon="5.65056">
        <ele>413.81035124436</ele>
        <time>2021-05-12T16:02:06.949Z</time>
      </trkpt>
      <trkpt lat="46.71009" lon="5.6499">
        <ele>412.29788178639</ele>
        <time>2021-05-12T16:02:04.915Z</time>
      </trkpt>
      <trkpt lat="46.7102" lon="5.64974">
        <ele>411.07942347605</ele>
        <time>2021-05-12T16:02:02.893Z</time>
      </trkpt>
      <trkpt lat="46.71056" lon="5.6491">
        <ele>409.24987303722</ele>
        <time>2021-05-12T16:02:00.874Z</time>
      </trkpt>
      <trkpt lat="46.711" lon="5.64841">
        <ele>407.84483931025</ele>
        <time>2021-05-12T16:01:58.864Z</time>
      </trkpt>
      <trkpt lat="46.711" lon="5.64841">
        <ele>406.76671560276</ele>
        <time>2021-05-12T16:01:56.864Z</time>
      </trkpt>
      <trkpt lat="46.71106" lon="5.64832">
        <ele>405.67951304372</ele>
        <time>2021-05-12T16:01:54.864Z</time>
      </trkpt>
      <trkpt lat="46.71106" lon="5.64832">
        <ele>404.57999379628</ele>
        <time>2021-05-12T16:01:52.866Z</time>
      </trkpt>
      <trkpt lat="46.71132" lon="5.64785">
        <ele>403.33840313506</ele>
        <time>2021-05-12T16:01:50.868Z</time>
      </trkpt>
      <trkpt lat="46.7117" lon="5.64703">
        <ele>401.75841282636</ele>
        <time>2021-05-12T16:01:48.876Z</time>
      </trkpt>
      <trkpt lat="46.7121" lon="5.64598">
        <ele>400.89123016778</ele>
        <time>2021-05-12T16:01:46.895Z</time>
      </trkpt>
      <trkpt lat="46.71218" lon="5.6457">
        <ele>400.51890027754</ele>
        <time>2021-05-12T16:01:44.928Z</time>
      </trkpt>
      <trkpt lat="46.71222" lon="5.64554">
        <ele>399.7391780137</ele>
        <time>2021-05-12T16:01:42.964Z</time>
      </trkpt>
      <trkpt lat="46.7122" lon="5.64548">
        <ele>397.8731246067</ele>
        <time>2021-05-12T16:01:41.002Z</time>
      </trkpt>
      <trkpt lat="46.71217" lon="5.64545">
        <ele>395.62599801222</ele>
        <time>2021-05-12T16:01:39.040Z</time>
      </trkpt>
      <trkpt lat="46.71214" lon="5.64545">
        <ele>393.23579784504</ele>
        <time>2021-05-12T16:01:37.079Z</time>
      </trkpt>
      <trkpt lat="46.71211" lon="5.64547">
        <ele>390.65922025372</ele>
        <time>2021-05-12T16:01:35.118Z</time>
      </trkpt>
      <trkpt lat="46.71208" lon="5.64552">
        <ele>387.92681177418</ele>
        <time>2021-05-12T16:01:33.158Z</time>
      </trkpt>
      <trkpt lat="46.71198" lon="5.64584">
        <ele>384.66343697837</ele>
        <time>2021-05-12T16:01:31.199Z</time>
      </trkpt>
      <trkpt lat="46.71187" lon="5.6461">
        <ele>381.61511208847</ele>
        <time>2021-05-12T16:01:29.244Z</time>
      </trkpt>
      <trkpt lat="46.71179" lon="5.64627">
        <ele>378.58027761116</ele>
        <time>2021-05-12T16:01:27.292Z</time>
      </trkpt>
      <trkpt lat="46.71151" lon="5.6467">
        <ele>375.5385069747</ele>
        <time>2021-05-12T16:01:25.342Z</time>
      </trkpt>
      <trkpt lat="46.71134" lon="5.64693">
        <ele>372.31181237343</ele>
        <time>2021-05-12T16:01:23.399Z</time>
      </trkpt>
      <trkpt lat="46.71119" lon="5.64707">
        <ele>369.12010443086</ele>
        <time>2021-05-12T16:01:21.460Z</time>
      </trkpt>
      <trkpt lat="46.71084" lon="5.64749">
        <ele>365.85604898826</ele>
        <time>2021-05-12T16:01:19.523Z</time>
      </trkpt>
      <trkpt lat="46.71033" lon="5.64802">
        <ele>362.93469265496</ele>
        <time>2021-05-12T16:01:17.594Z</time>
      </trkpt>
      <trkpt lat="46.71002" lon="5.6482">
        <ele>359.94669157191</ele>
        <time>2021-05-12T16:01:15.675Z</time>
      </trkpt>
      <trkpt lat="46.70974" lon="5.64821">
        <ele>356.58185842081</ele>
        <time>2021-05-12T16:01:13.761Z</time>
      </trkpt>
      <trkpt lat="46.70951" lon="5.64825">
        <ele>353.35060622639</ele>
        <time>2021-05-12T16:01:11.851Z</time>
      </trkpt>
      <trkpt lat="46.70942" lon="5.64829">
        <ele>350.4171988081</ele>
        <time>2021-05-12T16:01:09.945Z</time>
      </trkpt>
      <trkpt lat="46.70877" lon="5.64878">
        <ele>347.41219971084</ele>
        <time>2021-05-12T16:01:08.041Z</time>
      </trkpt>
      <trkpt lat="46.70872" lon="5.64883">
        <ele>344.70133308184</ele>
        <time>2021-05-12T16:01:06.148Z</time>
      </trkpt>
      <trkpt lat="46.70854" lon="5.64927">
        <ele>342.31260115949</ele>
        <time>2021-05-12T16:01:04.256Z</time>
      </trkpt>
      <trkpt lat="46.70847" lon="5.64933">
        <ele>339.67606983075</ele>
        <time>2021-05-12T16:01:02.370Z</time>
      </trkpt>
      <trkpt lat="46.70842" lon="5.64935">
        <ele>337.08531885419</ele>
        <time>2021-05-12T16:01:00.485Z</time>
      </trkpt>
      <trkpt lat="46.70835" lon="5.64935">
        <ele>334.54263019483</ele>
        <time>2021-05-12T16:00:58.601Z</time>
      </trkpt>
      <trkpt lat="46.70831" lon="5.64931">
        <ele>332.07781591742</ele>
        <time>2021-05-12T16:00:56.718Z</time>
      </trkpt>
      <trkpt lat="46.7083" lon="5.64926">
        <ele>329.74648097755</ele>
        <time>2021-05-12T16:00:54.836Z</time>
      </trkpt>
      <trkpt lat="46.70829" lon="5.64918">
        <ele>327.49300744022</ele>
        <time>2021-05-12T16:00:52.955Z</time>
      </trkpt>
      <trkpt lat="46.70833" lon="5.64903">
        <ele>325.33635387363</ele>
        <time>2021-05-12T16:00:51.075Z</time>
      </trkpt>
      <trkpt lat="46.70841" lon="5.64879">
        <ele>323.22155868139</ele>
        <time>2021-05-12T16:00:49.196Z</time>
      </trkpt>
      <trkpt lat="46.70841" lon="5.64879">
        <ele>321.39342679825</ele>
        <time>2021-05-12T16:00:47.320Z</time>
      </trkpt>
      <trkpt lat="46.70852" lon="5.64843">
        <ele>319.5010652911</ele>
        <time>2021-05-12T16:00:45.444Z</time>
      </trkpt>
      <trkpt lat="46.70876" lon="5.64793">
        <ele>317.63623903027</ele>
        <time>2021-05-12T16:00:43.573Z</time>
      </trkpt>
      <trkpt lat="46.70885" lon="5.64775">
        <ele>316.1026526067</ele>
        <time>2021-05-12T16:00:41.708Z</time>
      </trkpt>
      <trkpt lat="46.7093" lon="5.64706">
        <ele>314.45698225377</ele>
        <time>2021-05-12T16:00:39.846Z</time>
      </trkpt>
      <trkpt lat="46.70932" lon="5.64698">
        <ele>313.20627361316</ele>
        <time>2021-05-12T16:00:37.994Z</time>
      </trkpt>
      <trkpt lat="46.70927" lon="5.64697">
        <ele>312.09379038172</ele>
        <time>2021-05-12T16:00:36.143Z</time>
      </trkpt>
      <trkpt lat="46.70916" lon="5.64705">
        <ele>311.1491838064</ele>
        <time>2021-05-12T16:00:34.293Z</time>
      </trkpt>
      <trkpt lat="46.70883" lon="5.64722">
        <ele>310.2074548634</ele>
        <time>2021-05-12T16:00:32.445Z</time>
      </trkpt>
      <trkpt lat="46.70843" lon="5.6474">
        <ele>309.55241850984</ele>
        <time>2021-05-12T16:00:30.603Z</time>
      </trkpt>
      <trkpt lat="46.70807" lon="5.6476">
        <ele>308.95121369365</ele>
        <time>2021-05-12T16:00:28.767Z</time>
      </trkpt>
      <trkpt lat="46.70802" lon="5.64762">
        <ele>308.45270382211</ele>
        <time>2021-05-12T16:00:26.937Z</time>
      </trkpt>
      <trkpt lat="46.70796" lon="5.6476">
        <ele>308.01649175487</ele>
        <time>2021-05-12T16:00:25.108Z</time>
      </trkpt>
      <trkpt lat="46.70789" lon="5.64754">
        <ele>307.6468879671</ele>
        <time>2021-05-12T16:00:23.280Z</time>
      </trkpt>
      <trkpt lat="46.70785" lon="5.6475">
        <ele>307.39230500246</ele>
        <time>2021-05-12T16:00:21.453Z</time>
      </trkpt>
      <trkpt lat="46.70782" lon="5.64745">
        <ele>307.20798474168</ele>
        <time>2021-05-12T16:00:19.627Z</time>
      </trkpt>
      <trkpt lat="46.70781" lon="5.64733">
        <ele>307.07320692319</ele>
        <time>2021-05-12T16:00:17.802Z</time>
      </trkpt>
      <trkpt lat="46.70783" lon="5.64699">
        <ele>306.83195267365</ele>
        <time>2021-05-12T16:00:15.978Z</time>
      </trkpt>
      <trkpt lat="46.7078" lon="5.64687">
        <ele>306.82009323168</ele>
        <time>2021-05-12T16:00:14.158Z</time>
      </trkpt>
      <trkpt lat="46.70768" lon="5.64625">
        <ele>307.29178009336</ele>
        <time>2021-05-12T16:00:12.339Z</time>
      </trkpt>
      <trkpt lat="46.7079" lon="5.64616">
        <ele>307.41502019688</ele>
        <time>2021-05-12T16:00:10.527Z</time>
      </trkpt>
      <trkpt lat="46.70827" lon="5.64605">
        <ele>307.36219726205</ele>
        <time>2021-05-12T16:00:08.719Z</time>
      </trkpt>
      <trkpt lat="46.70852" lon="5.64588">
        <ele>307.26771533116</ele>
        <time>2021-05-12T16:00:06.917Z</time>
      </trkpt>
      <trkpt lat="46.70874" lon="5.64565">
        <ele>307.41589301964</ele>
        <time>2021-05-12T16:00:05.120Z</time>
      </trkpt>
      <trkpt lat="46.70895" lon="5.64534">
        <ele>307.76744800221</ele>
        <time>2021-05-12T16:00:03.327Z</time>
      </trkpt>
      <trkpt lat="46.70906" lon="5.64522">
        <ele>307.83951345871</ele>
        <time>2021-05-12T16:00:01.539Z</time>
      </trkpt>
      <trkpt lat="46.70948" lon="5.64499">
        <ele>307.5972115055</ele>
        <time>2021-05-12T15:59:59.753Z</time>
      </trkpt>
      <trkpt lat="46.70957" lon="5.64491">
        <ele>307.47116840574</ele>
        <time>2021-05-12T15:59:57.974Z</time>
      </trkpt>
      <trkpt lat="46.70992" lon="5.6446">
        <ele>307.49784936</ele>
        <time>2021-05-12T15:59:56.197Z</time>
      </trkpt>
      <trkpt lat="46.71021" lon="5.64434">
        <ele>306.88688593738</ele>
        <time>2021-05-12T15:59:54.426Z</time>
      </trkpt>
      <trkpt lat="46.71032" lon="5.64422">
        <ele>306.28644827776</ele>
        <time>2021-05-12T15:59:52.661Z</time>
      </trkpt>
      <trkpt lat="46.71099" lon="5.64307">
        <ele>305.65398255889</ele>
        <time>2021-05-12T15:59:50.898Z</time>
      </trkpt>
      <trkpt lat="46.71109" lon="5.6427">
        <ele>305.21829990731</ele>
        <time>2021-05-12T15:59:49.152Z</time>
      </trkpt>
      <trkpt lat="46.71123" lon="5.64186">
        <ele>304.65305133196</ele>
        <time>2021-05-12T15:59:47.410Z</time>
      </trkpt>
      <trkpt lat="46.71123" lon="5.64186">
        <ele>304.02846017054</ele>
        <time>2021-05-12T15:59:45.678Z</time>
      </trkpt>
      <trkpt lat="46.71135" lon="5.64109">
        <ele>303.13957896379</ele>
        <time>2021-05-12T15:59:43.946Z</time>
      </trkpt>
      <trkpt lat="46.7113" lon="5.6405">
        <ele>302.35207224336</ele>
        <time>2021-05-12T15:59:42.222Z</time>
      </trkpt>
      <trkpt lat="46.7113" lon="5.6405">
        <ele>301.60777982941</ele>
        <time>2021-05-12T15:59:40.505Z</time>
      </trkpt>
      <trkpt lat="46.71126" lon="5.6398">
        <ele>300.88326613059</ele>
        <time>2021-05-12T15:59:38.788Z</time>
      </trkpt>
      <trkpt lat="46.71126" lon="5.63953">
        <ele>300.18698676621</ele>
        <time>2021-05-12T15:59:37.079Z</time>
      </trkpt>
      <trkpt lat="46.71132" lon="5.63915">
        <ele>299.53217865577</ele>
        <time>2021-05-12T15:59:35.373Z</time>
      </trkpt>
      <trkpt lat="46.71137" lon="5.63897">
        <ele>298.76499007916</ele>
        <time>2021-05-12T15:59:33.671Z</time>
      </trkpt>
      <trkpt lat="46.71169" lon="5.63813">
        <ele>297.50106900664</ele>
        <time>2021-05-12T15:59:31.971Z</time>
      </trkpt>
      <trkpt lat="46.71197" lon="5.63757">
        <ele>296.6345419809</ele>
        <time>2021-05-12T15:59:30.281Z</time>
      </trkpt>
      <trkpt lat="46.71201" lon="5.63746">
        <ele>295.918675638</ele>
        <time>2021-05-12T15:59:28.599Z</time>
      </trkpt>
      <trkpt lat="46.71211" lon="5.6368">
        <ele>295.2556736246</ele>
        <time>2021-05-12T15:59:26.919Z</time>
      </trkpt>
      <trkpt lat="46.71212" lon="5.63673">
        <ele>294.67598523551</ele>
        <time>2021-05-12T15:59:25.246Z</time>
      </trkpt>
      <trkpt lat="46.71212" lon="5.63673">
        <ele>294.17745030483</ele>
        <time>2021-05-12T15:59:23.574Z</time>
      </trkpt>
      <trkpt lat="46.71231" lon="5.63576">
        <ele>293.62109667401</ele>
        <time>2021-05-12T15:59:21.902Z</time>
      </trkpt>
      <trkpt lat="46.71245" lon="5.63477">
        <ele>293.24600233035</ele>
        <time>2021-05-12T15:59:20.241Z</time>
      </trkpt>
      <trkpt lat="46.71243" lon="5.63454">
        <ele>293.07670799635</ele>
        <time>2021-05-12T15:59:18.591Z</time>
      </trkpt>
      <trkpt lat="46.71234" lon="5.6343">
        <ele>293.04715721236</ele>
        <time>2021-05-12T15:59:16.944Z</time>
      </trkpt>
      <trkpt lat="46.7122" lon="5.63402">
        <ele>293.19440714732</ele>
        <time>2021-05-12T15:59:15.299Z</time>
      </trkpt>
      <trkpt lat="46.71207" lon="5.63359">
        <ele>293.44710836751</ele>
        <time>2021-05-12T15:59:13.658Z</time>
      </trkpt>
      <trkpt lat="46.71204" lon="5.63327">
        <ele>293.62781350888</ele>
        <time>2021-05-12T15:59:12.022Z</time>
      </trkpt>
      <trkpt lat="46.71208" lon="5.633">
        <ele>293.91694597568</ele>
        <time>2021-05-12T15:59:10.390Z</time>
      </trkpt>
      <trkpt lat="46.71208" lon="5.63261">
        <ele>294.38997188049</ele>
        <time>2021-05-12T15:59:08.761Z</time>
      </trkpt>
      <trkpt lat="46.71205" lon="5.63239">
        <ele>295.1219933388</ele>
        <time>2021-05-12T15:59:07.136Z</time>
      </trkpt>
      <trkpt lat="46.712" lon="5.63222">
        <ele>295.98451055962</ele>
        <time>2021-05-12T15:59:05.514Z</time>
      </trkpt>
      <trkpt lat="46.712" lon="5.63222">
        <ele>296.89543733614</ele>
        <time>2021-05-12T15:59:03.894Z</time>
      </trkpt>
      <trkpt lat="46.71193" lon="5.6321">
        <ele>297.98351932294</ele>
        <time>2021-05-12T15:59:02.274Z</time>
      </trkpt>
      <trkpt lat="46.71152" lon="5.63173">
        <ele>299.34279647014</ele>
        <time>2021-05-12T15:59:00.656Z</time>
      </trkpt>
      <trkpt lat="46.71128" lon="5.63153">
        <ele>300.73466154439</ele>
        <time>2021-05-12T15:58:59.045Z</time>
      </trkpt>
      <trkpt lat="46.71104" lon="5.63131">
        <ele>302.14239323664</ele>
        <time>2021-05-12T15:58:57.439Z</time>
      </trkpt>
      <trkpt lat="46.71078" lon="5.63116">
        <ele>303.55869611651</ele>
        <time>2021-05-12T15:58:55.837Z</time>
      </trkpt>
      <trkpt lat="46.7102" lon="5.6309">
        <ele>305.56460734774</ele>
        <time>2021-05-12T15:58:54.240Z</time>
      </trkpt>
      <trkpt lat="46.70987" lon="5.63068">
        <ele>307.41965222365</ele>
        <time>2021-05-12T15:58:52.653Z</time>
      </trkpt>
      <trkpt lat="46.70952" lon="5.63061">
        <ele>308.88285744132</ele>
        <time>2021-05-12T15:58:51.071Z</time>
      </trkpt>
      <trkpt lat="46.70935" lon="5.63056">
        <ele>310.45525529553</ele>
        <time>2021-05-12T15:58:49.495Z</time>
      </trkpt>
      <trkpt lat="46.7092" lon="5.63046">
        <ele>312.13068989647</ele>
        <time>2021-05-12T15:58:47.922Z</time>
      </trkpt>
      <trkpt lat="46.70911" lon="5.63039">
        <ele>313.83568214621</ele>
        <time>2021-05-12T15:58:46.351Z</time>
      </trkpt>
      <trkpt lat="46.70905" lon="5.6303">
        <ele>315.58927917402</ele>
        <time>2021-05-12T15:58:44.782Z</time>
      </trkpt>
      <trkpt lat="46.70886" lon="5.63">
        <ele>317.39175194849</ele>
        <time>2021-05-12T15:58:43.214Z</time>
      </trkpt>
      <trkpt lat="46.70863" lon="5.62957">
        <ele>319.2789604898</ele>
        <time>2021-05-12T15:58:41.651Z</time>
      </trkpt>
      <trkpt lat="46.70857" lon="5.62951">
        <ele>321.04128327607</ele>
        <time>2021-05-12T15:58:40.094Z</time>
      </trkpt>
      <trkpt lat="46.70847" lon="5.62944">
        <ele>322.82501148911</ele>
        <time>2021-05-12T15:58:38.538Z</time>
      </trkpt>
      <trkpt lat="46.70782" lon="5.62926">
        <ele>324.53184833371</ele>
        <time>2021-05-12T15:58:36.984Z</time>
      </trkpt>
      <trkpt lat="46.70773" lon="5.6292">
        <ele>326.35289379038</ele>
        <time>2021-05-12T15:58:35.440Z</time>
      </trkpt>
      <trkpt lat="46.70759" lon="5.62901">
        <ele>328.38357827254</ele>
        <time>2021-05-12T15:58:33.898Z</time>
      </trkpt>
      <trkpt lat="46.70753" lon="5.62897">
        <ele>330.21199843259</ele>
        <time>2021-05-12T15:58:32.359Z</time>
      </trkpt>
      <trkpt lat="46.70741" lon="5.62898">
        <ele>332.02082905011</ele>
        <time>2021-05-12T15:58:30.821Z</time>
      </trkpt>
      <trkpt lat="46.70715" lon="5.62911">
        <ele>333.68369822508</ele>
        <time>2021-05-12T15:58:29.285Z</time>
      </trkpt>
      <trkpt lat="46.70701" lon="5.62915">
        <ele>335.47441507546</ele>
        <time>2021-05-12T15:58:27.753Z</time>
      </trkpt>
      <trkpt lat="46.7067" lon="5.62918">
        <ele>337.16085518273</ele>
        <time>2021-05-12T15:58:26.224Z</time>
      </trkpt>
      <trkpt lat="46.70636" lon="5.62917">
        <ele>338.98996037665</ele>
        <time>2021-05-12T15:58:24.700Z</time>
      </trkpt>
      <trkpt lat="46.70636" lon="5.62917">
        <ele>340.75061530754</ele>
        <time>2021-05-12T15:58:23.181Z</time>
      </trkpt>
      <trkpt lat="46.70612" lon="5.6292">
        <ele>342.60942529487</ele>
        <time>2021-05-12T15:58:21.662Z</time>
      </trkpt>
      <trkpt lat="46.70596" lon="5.62917">
        <ele>344.48508555368</ele>
        <time>2021-05-12T15:58:20.147Z</time>
      </trkpt>
      <trkpt lat="46.70579" lon="5.62913">
        <ele>346.30175239438</ele>
        <time>2021-05-12T15:58:18.635Z</time>
      </trkpt>
      <trkpt lat="46.7057" lon="5.62908">
        <ele>348.13176869069</ele>
        <time>2021-05-12T15:58:17.125Z</time>
      </trkpt>
      <trkpt lat="46.70561" lon="5.62896">
        <ele>350.02546126925</ele>
        <time>2021-05-12T15:58:15.617Z</time>
      </trkpt>
      <trkpt lat="46.70541" lon="5.62859">
        <ele>352.07469837916</ele>
        <time>2021-05-12T15:58:14.111Z</time>
      </trkpt>
      <trkpt lat="46.70521" lon="5.6283">
        <ele>354.12166993729</ele>
        <time>2021-05-12T15:58:12.610Z</time>
      </trkpt>
      <trkpt lat="46.70492" lon="5.62805">
        <ele>356.06084605432</ele>
        <time>2021-05-12T15:58:11.113Z</time>
      </trkpt>
      <trkpt lat="46.70459" lon="5.62782">
        <ele>358.1676262269</ele>
        <time>2021-05-12T15:58:09.622Z</time>
      </trkpt>
      <trkpt lat="46.70427" lon="5.62756">
        <ele>360.58400104905</ele>
        <time>2021-05-12T15:58:08.137Z</time>
      </trkpt>
      <trkpt lat="46.70417" lon="5.62751">
        <ele>362.52283037789</ele>
        <time>2021-05-12T15:58:06.658Z</time>
      </trkpt>
      <trkpt lat="46.70406" lon="5.6275">
        <ele>364.35681827325</ele>
        <time>2021-05-12T15:58:05.180Z</time>
      </trkpt>
      <trkpt lat="46.70399" lon="5.62752">
        <ele>366.04308577864</ele>
        <time>2021-05-12T15:58:03.704Z</time>
      </trkpt>
      <trkpt lat="46.70391" lon="5.6276">
        <ele>367.62517520386</ele>
        <time>2021-05-12T15:58:02.229Z</time>
      </trkpt>
      <trkpt lat="46.70386" lon="5.62782">
        <ele>368.93662610246</ele>
        <time>2021-05-12T15:58:00.756Z</time>
      </trkpt>
      <trkpt lat="46.70378" lon="5.62798">
        <ele>370.42607177357</ele>
        <time>2021-05-12T15:57:59.285Z</time>
      </trkpt>
      <trkpt lat="46.70364" lon="5.6282">
        <ele>371.87959178735</ele>
        <time>2021-05-12T15:57:57.816Z</time>
      </trkpt>
      <trkpt lat="46.70355" lon="5.62833">
        <ele>373.3748740633</ele>
        <time>2021-05-12T15:57:56.351Z</time>
      </trkpt>
      <trkpt lat="46.70341" lon="5.62843">
        <ele>374.91992136193</ele>
        <time>2021-05-12T15:57:54.888Z</time>
      </trkpt>
      <trkpt lat="46.70328" lon="5.62849">
        <ele>376.46693573439</ele>
        <time>2021-05-12T15:57:53.427Z</time>
      </trkpt>
      <trkpt lat="46.70314" lon="5.62851">
        <ele>378.06077977204</ele>
        <time>2021-05-12T15:57:51.969Z</time>
      </trkpt>
      <trkpt lat="46.70277" lon="5.62849">
        <ele>379.64495592058</ele>
        <time>2021-05-12T15:57:50.513Z</time>
      </trkpt>
      <trkpt lat="46.70268" lon="5.62846">
        <ele>381.15963395561</ele>
        <time>2021-05-12T15:57:49.063Z</time>
      </trkpt>
      <trkpt lat="46.70256" lon="5.62836">
        <ele>382.75647522943</ele>
        <time>2021-05-12T15:57:47.614Z</time>
      </trkpt>
      <trkpt lat="46.70229" lon="5.62808">
        <ele>384.51782994058</ele>
        <time>2021-05-12T15:57:46.167Z</time>
      </trkpt>
      <trkpt lat="46.70214" lon="5.628">
        <ele>386.13288346115</ele>
        <time>2021-05-12T15:57:44.726Z</time>
      </trkpt>
      <trkpt lat="46.70206" lon="5.62798">
        <ele>387.66954896856</ele>
        <time>2021-05-12T15:57:43.287Z</time>
      </trkpt>
      <trkpt lat="46.70148" lon="5.62794">
        <ele>389.26692104364</ele>
        <time>2021-05-12T15:57:41.850Z</time>
      </trkpt>
      <trkpt lat="46.70066" lon="5.6278">
        <ele>390.83406857255</ele>
        <time>2021-05-12T15:57:40.422Z</time>
      </trkpt>
      <trkpt lat="46.70035" lon="5.6278">
        <ele>392.45644098174</ele>
        <time>2021-05-12T15:57:39.007Z</time>
      </trkpt>
      <trkpt lat="46.6999" lon="5.62765">
        <ele>394.02051340387</ele>
        <time>2021-05-12T15:57:37.597Z</time>
      </trkpt>
      <trkpt lat="46.69986" lon="5.62765">
        <ele>395.41314645256</ele>
        <time>2021-05-12T15:57:36.194Z</time>
      </trkpt>
      <trkpt lat="46.69963" lon="5.62771">
        <ele>396.7425853616</ele>
        <time>2021-05-12T15:57:34.792Z</time>
      </trkpt>
      <trkpt lat="46.69956" lon="5.6277">
        <ele>398.08702232531</ele>
        <time>2021-05-12T15:57:33.394Z</time>
      </trkpt>
      <trkpt lat="46.69919" lon="5.6276">
        <ele>399.66740941519</ele>
        <time>2021-05-12T15:57:31.997Z</time>
      </trkpt>
      <trkpt lat="46.69914" lon="5.62759">
        <ele>400.99623972874</ele>
        <time>2021-05-12T15:57:30.606Z</time>
      </trkpt>
      <trkpt lat="46.69893" lon="5.62763">
        <ele>402.41959699716</ele>
        <time>2021-05-12T15:57:29.216Z</time>
      </trkpt>
      <trkpt lat="46.69878" lon="5.62771">
        <ele>403.69713122988</ele>
        <time>2021-05-12T15:57:27.829Z</time>
      </trkpt>
      <trkpt lat="46.69862" lon="5.62788">
        <ele>404.83647728399</ele>
        <time>2021-05-12T15:57:26.445Z</time>
      </trkpt>
      <trkpt lat="46.6985" lon="5.62809">
        <ele>405.9386107683</ele>
        <time>2021-05-12T15:57:25.064Z</time>
      </trkpt>
      <trkpt lat="46.69838" lon="5.62829">
        <ele>407.08323892231</ele>
        <time>2021-05-12T15:57:23.686Z</time>
      </trkpt>
      <trkpt lat="46.69829" lon="5.6284">
        <ele>408.17327630376</ele>
        <time>2021-05-12T15:57:22.311Z</time>
      </trkpt>
      <trkpt lat="46.69816" lon="5.62847">
        <ele>409.23386588489</ele>
        <time>2021-05-12T15:57:20.938Z</time>
      </trkpt>
      <trkpt lat="46.69805" lon="5.62847">
        <ele>410.25833322288</ele>
        <time>2021-05-12T15:57:19.567Z</time>
      </trkpt>
      <trkpt lat="46.69789" lon="5.62842">
        <ele>411.28229831251</ele>
        <time>2021-05-12T15:57:18.198Z</time>
      </trkpt>
      <trkpt lat="46.69785" lon="5.62842">
        <ele>412.24253769667</ele>
        <time>2021-05-12T15:57:16.831Z</time>
      </trkpt>
      <trkpt lat="46.69776" lon="5.62848">
        <ele>413.23260903012</ele>
        <time>2021-05-12T15:57:15.465Z</time>
      </trkpt>
      <trkpt lat="46.69761" lon="5.62869">
        <ele>414.31840985029</ele>
        <time>2021-05-12T15:57:14.100Z</time>
      </trkpt>
      <trkpt lat="46.69753" lon="5.62886">
        <ele>415.43471765088</ele>
        <time>2021-05-12T15:57:12.739Z</time>
      </trkpt>
      <trkpt lat="46.69742" lon="5.62918">
        <ele>416.76263392882</ele>
        <time>2021-05-12T15:57:11.380Z</time>
      </trkpt>
      <trkpt lat="46.69737" lon="5.62925">
        <ele>417.72633985689</ele>
        <time>2021-05-12T15:57:10.025Z</time>
      </trkpt>
      <trkpt lat="46.6973" lon="5.62924">
        <ele>418.6424951217</ele>
        <time>2021-05-12T15:57:08.671Z</time>
      </trkpt>
      <trkpt lat="46.69729" lon="5.62921">
        <ele>419.41885766119</ele>
        <time>2021-05-12T15:57:07.318Z</time>
      </trkpt>
      <trkpt lat="46.69736" lon="5.62865">
        <ele>419.72950581392</ele>
        <time>2021-05-12T15:57:05.966Z</time>
      </trkpt>
      <trkpt lat="46.69735" lon="5.62844">
        <ele>420.43979207902</ele>
        <time>2021-05-12T15:57:04.620Z</time>
      </trkpt>
      <trkpt lat="46.69729" lon="5.62814">
        <ele>421.30675656374</ele>
        <time>2021-05-12T15:57:03.276Z</time>
      </trkpt>
      <trkpt lat="46.69729" lon="5.62806">
        <ele>422.12979665203</ele>
        <time>2021-05-12T15:57:01.935Z</time>
      </trkpt>
      <trkpt lat="46.69735" lon="5.6279">
        <ele>422.96714689216</ele>
        <time>2021-05-12T15:57:00.595Z</time>
      </trkpt>
      <trkpt lat="46.69753" lon="5.62752">
        <ele>423.83829911502</ele>
        <time>2021-05-12T15:56:59.257Z</time>
      </trkpt>
      <trkpt lat="46.69757" lon="5.62741">
        <ele>424.77376625741</ele>
        <time>2021-05-12T15:56:57.924Z</time>
      </trkpt>
      <trkpt lat="46.6976" lon="5.62731">
        <ele>425.79206912339</ele>
        <time>2021-05-12T15:56:56.593Z</time>
      </trkpt>
      <trkpt lat="46.69766" lon="5.62692">
        <ele>427.14037164521</ele>
        <time>2021-05-12T15:56:55.263Z</time>
      </trkpt>
      <trkpt lat="46.6977" lon="5.62676">
        <ele>428.44376303215</ele>
        <time>2021-05-12T15:56:53.937Z</time>
      </trkpt>
      <trkpt lat="46.6977" lon="5.62676">
        <ele>429.69730682198</ele>
        <time>2021-05-12T15:56:52.613Z</time>
      </trkpt>
      <trkpt lat="46.69773" lon="5.62661">
        <ele>431.13571650139</ele>
        <time>2021-05-12T15:56:51.289Z</time>
      </trkpt>
      <trkpt lat="46.69797" lon="5.62612">
        <ele>432.71420154132</ele>
        <time>2021-05-12T15:56:49.967Z</time>
      </trkpt>
      <trkpt lat="46.69804" lon="5.62598">
        <ele>434.31329309447</ele>
        <time>2021-05-12T15:56:48.652Z</time>
      </trkpt>
      <trkpt lat="46.69829" lon="5.62572">
        <ele>435.96100757663</ele>
        <time>2021-05-12T15:56:47.339Z</time>
      </trkpt>
      <trkpt lat="46.69855" lon="5.62533">
        <ele>437.81935815961</ele>
        <time>2021-05-12T15:56:46.031Z</time>
      </trkpt>
      <trkpt lat="46.69873" lon="5.62512">
        <ele>439.80797557408</ele>
        <time>2021-05-12T15:56:44.728Z</time>
      </trkpt>
      <trkpt lat="46.69884" lon="5.62502">
        <ele>441.79429689033</ele>
        <time>2021-05-12T15:56:43.429Z</time>
      </trkpt>
      <trkpt lat="46.69908" lon="5.62487">
        <ele>444.00883503919</ele>
        <time>2021-05-12T15:56:42.132Z</time>
      </trkpt>
      <trkpt lat="46.69934" lon="5.62472">
        <ele>446.51187984011</ele>
        <time>2021-05-12T15:56:40.839Z</time>
      </trkpt>
      <trkpt lat="46.69953" lon="5.62455">
        <ele>449.13592118984</ele>
        <time>2021-05-12T15:56:39.551Z</time>
      </trkpt>
      <trkpt lat="46.69964" lon="5.6245">
        <ele>451.64433536897</ele>
        <time>2021-05-12T15:56:38.267Z</time>
      </trkpt>
      <trkpt lat="46.70019" lon="5.62435">
        <ele>454.12635121175</ele>
        <time>2021-05-12T15:56:36.984Z</time>
      </trkpt>
      <trkpt lat="46.70059" lon="5.62412">
        <ele>456.98713004026</ele>
        <time>2021-05-12T15:56:35.710Z</time>
      </trkpt>
      <trkpt lat="46.70108" lon="5.62388">
        <ele>459.80283072052</ele>
        <time>2021-05-12T15:56:34.443Z</time>
      </trkpt>
      <trkpt lat="46.70108" lon="5.62388">
        <ele>462.5930145297</ele>
        <time>2021-05-12T15:56:33.184Z</time>
      </trkpt>
      <trkpt lat="46.70167" lon="5.62369">
        <ele>465.5636660134</ele>
        <time>2021-05-12T15:56:31.925Z</time>
      </trkpt>
      <trkpt lat="46.70184" lon="5.62363">
        <ele>468.5353729983</ele>
        <time>2021-05-12T15:56:30.676Z</time>
      </trkpt>
      <trkpt lat="46.70255" lon="5.62322">
        <ele>471.88011303344</ele>
        <time>2021-05-12T15:56:29.430Z</time>
      </trkpt>
      <trkpt lat="46.7027" lon="5.62314">
        <ele>474.90362987864</ele>
        <time>2021-05-12T15:56:28.196Z</time>
      </trkpt>
      <trkpt lat="46.70336" lon="5.62292">
        <ele>477.94624729033</ele>
        <time>2021-05-12T15:56:26.965Z</time>
      </trkpt>
      <trkpt lat="46.70404" lon="5.62276">
        <ele>481.13956555164</ele>
        <time>2021-05-12T15:56:25.745Z</time>
      </trkpt>
      <trkpt lat="46.70419" lon="5.62268">
        <ele>484.20529824572</ele>
        <time>2021-05-12T15:56:24.536Z</time>
      </trkpt>
      <trkpt lat="46.70463" lon="5.62236">
        <ele>487.46579361009</ele>
        <time>2021-05-12T15:56:23.329Z</time>
      </trkpt>
      <trkpt lat="46.70486" lon="5.62223">
        <ele>490.37543538432</ele>
        <time>2021-05-12T15:56:22.130Z</time>
      </trkpt>
      <trkpt lat="46.70559" lon="5.62207">
        <ele>493.53801799201</ele>
        <time>2021-05-12T15:56:20.935Z</time>
      </trkpt>
      <trkpt lat="46.70597" lon="5.62201">
        <ele>496.31537855763</ele>
        <time>2021-05-12T15:56:19.752Z</time>
      </trkpt>
      <trkpt lat="46.70665" lon="5.622">
        <ele>499.0158499852</ele>
        <time>2021-05-12T15:56:18.575Z</time>
      </trkpt>
      <trkpt lat="46.70679" lon="5.62196">
        <ele>501.34493876712</ele>
        <time>2021-05-12T15:56:17.409Z</time>
      </trkpt>
      <trkpt lat="46.7069" lon="5.62191">
        <ele>503.42745574635</ele>
        <time>2021-05-12T15:56:16.245Z</time>
      </trkpt>
      <trkpt lat="46.70697" lon="5.62186">
        <ele>505.52404363422</ele>
        <time>2021-05-12T15:56:15.083Z</time>
      </trkpt>
      <trkpt lat="46.70732" lon="5.62145">
        <ele>507.90283239611</ele>
        <time>2021-05-12T15:56:13.922Z</time>
      </trkpt>
      <trkpt lat="46.70761" lon="5.6212">
        <ele>509.54580626266</ele>
        <time>2021-05-12T15:56:12.768Z</time>
      </trkpt>
      <trkpt lat="46.70785" lon="5.62097">
        <ele>510.80164137304</ele>
        <time>2021-05-12T15:56:11.620Z</time>
      </trkpt>
      <trkpt lat="46.708" lon="5.62072">
        <ele>511.91410423794</ele>
        <time>2021-05-12T15:56:10.476Z</time>
      </trkpt>
      <trkpt lat="46.70782" lon="5.62053">
        <ele>513.21347674933</ele>
        <time>2021-05-12T15:56:09.336Z</time>
      </trkpt>
      <trkpt lat="46.70744" lon="5.6198">
        <ele>513.97936423968</ele>
        <time>2021-05-12T15:56:08.200Z</time>
      </trkpt>
      <trkpt lat="46.70719" lon="5.61948">
        <ele>514.89574918996</ele>
        <time>2021-05-12T15:56:07.074Z</time>
      </trkpt>
      <trkpt lat="46.70685" lon="5.6192">
        <ele>515.7100180742</ele>
        <time>2021-05-12T15:56:05.953Z</time>
      </trkpt>
      <trkpt lat="46.70677" lon="5.61906">
        <ele>516.18010615605</ele>
        <time>2021-05-12T15:56:04.838Z</time>
      </trkpt>
      <trkpt lat="46.70672" lon="5.61893">
        <ele>516.49165033723</ele>
        <time>2021-05-12T15:56:03.725Z</time>
      </trkpt>
      <trkpt lat="46.70669" lon="5.61876">
        <ele>516.71739384145</ele>
        <time>2021-05-12T15:56:02.614Z</time>
      </trkpt>
      <trkpt lat="46.70667" lon="5.61829">
        <ele>516.84981428127</ele>
        <time>2021-05-12T15:56:01.505Z</time>
      </trkpt>
      <trkpt lat="46.70664" lon="5.61804">
        <ele>516.85707092837</ele>
        <time>2021-05-12T15:56:00.401Z</time>
      </trkpt>
      <trkpt lat="46.70646" lon="5.61749">
        <ele>516.80435049801</ele>
        <time>2021-05-12T15:55:59.300Z</time>
      </trkpt>
      <trkpt lat="46.70626" lon="5.61707">
        <ele>516.48717720813</ele>
        <time>2021-05-12T15:55:58.205Z</time>
      </trkpt>
      <trkpt lat="46.70612" lon="5.61689">
        <ele>516.0747396026</ele>
        <time>2021-05-12T15:55:57.116Z</time>
      </trkpt>
      <trkpt lat="46.7059" lon="5.61675">
        <ele>515.59270768042</ele>
        <time>2021-05-12T15:55:56.030Z</time>
      </trkpt>
      <trkpt lat="46.7053" lon="5.61665">
        <ele>515.00399857191</ele>
        <time>2021-05-12T15:55:54.948Z</time>
      </trkpt>
      <trkpt lat="46.70507" lon="5.61654">
        <ele>514.27159345706</ele>
        <time>2021-05-12T15:55:53.876Z</time>
      </trkpt>
      <trkpt lat="46.70439" lon="5.61633">
        <ele>513.48420980835</ele>
        <time>2021-05-12T15:55:52.807Z</time>
      </trkpt>
      <trkpt lat="46.70424" lon="5.61622">
        <ele>512.75086189922</ele>
        <time>2021-05-12T15:55:51.750Z</time>
      </trkpt>
      <trkpt lat="46.704" lon="5.61596">
        <ele>511.94568243728</ele>
        <time>2021-05-12T15:55:50.695Z</time>
      </trkpt>
      <trkpt lat="46.70378" lon="5.61569">
        <ele>511.32547039829</ele>
        <time>2021-05-12T15:55:49.645Z</time>
      </trkpt>
      <trkpt lat="46.70299" lon="5.61455">
        <ele>510.36135298132</ele>
        <time>2021-05-12T15:55:48.600Z</time>
      </trkpt>
      <trkpt lat="46.70289" lon="5.61448">
        <ele>509.61428906946</ele>
        <time>2021-05-12T15:55:47.573Z</time>
      </trkpt>
      <trkpt lat="46.70277" lon="5.61444">
        <ele>508.90373906837</ele>
        <time>2021-05-12T15:55:46.547Z</time>
      </trkpt>
      <trkpt lat="46.7018" lon="5.6145">
        <ele>508.1557136864</ele>
        <time>2021-05-12T15:55:45.523Z</time>
      </trkpt>
      <trkpt lat="46.7016" lon="5.61444">
        <ele>507.48281633648</ele>
        <time>2021-05-12T15:55:44.515Z</time>
      </trkpt>
      <trkpt lat="46.7016" lon="5.61444">
        <ele>506.85753071333</ele>
        <time>2021-05-12T15:55:43.510Z</time>
      </trkpt>
      <trkpt lat="46.70112" lon="5.61428">
        <ele>506.36502317124</ele>
        <time>2021-05-12T15:55:42.505Z</time>
      </trkpt>
      <trkpt lat="46.70061" lon="5.61418">
        <ele>505.77764123862</ele>
        <time>2021-05-12T15:55:41.508Z</time>
      </trkpt>
      <trkpt lat="46.70009" lon="5.61409">
        <ele>505.18458028777</ele>
        <time>2021-05-12T15:55:40.519Z</time>
      </trkpt>
      <trkpt lat="46.69987" lon="5.61404">
        <ele>504.62140210434</ele>
        <time>2021-05-12T15:55:39.539Z</time>
      </trkpt>
      <trkpt lat="46.69971" lon="5.61395">
        <ele>504.08378325253</ele>
        <time>2021-05-12T15:55:38.562Z</time>
      </trkpt>
      <trkpt lat="46.69873" lon="5.61339">
        <ele>503.88265559221</ele>
        <time>2021-05-12T15:55:37.588Z</time>
      </trkpt>
      <trkpt lat="46.6985" lon="5.6132">
        <ele>503.35512244893</ele>
        <time>2021-05-12T15:55:36.631Z</time>
      </trkpt>
      <trkpt lat="46.69814" lon="5.61283">
        <ele>502.76620085906</ele>
        <time>2021-05-12T15:55:35.678Z</time>
      </trkpt>
      <trkpt lat="46.69789" lon="5.61263">
        <ele>502.22241164097</ele>
        <time>2021-05-12T15:55:34.732Z</time>
      </trkpt>
      <trkpt lat="46.6973" lon="5.61215">
        <ele>501.36460210476</ele>
        <time>2021-05-12T15:55:33.791Z</time>
      </trkpt>
      <trkpt lat="46.6972" lon="5.61209">
        <ele>500.79272115843</ele>
        <time>2021-05-12T15:55:32.860Z</time>
      </trkpt>
      <trkpt lat="46.69708" lon="5.61207">
        <ele>500.21178944695</ele>
        <time>2021-05-12T15:55:31.931Z</time>
      </trkpt>
      <trkpt lat="46.69648" lon="5.61212">
        <ele>499.73899089422</ele>
        <time>2021-05-12T15:55:31.004Z</time>
      </trkpt>
      <trkpt lat="46.69638" lon="5.6121">
        <ele>499.13211161794</ele>
        <time>2021-05-12T15:55:30.087Z</time>
      </trkpt>
      <trkpt lat="46.69623" lon="5.61199">
        <ele>498.43821428557</ele>
        <time>2021-05-12T15:55:29.171Z</time>
      </trkpt>
      <trkpt lat="46.69556" lon="5.61107">
        <ele>497.61333480441</ele>
        <time>2021-05-12T15:55:28.258Z</time>
      </trkpt>
      <trkpt lat="46.69556" lon="5.61107">
        <ele>496.81016986986</ele>
        <time>2021-05-12T15:55:27.360Z</time>
      </trkpt>
      <trkpt lat="46.69512" lon="5.61054">
        <ele>496.04393809327</ele>
        <time>2021-05-12T15:55:26.462Z</time>
      </trkpt>
      <trkpt lat="46.69477" lon="5.61003">
        <ele>495.16718862703</ele>
        <time>2021-05-12T15:55:25.573Z</time>
      </trkpt>
      <trkpt lat="46.69468" lon="5.60988">
        <ele>494.08283649328</ele>
        <time>2021-05-12T15:55:24.692Z</time>
      </trkpt>
      <trkpt lat="46.69447" lon="5.60935">
        <ele>492.79429481567</ele>
        <time>2021-05-12T15:55:23.813Z</time>
      </trkpt>
      <trkpt lat="46.69435" lon="5.60906">
        <ele>491.41781448449</ele>
        <time>2021-05-12T15:55:22.941Z</time>
      </trkpt>
      <trkpt lat="46.6942" lon="5.60885">
        <ele>489.94504148206</ele>
        <time>2021-05-12T15:55:22.072Z</time>
      </trkpt>
      <trkpt lat="46.69402" lon="5.60871">
        <ele>488.3363879418</ele>
        <time>2021-05-12T15:55:21.207Z</time>
      </trkpt>
      <trkpt lat="46.69326" lon="5.6085">
        <ele>486.71700232823</ele>
        <time>2021-05-12T15:55:20.345Z</time>
      </trkpt>
      <trkpt lat="46.6932" lon="5.60845">
        <ele>485.01585045636</ele>
        <time>2021-05-12T15:55:19.496Z</time>
      </trkpt>
      <trkpt lat="46.69317" lon="5.6084">
        <ele>483.2183126175</ele>
        <time>2021-05-12T15:55:18.648Z</time>
      </trkpt>
      <trkpt lat="46.69315" lon="5.6083">
        <ele>481.27445223659</ele>
        <time>2021-05-12T15:55:17.800Z</time>
      </trkpt>
      <trkpt lat="46.6942" lon="5.60786">
        <ele>479.12790551762</ele>
        <time>2021-05-12T15:55:16.953Z</time>
      </trkpt>
      <trkpt lat="46.69436" lon="5.60777">
        <ele>477.06044761085</ele>
        <time>2021-05-12T15:55:16.124Z</time>
      </trkpt>
      <trkpt lat="46.69452" lon="5.60765">
        <ele>474.9107166826</ele>
        <time>2021-05-12T15:55:15.298Z</time>
      </trkpt>
      <trkpt lat="46.69476" lon="5.60742">
        <ele>472.58782687594</ele>
        <time>2021-05-12T15:55:14.475Z</time>
      </trkpt>
      <trkpt lat="46.69559" lon="5.60643">
        <ele>469.76909811573</ele>
        <time>2021-05-12T15:55:13.656Z</time>
      </trkpt>
      <trkpt lat="46.69574" lon="5.60621">
        <ele>467.45413015086</ele>
        <time>2021-05-12T15:55:12.854Z</time>
      </trkpt>
      <trkpt lat="46.69583" lon="5.60602">
        <ele>465.09396001514</ele>
        <time>2021-05-12T15:55:12.056Z</time>
      </trkpt>
      <trkpt lat="46.69636" lon="5.60473">
        <ele>462.62489444702</ele>
        <time>2021-05-12T15:55:11.260Z</time>
      </trkpt>
      <trkpt lat="46.69662" lon="5.60434">
        <ele>460.29147448212</ele>
        <time>2021-05-12T15:55:10.481Z</time>
      </trkpt>
      <trkpt lat="46.69692" lon="5.60408">
        <ele>457.95638464928</ele>
        <time>2021-05-12T15:55:09.708Z</time>
      </trkpt>
      <trkpt lat="46.69713" lon="5.60397">
        <ele>455.7654599912</ele>
        <time>2021-05-12T15:55:08.940Z</time>
      </trkpt>
      <trkpt lat="46.69761" lon="5.60381">
        <ele>453.49215000311</ele>
        <time>2021-05-12T15:55:08.176Z</time>
      </trkpt>
      <trkpt lat="46.69794" lon="5.60369">
        <ele>451.33979178474</ele>
        <time>2021-05-12T15:55:07.420Z</time>
      </trkpt>
      <trkpt lat="46.69807" lon="5.60362">
        <ele>449.13360408604</ele>
        <time>2021-05-12T15:55:06.669Z</time>
      </trkpt>
      <trkpt lat="46.6982" lon="5.6035">
        <ele>446.99582958547</ele>
        <time>2021-05-12T15:55:05.921Z</time>
      </trkpt>
      <trkpt lat="46.6983" lon="5.60337">
        <ele>444.95139306072</ele>
        <time>2021-05-12T15:55:05.175Z</time>
      </trkpt>
      <trkpt lat="46.69839" lon="5.60319">
        <ele>442.91051627413</ele>
        <time>2021-05-12T15:55:04.431Z</time>
      </trkpt>
      <trkpt lat="46.69845" lon="5.60301">
        <ele>440.98073092652</ele>
        <time>2021-05-12T15:55:03.690Z</time>
      </trkpt>
      <trkpt lat="46.69848" lon="5.60281">
        <ele>439.16337786595</ele>
        <time>2021-05-12T15:55:02.951Z</time>
      </trkpt>
      <trkpt lat="46.69849" lon="5.60263">
        <ele>437.34883082157</ele>
        <time>2021-05-12T15:55:02.214Z</time>
      </trkpt>
      <trkpt lat="46.69848" lon="5.60245">
        <ele>435.62683683879</ele>
        <time>2021-05-12T15:55:01.479Z</time>
      </trkpt>
      <trkpt lat="46.69845" lon="5.60232">
        <ele>433.94498541408</ele>
        <time>2021-05-12T15:55:00.746Z</time>
      </trkpt>
      <trkpt lat="46.6984" lon="5.60213">
        <ele>432.26492629347</ele>
        <time>2021-05-12T15:55:00.015Z</time>
      </trkpt>
      <trkpt lat="46.69827" lon="5.60189">
        <ele>430.66749023362</ele>
        <time>2021-05-12T15:54:59.286Z</time>
      </trkpt>
      <trkpt lat="46.6981" lon="5.60168">
        <ele>429.15698962006</ele>
        <time>2021-05-12T15:54:58.560Z</time>
      </trkpt>
      <trkpt lat="46.69758" lon="5.6012">
        <ele>427.5962159523</ele>
        <time>2021-05-12T15:54:57.838Z</time>
      </trkpt>
      <trkpt lat="46.69728" lon="5.60089">
        <ele>426.3040386359</ele>
        <time>2021-05-12T15:54:57.126Z</time>
      </trkpt>
      <trkpt lat="46.69713" lon="5.60068">
        <ele>424.92733279562</ele>
        <time>2021-05-12T15:54:56.420Z</time>
      </trkpt>
      <trkpt lat="46.69671" lon="5.6">
        <ele>423.266902008</ele>
        <time>2021-05-12T15:54:55.717Z</time>
      </trkpt>
      <trkpt lat="46.69671" lon="5.6">
        <ele>422.02373002947</ele>
        <time>2021-05-12T15:54:55.024Z</time>
      </trkpt>
      <trkpt lat="46.69662" lon="5.59984">
        <ele>420.75031800621</ele>
        <time>2021-05-12T15:54:54.331Z</time>
      </trkpt>
      <trkpt lat="46.69642" lon="5.59964">
        <ele>419.51335659716</ele>
        <time>2021-05-12T15:54:53.640Z</time>
      </trkpt>
      <trkpt lat="46.69644" lon="5.59959">
        <ele>418.32197051161</ele>
        <time>2021-05-12T15:54:52.953Z</time>
      </trkpt>
      <trkpt lat="46.69651" lon="5.59953">
        <ele>417.11430835358</ele>
        <time>2021-05-12T15:54:52.267Z</time>
      </trkpt>
      <trkpt lat="46.69662" lon="5.59952">
        <ele>415.95937876029</ele>
        <time>2021-05-12T15:54:51.582Z</time>
      </trkpt>
      <trkpt lat="46.69671" lon="5.59961">
        <ele>414.9232518739</ele>
        <time>2021-05-12T15:54:50.899Z</time>
      </trkpt>
      <trkpt lat="46.69702" lon="5.6">
        <ele>413.93108671614</ele>
        <time>2021-05-12T15:54:50.217Z</time>
      </trkpt>
      <trkpt lat="46.69702" lon="5.6">
        <ele>412.88781688325</ele>
        <time>2021-05-12T15:54:49.542Z</time>
      </trkpt>
      <trkpt lat="46.69729" lon="5.60032">
        <ele>411.76900339828</ele>
        <time>2021-05-12T15:54:48.867Z</time>
      </trkpt>
      <trkpt lat="46.69752" lon="5.60053">
        <ele>410.66247812953</ele>
        <time>2021-05-12T15:54:48.198Z</time>
      </trkpt>
      <trkpt lat="46.69812" lon="5.60091">
        <ele>409.50270512143</ele>
        <time>2021-05-12T15:54:47.533Z</time>
      </trkpt>
      <trkpt lat="46.69839" lon="5.60113">
        <ele>408.65416475819</ele>
        <time>2021-05-12T15:54:46.878Z</time>
      </trkpt>
      <trkpt lat="46.69847" lon="5.60113">
        <ele>407.48635088204</ele>
        <time>2021-05-12T15:54:46.228Z</time>
      </trkpt>
      <trkpt lat="46.69849" lon="5.60109">
        <ele>406.34945920075</ele>
        <time>2021-05-12T15:54:45.580Z</time>
      </trkpt>
      <trkpt lat="46.6985" lon="5.60104">
        <ele>405.23114953786</ele>
        <time>2021-05-12T15:54:44.932Z</time>
      </trkpt>
      <trkpt lat="46.69848" lon="5.60092">
        <ele>404.06425088996</ele>
        <time>2021-05-12T15:54:44.285Z</time>
      </trkpt>
      <trkpt lat="46.69845" lon="5.60086">
        <ele>403.00659081308</ele>
        <time>2021-05-12T15:54:43.639Z</time>
      </trkpt>
      <trkpt lat="46.69807" lon="5.60039">
        <ele>401.82789365712</ele>
        <time>2021-05-12T15:54:42.994Z</time>
      </trkpt>
      <trkpt lat="46.69807" lon="5.60039">
        <ele>400.83931111207</ele>
        <time>2021-05-12T15:54:42.357Z</time>
      </trkpt>
      <trkpt lat="46.69788" lon="5.6">
        <ele>399.646478267</ele>
        <time>2021-05-12T15:54:41.720Z</time>
      </trkpt>
      <trkpt lat="46.69759" lon="5.59942">
        <ele>398.61944222685</ele>
        <time>2021-05-12T15:54:41.088Z</time>
      </trkpt>
      <trkpt lat="46.69754" lon="5.59925">
        <ele>397.70783606474</ele>
        <time>2021-05-12T15:54:40.464Z</time>
      </trkpt>
      <trkpt lat="46.69755" lon="5.59888">
        <ele>396.65134554601</ele>
        <time>2021-05-12T15:54:39.842Z</time>
      </trkpt>
      <trkpt lat="46.69769" lon="5.59864">
        <ele>395.6971091775</ele>
        <time>2021-05-12T15:54:39.224Z</time>
      </trkpt>
      <trkpt lat="46.69788" lon="5.598">
        <ele>388.6</ele>
        <time>2021-05-12T15:54:38.610Z</time>
      </trkpt>
      <trkpt lat="46.69732" lon="5.59747">
        <ele>380.83517158972</ele>
        <time>2021-05-12T15:54:27.919Z</time>
      </trkpt>
      <trkpt lat="46.69669" lon="5.59705">
        <ele>379.28661383791</ele>
        <time>2021-05-12T15:54:27.406Z</time>
      </trkpt>
      <trkpt lat="46.69667" lon="5.59698">
        <ele>377.67360963429</ele>
        <time>2021-05-12T15:54:26.904Z</time>
      </trkpt>
      <trkpt lat="46.69596" lon="5.59594">
        <ele>375.39146424545</ele>
        <time>2021-05-12T15:54:26.403Z</time>
      </trkpt>
      <trkpt lat="46.69588" lon="5.59585">
        <ele>373.56979025095</ele>
        <time>2021-05-12T15:54:25.918Z</time>
      </trkpt>
      <trkpt lat="46.69554" lon="5.59575">
        <ele>371.64343510076</ele>
        <time>2021-05-12T15:54:25.434Z</time>
      </trkpt>
      <trkpt lat="46.69544" lon="5.59562">
        <ele>369.68068159649</ele>
        <time>2021-05-12T15:54:24.956Z</time>
      </trkpt>
      <trkpt lat="46.69506" lon="5.59479">
        <ele>367.23806977828</ele>
        <time>2021-05-12T15:54:24.480Z</time>
      </trkpt>
      <trkpt lat="46.69501" lon="5.59467">
        <ele>365.12469342992</ele>
        <time>2021-05-12T15:54:24.015Z</time>
      </trkpt>
      <trkpt lat="46.69452" lon="5.59425">
        <ele>362.78332363359</ele>
        <time>2021-05-12T15:54:23.552Z</time>
      </trkpt>
      <trkpt lat="46.69447" lon="5.59411">
        <ele>360.56582592524</ele>
        <time>2021-05-12T15:54:23.098Z</time>
      </trkpt>
      <trkpt lat="46.69438" lon="5.59355">
        <ele>358.3132249895</ele>
        <time>2021-05-12T15:54:22.645Z</time>
      </trkpt>
      <trkpt lat="46.6943" lon="5.59301">
        <ele>355.94761721013</ele>
        <time>2021-05-12T15:54:22.199Z</time>
      </trkpt>
      <trkpt lat="46.69401" lon="5.59257">
        <ele>353.4723027744</ele>
        <time>2021-05-12T15:54:21.759Z</time>
      </trkpt>
      <trkpt lat="46.69387" lon="5.59202">
        <ele>351.02216409118</ele>
        <time>2021-05-12T15:54:21.325Z</time>
      </trkpt>
      <trkpt lat="46.69379" lon="5.59185">
        <ele>348.70349102528</ele>
        <time>2021-05-12T15:54:20.898Z</time>
      </trkpt>
      <trkpt lat="46.69271" lon="5.59101">
        <ele>345.97524462214</ele>
        <time>2021-05-12T15:54:20.473Z</time>
      </trkpt>
      <trkpt lat="46.69249" lon="5.59088">
        <ele>343.76602025469</ele>
        <time>2021-05-12T15:54:20.068Z</time>
      </trkpt>
      <trkpt lat="46.69215" lon="5.59075">
        <ele>341.60526746865</ele>
        <time>2021-05-12T15:54:19.667Z</time>
      </trkpt>
      <trkpt lat="46.69156" lon="5.59063">
        <ele>339.61229413735</ele>
        <time>2021-05-12T15:54:19.271Z</time>
      </trkpt>
      <trkpt lat="46.69133" lon="5.59054">
        <ele>337.43180744712</ele>
        <time>2021-05-12T15:54:18.885Z</time>
      </trkpt>
      <trkpt lat="46.69099" lon="5.5901">
        <ele>335.02610668226</ele>
        <time>2021-05-12T15:54:18.503Z</time>
      </trkpt>
      <trkpt lat="46.69009" lon="5.58958">
        <ele>332.95953393238</ele>
        <time>2021-05-12T15:54:18.128Z</time>
      </trkpt>
      <trkpt lat="46.69009" lon="5.58958">
        <ele>330.81112060957</ele>
        <time>2021-05-12T15:54:17.768Z</time>
      </trkpt>
      <trkpt lat="46.68991" lon="5.58929">
        <ele>328.3784693176</ele>
        <time>2021-05-12T15:54:17.408Z</time>
      </trkpt>
      <trkpt lat="46.68982" lon="5.58897">
        <ele>326.02032254073</ele>
        <time>2021-05-12T15:54:17.053Z</time>
      </trkpt>
      <trkpt lat="46.68972" lon="5.58839">
        <ele>323.80198150708</ele>
        <time>2021-05-12T15:54:16.701Z</time>
      </trkpt>
      <trkpt lat="46.68967" lon="5.58829">
        <ele>322.02840362591</ele>
        <time>2021-05-12T15:54:16.356Z</time>
      </trkpt>
      <trkpt lat="46.68932" lon="5.58764">
        <ele>320.26582434762</ele>
        <time>2021-05-12T15:54:16.012Z</time>
      </trkpt>
      <trkpt lat="46.68897" lon="5.58682">
        <ele>318.81649961979</ele>
        <time>2021-05-12T15:54:15.678Z</time>
      </trkpt>
      <trkpt lat="46.68726" lon="5.58462">
        <ele>317.19072548139</ele>
        <time>2021-05-12T15:54:15.354Z</time>
      </trkpt>
      <trkpt lat="46.68717" lon="5.58447">
        <ele>315.99331098579</ele>
        <time>2021-05-12T15:54:15.067Z</time>
      </trkpt>
      <trkpt lat="46.68717" lon="5.58445">
        <ele>314.93326034443</ele>
        <time>2021-05-12T15:54:14.782Z</time>
      </trkpt>
      <trkpt lat="46.68703" lon="5.58442">
        <ele>313.9479458332</ele>
        <time>2021-05-12T15:54:14.497Z</time>
      </trkpt>
      <trkpt lat="46.68703" lon="5.58442">
        <ele>313.14841111067</ele>
        <time>2021-05-12T15:54:14.214Z</time>
      </trkpt>
      <trkpt lat="46.68642" lon="5.58439">
        <ele>312.45327346824</ele>
        <time>2021-05-12T15:54:13.931Z</time>
      </trkpt>
      <trkpt lat="46.68611" lon="5.58435">
        <ele>311.94974549833</ele>
        <time>2021-05-12T15:54:13.658Z</time>
      </trkpt>
      <trkpt lat="46.68531" lon="5.58417">
        <ele>311.44134916</ele>
        <time>2021-05-12T15:54:13.390Z</time>
      </trkpt>
      <trkpt lat="46.68429" lon="5.58394">
        <ele>311.0908115426</ele>
        <time>2021-05-12T15:54:13.135Z</time>
      </trkpt>
      <trkpt lat="46.6837" lon="5.58381">
        <ele>310.88692928227</ele>
        <time>2021-05-12T15:54:12.897Z</time>
      </trkpt>
      <trkpt lat="46.68353" lon="5.58378">
        <ele>310.7799761198</ele>
        <time>2021-05-12T15:54:12.668Z</time>
      </trkpt>
      <trkpt lat="46.68353" lon="5.58378">
        <ele>310.68908516208</ele>
        <time>2021-05-12T15:54:12.442Z</time>
      </trkpt>
      <trkpt lat="46.68308" lon="5.58371">
        <ele>310.80366589964</ele>
        <time>2021-05-12T15:54:12.216Z</time>
      </trkpt>
      <trkpt lat="46.68308" lon="5.58371">
        <ele>310.78682819375</ele>
        <time>2021-05-12T15:54:11.997Z</time>
      </trkpt>
      <trkpt lat="46.68222" lon="5.58356">
        <ele>310.71131581513</ele>
        <time>2021-05-12T15:54:11.778Z</time>
      </trkpt>
      <trkpt lat="46.68208" lon="5.58351">
        <ele>310.80863314097</ele>
        <time>2021-05-12T15:54:11.573Z</time>
      </trkpt>
      <trkpt lat="46.68193" lon="5.58338">
        <ele>310.89541085936</ele>
        <time>2021-05-12T15:54:11.370Z</time>
      </trkpt>
      <trkpt lat="46.68195" lon="5.58334">
        <ele>310.99727873225</ele>
        <time>2021-05-12T15:54:11.170Z</time>
      </trkpt>
      <trkpt lat="46.68195" lon="5.58334">
        <ele>311.11445563874</ele>
        <time>2021-05-12T15:54:10.971Z</time>
      </trkpt>
      <trkpt lat="46.68198" lon="5.58328">
        <ele>311.20309415835</ele>
        <time>2021-05-12T15:54:10.772Z</time>
      </trkpt>
      <trkpt lat="46.68199" lon="5.58319">
        <ele>311.2780835991</ele>
        <time>2021-05-12T15:54:10.574Z</time>
      </trkpt>
      <trkpt lat="46.68201" lon="5.58259">
        <ele>311.33866384691</ele>
        <time>2021-05-12T15:54:10.377Z</time>
      </trkpt>
      <trkpt lat="46.68201" lon="5.58259">
        <ele>311.43248309624</ele>
        <time>2021-05-12T15:54:10.186Z</time>
      </trkpt>
      <trkpt lat="46.68206" lon="5.5815">
        <ele>311.44313340107</ele>
        <time>2021-05-12T15:54:09.995Z</time>
      </trkpt>
      <trkpt lat="46.6821" lon="5.58125">
        <ele>311.50789015257</ele>
        <time>2021-05-12T15:54:09.816Z</time>
      </trkpt>
      <trkpt lat="46.68215" lon="5.58106">
        <ele>311.51137299225</ele>
        <time>2021-05-12T15:54:09.640Z</time>
      </trkpt>
      <trkpt lat="46.68228" lon="5.58075">
        <ele>311.44906906585</ele>
        <time>2021-05-12T15:54:09.466Z</time>
      </trkpt>
      <trkpt lat="46.68239" lon="5.58054">
        <ele>311.23983003643</ele>
        <time>2021-05-12T15:54:09.296Z</time>
      </trkpt>
      <trkpt lat="46.68239" lon="5.58054">
        <ele>311.09254037121</ele>
        <time>2021-05-12T15:54:09.129Z</time>
      </trkpt>
      <trkpt lat="46.68254" lon="5.58025">
        <ele>310.77893382891</ele>
        <time>2021-05-12T15:54:08.962Z</time>
      </trkpt>
      <trkpt lat="46.68257" lon="5.58013">
        <ele>310.53606746113</ele>
        <time>2021-05-12T15:54:08.799Z</time>
      </trkpt>
      <trkpt lat="46.68257" lon="5.58006">
        <ele>310.21573027895</ele>
        <time>2021-05-12T15:54:08.638Z</time>
      </trkpt>
      <trkpt lat="46.68271" lon="5.57991">
        <ele>309.78850047716</ele>
        <time>2021-05-12T15:54:08.477Z</time>
      </trkpt>
      <trkpt lat="46.683" lon="5.57938">
        <ele>309.27107476363</ele>
        <time>2021-05-12T15:54:08.319Z</time>
      </trkpt>
      <trkpt lat="46.68327" lon="5.57889">
        <ele>308.59268333983</ele>
        <time>2021-05-12T15:54:08.169Z</time>
      </trkpt>
      <trkpt lat="46.68327" lon="5.57889">
        <ele>307.97804484134</ele>
        <time>2021-05-12T15:54:08.026Z</time>
      </trkpt>
      <trkpt lat="46.68339" lon="5.5786">
        <ele>307.25418252262</ele>
        <time>2021-05-12T15:54:07.883Z</time>
      </trkpt>
      <trkpt lat="46.68342" lon="5.57848">
        <ele>306.40159191398</ele>
        <time>2021-05-12T15:54:07.743Z</time>
      </trkpt>
      <trkpt lat="46.68343" lon="5.57835">
        <ele>305.43914610895</ele>
        <time>2021-05-12T15:54:07.605Z</time>
      </trkpt>
      <trkpt lat="46.68343" lon="5.57821">
        <ele>304.34666150882</ele>
        <time>2021-05-12T15:54:07.468Z</time>
      </trkpt>
      <trkpt lat="46.68337" lon="5.578">
        <ele>303.10505817854</ele>
        <time>2021-05-12T15:54:07.333Z</time>
      </trkpt>
      <trkpt lat="46.68274" lon="5.57638">
        <ele>301.55369943429</ele>
        <time>2021-05-12T15:54:07.200Z</time>
      </trkpt>
      <trkpt lat="46.68342" lon="5.57613">
        <ele>300.32062911346</ele>
        <time>2021-05-12T15:54:07.088Z</time>
      </trkpt>
      <trkpt lat="46.68371" lon="5.57595">
        <ele>299.02021940317</ele>
        <time>2021-05-12T15:54:06.987Z</time>
      </trkpt>
      <trkpt lat="46.68394" lon="5.57576">
        <ele>297.54697812931</ele>
        <time>2021-05-12T15:54:06.891Z</time>
      </trkpt>
      <trkpt lat="46.68406" lon="5.57551">
        <ele>296.21673702515</ele>
        <time>2021-05-12T15:54:06.799Z</time>
      </trkpt>
      <trkpt lat="46.68412" lon="5.57535">
        <ele>294.82806824189</ele>
        <time>2021-05-12T15:54:06.711Z</time>
      </trkpt>
      <trkpt lat="46.68416" lon="5.57513">
        <ele>293.33472836068</ele>
        <time>2021-05-12T15:54:06.625Z</time>
      </trkpt>
      <trkpt lat="46.68426" lon="5.57401">
        <ele>291.91322028669</ele>
        <time>2021-05-12T15:54:06.541Z</time>
      </trkpt>
      <trkpt lat="46.68427" lon="5.57309">
        <ele>290.12912805049</ele>
        <time>2021-05-12T15:54:06.469Z</time>
      </trkpt>
      <trkpt lat="46.68429" lon="5.57286">
        <ele>288.15555476732</ele>
        <time>2021-05-12T15:54:06.408Z</time>
      </trkpt>
      <trkpt lat="46.68433" lon="5.57247">
        <ele>286.05810793806</ele>
        <time>2021-05-12T15:54:06.349Z</time>
      </trkpt>
      <trkpt lat="46.68448" lon="5.57179">
        <ele>283.65909065827</ele>
        <time>2021-05-12T15:54:06.294Z</time>
      </trkpt>
      <trkpt lat="46.68452" lon="5.57143">
        <ele>282.34620661632</ele>
        <time>2021-05-12T15:54:06.247Z</time>
      </trkpt>
      <trkpt lat="46.68454" lon="5.57127">
        <ele>281.57309489556</ele>
        <time>2021-05-12T15:54:06.204Z</time>
      </trkpt>
      <trkpt lat="46.68451" lon="5.57087">
        <ele>280.95841111284</ele>
        <time>2021-05-12T15:54:06.163Z</time>
      </trkpt>
      <trkpt lat="46.68446" lon="5.57059">
        <ele>280.33098175074</ele>
        <time>2021-05-12T15:54:06.127Z</time>
      </trkpt>
      <trkpt lat="46.68413" lon="5.5695">
        <ele>279.82346470648</ele>
        <time>2021-05-12T15:54:06.094Z</time>
      </trkpt>
      <trkpt lat="46.68408" lon="5.56925">
        <ele>279.17219313666</ele>
        <time>2021-05-12T15:54:06.074Z</time>
      </trkpt>
      <trkpt lat="46.68408" lon="5.56901">
        <ele>278.47569867183</ele>
        <time>2021-05-12T15:54:06.057Z</time>
      </trkpt>
      <trkpt lat="46.68413" lon="5.56855">
        <ele>277.77022179251</ele>
        <time>2021-05-12T15:54:06.042Z</time>
      </trkpt>
      <trkpt lat="46.68413" lon="5.56855">
        <ele>277.10628080429</ele>
        <time>2021-05-12T15:54:06.033Z</time>
      </trkpt>
      <trkpt lat="46.68414" lon="5.5684">
        <ele>276.41322505118</ele>
        <time>2021-05-12T15:54:06.024Z</time>
      </trkpt>
      <trkpt lat="46.68419" lon="5.56841">
        <ele>275.78715839597</ele>
        <time>2021-05-12T15:54:06.016Z</time>
      </trkpt>
      <trkpt lat="46.68428" lon="5.56843">
        <ele>275.18686020635</ele>
        <time>2021-05-12T15:54:06.009Z</time>
      </trkpt>
      <trkpt lat="46.68442" lon="5.5685">
        <ele>274.65554604432</ele>
        <time>2021-05-12T15:54:06.003Z</time>
      </trkpt>
      <trkpt lat="46.68458" lon="5.56866">
        <ele>274.18374041957</ele>
        <time>2021-05-12T15:54:06.000Z</time>
      </trkpt>
    </trkseg>
  </trk>
</gpx>